St. Margarethen - Festspielgelnde
Wetterdaten: Mittwoch, 04.01.2012
Datum Zeit Temp. A. Feuchte A. Regen Wind Richtung Richtung Windben
04.01.2012 00:00 6,1 C 81 % 0,0 l/m 18,0 km/h (3 Bft) S-SW 205 22,5 km/h (4 Bft)
04.01.2012 00:01 6,1 C 81 % 0,0 l/m 20,9 km/h (4 Bft) SW 219 22,5 km/h (4 Bft)
04.01.2012 00:02 6,1 C 81 % 0,0 l/m 11,3 km/h (2 Bft) S-SO 158 22,5 km/h (4 Bft)
04.01.2012 00:03 6,1 C 81 % 0,0 l/m 14,5 km/h (3 Bft) S-SO 156 22,5 km/h (4 Bft)
04.01.2012 00:04 6,1 C 81 % 0,0 l/m 9,7 km/h (2 Bft) S-SW 207 22,5 km/h (4 Bft)
04.01.2012 00:05 6,0 C 81 % 0,0 l/m 8,0 km/h (2 Bft) S-SO 158 22,5 km/h (4 Bft)
04.01.2012 00:06 5,9 C 81 % 0,0 l/m 16,1 km/h (3 Bft) S 170 25,7 km/h (4 Bft)
04.01.2012 00:07 5,9 C 82 % 0,0 l/m 14,5 km/h (3 Bft) S-SW 204 25,7 km/h (4 Bft)
04.01.2012 00:08 5,9 C 82 % 0,0 l/m 17,7 km/h (3 Bft) S-SO 163 25,7 km/h (4 Bft)
04.01.2012 00:09 5,9 C 82 % 0,0 l/m 14,5 km/h (3 Bft) S-SW 204 25,7 km/h (4 Bft)
04.01.2012 00:10 5,8 C 82 % 0,0 l/m 14,8 km/h (3 Bft) S-SW 203 27,4 km/h (4 Bft)
04.01.2012 00:11 5,8 C 82 % 0,0 l/m 17,5 km/h (3 Bft) S-SO 163 22,5 km/h (4 Bft)
04.01.2012 00:13 5,8 C 82 % 0,0 l/m 18,2 km/h (3 Bft) S-SO 163 25,7 km/h (4 Bft)
04.01.2012 00:14 5,8 C 82 % 0,0 l/m 17,0 km/h (3 Bft) S-SO 162 22,5 km/h (4 Bft)
04.01.2012 00:15 5,8 C 82 % 0,0 l/m 13,3 km/h (3 Bft) S-SO 165 20,9 km/h (4 Bft)
04.01.2012 00:16 5,8 C 82 % 0,0 l/m 14,5 km/h (3 Bft) S-SW 202 20,9 km/h (4 Bft)
04.01.2012 00:17 5,8 C 82 % 0,0 l/m 16,1 km/h (3 Bft) S-SO 157 20,9 km/h (4 Bft)
04.01.2012 00:18 5,7 C 82 % 0,0 l/m 13,7 km/h (3 Bft) S-SO 150 17,7 km/h (3 Bft)
04.01.2012 00:19 5,7 C 82 % 0,0 l/m 15,9 km/h (3 Bft) S-SO 166 20,9 km/h (4 Bft)
04.01.2012 00:20 5,7 C 82 % 0,0 l/m 15,3 km/h (3 Bft) SO 143 20,9 km/h (4 Bft)
04.01.2012 00:21 5,7 C 82 % 0,0 l/m 18,4 km/h (3 Bft) S-SO 167 27,4 km/h (4 Bft)
04.01.2012 00:22 5,8 C 82 % 0,0 l/m 20,4 km/h (4 Bft) S-SO 165 24,1 km/h (4 Bft)
04.01.2012 00:23 5,8 C 82 % 0,0 l/m 15,9 km/h (3 Bft) S-SO 149 19,3 km/h (3 Bft)
04.01.2012 00:24 5,8 C 82 % 0,0 l/m 14,8 km/h (3 Bft) S-SO 156 19,3 km/h (3 Bft)
04.01.2012 00:25 5,8 C 82 % 0,0 l/m 14,2 km/h (3 Bft) S-SO 153 19,3 km/h (3 Bft)
04.01.2012 00:26 5,8 C 82 % 0,0 l/m 19,6 km/h (3 Bft) S-SO 150 24,1 km/h (4 Bft)
04.01.2012 00:27 5,8 C 82 % 0,0 l/m 15,1 km/h (3 Bft) S-SO 167 20,9 km/h (4 Bft)
04.01.2012 00:28 5,8 C 82 % 0,0 l/m 14,7 km/h (3 Bft) S-SO 154 20,9 km/h (4 Bft)
04.01.2012 00:29 5,9 C 81 % 0,0 l/m 14,6 km/h (3 Bft) S-SO 159 19,3 km/h (3 Bft)
04.01.2012 00:30 5,9 C 81 % 0,0 l/m 12,2 km/h (2 Bft) S-SW 203 17,7 km/h (3 Bft)
04.01.2012 00:31 5,9 C 81 % 0,0 l/m 10,7 km/h (2 Bft) SO 136 14,5 km/h (3 Bft)
04.01.2012 00:32 5,9 C 81 % 0,0 l/m 9,6 km/h (2 Bft) S 179 16,1 km/h (3 Bft)
04.01.2012 00:33 5,9 C 81 % 0,0 l/m 10,0 km/h (2 Bft) W-SW 240 17,7 km/h (3 Bft)
04.01.2012 00:34 5,9 C 81 % 0,0 l/m 9,6 km/h (2 Bft) SO 144 14,5 km/h (3 Bft)
04.01.2012 00:35 5,9 C 81 % 0,0 l/m 9,3 km/h (2 Bft) S-SW 210 14,5 km/h (3 Bft)
04.01.2012 00:36 5,8 C 81 % 0,0 l/m 9,1 km/h (2 Bft) SW 232 12,9 km/h (3 Bft)
04.01.2012 00:37 5,8 C 82 % 0,0 l/m 7,3 km/h (2 Bft) S-SW 203 14,5 km/h (3 Bft)
04.01.2012 00:38 5,8 C 82 % 0,0 l/m 10,0 km/h (2 Bft) W 272 17,7 km/h (3 Bft)
04.01.2012 00:39 5,8 C 82 % 0,0 l/m 10,8 km/h (2 Bft) W 265 12,9 km/h (3 Bft)
04.01.2012 00:40 5,8 C 82 % 0,0 l/m 9,7 km/h (2 Bft) SW 236 12,9 km/h (3 Bft)
04.01.2012 00:41 5,8 C 82 % 0,0 l/m 9,0 km/h (2 Bft) SW 222 12,9 km/h (3 Bft)
04.01.2012 00:42 5,7 C 82 % 0,0 l/m 11,4 km/h (2 Bft) SW 232 16,1 km/h (3 Bft)
04.01.2012 00:43 5,7 C 82 % 0,0 l/m 11,4 km/h (2 Bft) SW 229 16,1 km/h (3 Bft)
04.01.2012 00:44 5,7 C 82 % 0,0 l/m 12,7 km/h (3 Bft) S 187 17,7 km/h (3 Bft)
04.01.2012 00:45 5,7 C 82 % 0,0 l/m 10,9 km/h (2 Bft) S 174 17,7 km/h (3 Bft)
04.01.2012 00:46 5,7 C 82 % 0,0 l/m 8,9 km/h (2 Bft) SW 227 14,5 km/h (3 Bft)
04.01.2012 00:47 5,6 C 83 % 0,0 l/m 12,2 km/h (2 Bft) SW 222 20,9 km/h (4 Bft)
04.01.2012 00:48 5,6 C 83 % 0,0 l/m 11,3 km/h (2 Bft) S 172 16,1 km/h (3 Bft)
04.01.2012 00:49 5,6 C 83 % 0,0 l/m 13,2 km/h (3 Bft) S-SO 155 17,7 km/h (3 Bft)
04.01.2012 00:50 5,6 C 83 % 0,0 l/m 10,6 km/h (2 Bft) S-SO 166 12,9 km/h (3 Bft)
04.01.2012 00:51 5,5 C 83 % 0,0 l/m 11,0 km/h (2 Bft) W 259 16,1 km/h (3 Bft)
04.01.2012 00:52 5,5 C 83 % 0,0 l/m 9,2 km/h (2 Bft) SW 218 12,9 km/h (3 Bft)
04.01.2012 00:53 5,4 C 83 % 0,0 l/m 8,4 km/h (2 Bft) S-SW 203 11,3 km/h (2 Bft)
04.01.2012 00:54 5,4 C 83 % 0,0 l/m 9,3 km/h (2 Bft) SW 224 12,9 km/h (3 Bft)
04.01.2012 00:55 5,4 C 84 % 0,0 l/m 11,7 km/h (2 Bft) SW 219 16,1 km/h (3 Bft)
04.01.2012 00:56 5,3 C 84 % 0,0 l/m 8,0 km/h (2 Bft) S-SW 208 11,3 km/h (2 Bft)
04.01.2012 00:57 5,3 C 84 % 0,0 l/m 8,9 km/h (2 Bft) S-SW 194 11,3 km/h (2 Bft)
04.01.2012 00:59 5,3 C 84 % 0,0 l/m 5,8 km/h (2 Bft) S-SW 205 12,9 km/h (3 Bft)
04.01.2012 01:00 5,2 C 84 % 0,0 l/m 6,1 km/h (2 Bft) SW 226 9,7 km/h (2 Bft)
04.01.2012 01:01 5,2 C 84 % 0,0 l/m 6,1 km/h (2 Bft) S-SW 211 8,0 km/h (2 Bft)
04.01.2012 01:02 5,2 C 84 % 0,0 l/m 6,5 km/h (2 Bft) S 174 8,0 km/h (2 Bft)
04.01.2012 01:03 5,2 C 84 % 0,0 l/m 6,4 km/h (2 Bft) S-SW 204 8,0 km/h (2 Bft)
04.01.2012 01:04 5,2 C 85 % 0,0 l/m 5,5 km/h (1 Bft) S 184 9,7 km/h (2 Bft)
04.01.2012 01:05 5,1 C 85 % 0,0 l/m 5,7 km/h (1 Bft) S-SW 203 9,7 km/h (2 Bft)
04.01.2012 01:06 5,1 C 85 % 0,0 l/m 6,6 km/h (2 Bft) S 178 8,0 km/h (2 Bft)
04.01.2012 01:07 5,1 C 85 % 0,0 l/m 6,4 km/h (2 Bft) S 169 9,7 km/h (2 Bft)
04.01.2012 01:08 5,1 C 85 % 0,0 l/m 3,8 km/h (1 Bft) SW 236 4,8 km/h (1 Bft)
04.01.2012 01:09 5,1 C 85 % 0,0 l/m 5,2 km/h (1 Bft) S 172 8,0 km/h (2 Bft)
04.01.2012 01:10 5,1 C 85 % 0,0 l/m 4,8 km/h (1 Bft) S-SW 193 6,4 km/h (2 Bft)
04.01.2012 01:11 5,1 C 85 % 0,0 l/m 6,2 km/h (2 Bft) S-SW 205 8,0 km/h (2 Bft)
04.01.2012 01:12 5,1 C 85 % 0,0 l/m 3,0 km/h (1 Bft) S-SW 194 4,8 km/h (1 Bft)
04.01.2012 01:13 5,1 C 85 % 0,0 l/m 3,5 km/h (1 Bft) S-SO 158 6,4 km/h (2 Bft)
04.01.2012 01:14 5,1 C 85 % 0,0 l/m 4,7 km/h (1 Bft) S 190 6,4 km/h (2 Bft)
04.01.2012 01:15 5,1 C 85 % 0,0 l/m 5,8 km/h (2 Bft) S-SW 198 8,0 km/h (2 Bft)
04.01.2012 01:16 5,2 C 84 % 0,0 l/m 6,6 km/h (2 Bft) S-SO 159 8,0 km/h (2 Bft)
04.01.2012 01:17 5,2 C 84 % 0,0 l/m 5,9 km/h (2 Bft) S-SO 152 6,4 km/h (2 Bft)
04.01.2012 01:18 5,2 C 84 % 0,0 l/m 5,8 km/h (2 Bft) S-SO 150 6,4 km/h (2 Bft)
04.01.2012 01:19 5,2 C 84 % 0,0 l/m 5,6 km/h (1 Bft) S-SO 168 6,4 km/h (2 Bft)
04.01.2012 01:20 5,2 C 84 % 0,0 l/m 3,9 km/h (1 Bft) S-SO 155 4,8 km/h (1 Bft)
04.01.2012 01:21 5,2 C 84 % 0,0 l/m 3,1 km/h (1 Bft) S-SO 162 4,8 km/h (1 Bft)
04.01.2012 01:22 5,3 C 84 % 0,0 l/m 2,8 km/h (1 Bft) SO 146 4,8 km/h (1 Bft)
04.01.2012 01:23 5,3 C 84 % 0,0 l/m 4,5 km/h (1 Bft) SO 139 4,8 km/h (1 Bft)
04.01.2012 01:24 5,3 C 84 % 0,0 l/m 4,2 km/h (1 Bft) SO 131 4,8 km/h (1 Bft)
04.01.2012 01:25 5,3 C 84 % 0,0 l/m 3,0 km/h (1 Bft) SO 132 4,8 km/h (1 Bft)
04.01.2012 01:26 5,3 C 84 % 0,0 l/m 1,3 km/h (1 Bft) SO 133 1,6 km/h (1 Bft)
04.01.2012 01:27 5,3 C 84 % 0,0 l/m 0,1 km/h (0 Bft) SO 132 1,6 km/h (1 Bft)
04.01.2012 01:28 5,3 C 84 % 0,0 l/m 0,1 km/h (0 Bft) SO 133 1,6 km/h (1 Bft)
04.01.2012 01:29 5,2 C 84 % 0,0 l/m 0,2 km/h (0 Bft) SO 133 1,6 km/h (1 Bft)
04.01.2012 01:30 5,2 C 84 % 0,0 l/m 1,6 km/h (1 Bft) SO 133 1,6 km/h (1 Bft)
04.01.2012 01:31 5,3 C 84 % 0,0 l/m 3,3 km/h (1 Bft) O-SO 121 4,8 km/h (1 Bft)
04.01.2012 01:32 5,3 C 84 % 0,0 l/m 4,9 km/h (1 Bft) SO 125 6,4 km/h (2 Bft)
04.01.2012 01:33 5,3 C 83 % 0,0 l/m 3,6 km/h (1 Bft) O-SO 115 4,8 km/h (1 Bft)
04.01.2012 01:34 5,3 C 83 % 0,0 l/m 2,9 km/h (1 Bft) SO 132 3,2 km/h (1 Bft)
04.01.2012 01:35 5,3 C 83 % 0,0 l/m 2,7 km/h (1 Bft) O 101 3,2 km/h (1 Bft)
04.01.2012 01:36 5,3 C 83 % 0,0 l/m 3,2 km/h (1 Bft) O 98 3,2 km/h (1 Bft)
04.01.2012 01:37 5,3 C 83 % 0,0 l/m 3,1 km/h (1 Bft) O 85 4,8 km/h (1 Bft)
04.01.2012 01:38 5,2 C 84 % 0,0 l/m 0,9 km/h (0 Bft) O 85 1,6 km/h (1 Bft)
04.01.2012 01:39 5,2 C 84 % 0,0 l/m 0,0 km/h (0 Bft) O 85 0,0 km/h (0 Bft)
04.01.2012 01:40 5,2 C 84 % 0,0 l/m 0,2 km/h (0 Bft) O 85 1,6 km/h (1 Bft)
04.01.2012 01:41 5,1 C 84 % 0,0 l/m 1,4 km/h (1 Bft) NO 43 1,6 km/h (1 Bft)
04.01.2012 01:42 5,1 C 84 % 0,0 l/m 0,5 km/h (0 Bft) NO 43 1,6 km/h (1 Bft)
04.01.2012 01:43 5,1 C 84 % 0,0 l/m 1,8 km/h (1 Bft) O-NO 78 3,2 km/h (1 Bft)
04.01.2012 01:44 5,1 C 84 % 0,0 l/m 1,2 km/h (1 Bft) O-NO 77 1,6 km/h (1 Bft)
04.01.2012 01:45 5,1 C 84 % 0,0 l/m 0,1 km/h (0 Bft) O-NO 77 1,6 km/h (1 Bft)
04.01.2012 01:46 5,1 C 84 % 0,0 l/m 1,5 km/h (1 Bft) O-SO 115 3,2 km/h (1 Bft)
04.01.2012 01:47 5,2 C 84 % 0,0 l/m 0,5 km/h (0 Bft) SO 134 1,6 km/h (1 Bft)
04.01.2012 01:48 5,2 C 84 % 0,0 l/m 0,1 km/h (0 Bft) SO 130 1,6 km/h (1 Bft)
04.01.2012 01:49 5,2 C 84 % 0,0 l/m 2,4 km/h (1 Bft) O-SO 103 3,2 km/h (1 Bft)
04.01.2012 01:50 5,2 C 84 % 0,0 l/m 0,4 km/h (0 Bft) O-SO 103 1,6 km/h (1 Bft)
04.01.2012 01:51 5,2 C 84 % 0,0 l/m 0,1 km/h (0 Bft) O-SO 103 1,6 km/h (1 Bft)
04.01.2012 01:52 5,2 C 84 % 0,0 l/m 0,0 km/h (0 Bft) O-SO 103 0,0 km/h (0 Bft)
04.01.2012 01:53 5,2 C 83 % 0,0 l/m 1,0 km/h (0 Bft) N-NO 18 3,2 km/h (1 Bft)
04.01.2012 01:54 5,2 C 84 % 0,0 l/m 0,5 km/h (0 Bft) N-NO 18 1,6 km/h (1 Bft)
04.01.2012 01:55 5,2 C 84 % 0,0 l/m 0,0 km/h (0 Bft) N-NW 338 0,0 km/h (0 Bft)
04.01.2012 01:56 5,1 C 84 % 0,0 l/m 0,0 km/h (0 Bft) N-NW 333 0,0 km/h (0 Bft)
04.01.2012 01:57 5,1 C 84 % 0,0 l/m 0,0 km/h (0 Bft) N-NW 333 0,0 km/h (0 Bft)
04.01.2012 01:58 5,1 C 84 % 0,0 l/m 0,0 km/h (0 Bft) N-NW 333 0,0 km/h (0 Bft)
04.01.2012 01:59 5,1 C 84 % 0,0 l/m 0,1 km/h (0 Bft) O-NO 58 1,6 km/h (1 Bft)
04.01.2012 02:00 5,1 C 84 % 0,0 l/m 3,7 km/h (1 Bft) O-NO 66 4,8 km/h (1 Bft)
04.01.2012 02:01 5,1 C 84 % 0,0 l/m 4,3 km/h (1 Bft) N-NO 27 4,8 km/h (1 Bft)
04.01.2012 02:02 5,0 C 84 % 0,0 l/m 5,9 km/h (2 Bft) N-NO 25 9,7 km/h (2 Bft)
04.01.2012 02:03 4,9 C 84 % 0,0 l/m 10,9 km/h (2 Bft) NO 40 12,9 km/h (3 Bft)
04.01.2012 02:04 4,9 C 85 % 0,0 l/m 10,7 km/h (2 Bft) NO 46 12,9 km/h (3 Bft)
04.01.2012 02:05 4,8 C 85 % 0,0 l/m 9,5 km/h (2 Bft) NO 46 12,9 km/h (3 Bft)
04.01.2012 02:06 4,7 C 85 % 0,0 l/m 7,4 km/h (2 Bft) NO 46 9,7 km/h (2 Bft)
04.01.2012 02:07 4,6 C 85 % 0,0 l/m 6,4 km/h (2 Bft) NO 46 8,0 km/h (2 Bft)
04.01.2012 02:08 4,5 C 86 % 0,0 l/m 8,1 km/h (2 Bft) N-NO 23 11,3 km/h (2 Bft)
04.01.2012 02:09 4,4 C 86 % 0,0 l/m 8,8 km/h (2 Bft) N-NO 18 11,3 km/h (2 Bft)
04.01.2012 02:10 4,4 C 86 % 0,0 l/m 9,7 km/h (2 Bft) NO 41 11,3 km/h (2 Bft)
04.01.2012 02:11 4,4 C 87 % 0,0 l/m 10,0 km/h (2 Bft) NO 46 11,3 km/h (2 Bft)
04.01.2012 02:12 4,3 C 87 % 0,0 l/m 10,4 km/h (2 Bft) O-NO 57 11,3 km/h (2 Bft)
04.01.2012 02:13 4,3 C 87 % 0,0 l/m 11,0 km/h (2 Bft) NO 46 12,9 km/h (3 Bft)
04.01.2012 02:14 4,3 C 87 % 0,0 l/m 6,4 km/h (2 Bft) N 10 9,7 km/h (2 Bft)
04.01.2012 02:15 4,2 C 87 % 0,0 l/m 4,9 km/h (1 Bft) NW 318 8,0 km/h (2 Bft)
04.01.2012 02:16 4,2 C 87 % 0,0 l/m 6,8 km/h (2 Bft) NO 42 9,7 km/h (2 Bft)
04.01.2012 02:17 4,2 C 88 % 0,0 l/m 9,8 km/h (2 Bft) NO 37 12,9 km/h (3 Bft)
04.01.2012 02:18 4,1 C 88 % 0,0 l/m 7,8 km/h (2 Bft) N-NO 15 9,7 km/h (2 Bft)
04.01.2012 02:19 4,1 C 88 % 0,0 l/m 6,0 km/h (2 Bft) NO 42 9,7 km/h (2 Bft)
04.01.2012 02:20 4,1 C 88 % 0,0 l/m 7,9 km/h (2 Bft) NO 40 9,7 km/h (2 Bft)
04.01.2012 02:21 4,0 C 88 % 0,0 l/m 8,7 km/h (2 Bft) NO 53 11,3 km/h (2 Bft)
04.01.2012 02:22 4,0 C 88 % 0,0 l/m 6,6 km/h (2 Bft) NO 43 9,7 km/h (2 Bft)
04.01.2012 02:23 4,0 C 89 % 0,0 l/m 6,1 km/h (2 Bft) N-NO 33 8,0 km/h (2 Bft)
04.01.2012 02:24 3,9 C 89 % 0,0 l/m 5,1 km/h (1 Bft) NO 38 8,0 km/h (2 Bft)
04.01.2012 02:25 3,9 C 89 % 0,0 l/m 2,7 km/h (1 Bft) NO 53 4,8 km/h (1 Bft)
04.01.2012 02:26 3,9 C 89 % 0,0 l/m 4,2 km/h (1 Bft) N-NO 25 8,0 km/h (2 Bft)
04.01.2012 02:27 3,9 C 89 % 0,0 l/m 7,5 km/h (2 Bft) NO 36 9,7 km/h (2 Bft)
04.01.2012 02:28 3,9 C 89 % 0,0 l/m 10,7 km/h (2 Bft) NO 40 11,3 km/h (2 Bft)
04.01.2012 02:29 3,9 C 89 % 0,0 l/m 8,9 km/h (2 Bft) NO 46 9,7 km/h (2 Bft)
04.01.2012 02:30 3,9 C 89 % 0,0 l/m 5,7 km/h (1 Bft) NW 304 8,0 km/h (2 Bft)
04.01.2012 02:31 3,9 C 89 % 0,0 l/m 5,6 km/h (1 Bft) N-NW 345 8,0 km/h (2 Bft)
04.01.2012 02:32 3,9 C 89 % 0,0 l/m 11,5 km/h (2 Bft) N-NW 345 17,7 km/h (3 Bft)
04.01.2012 02:33 3,9 C 89 % 0,0 l/m 13,4 km/h (3 Bft) N-NO 23 17,7 km/h (3 Bft)
04.01.2012 02:34 3,9 C 89 % 0,0 l/m 12,2 km/h (2 Bft) N-NO 30 16,1 km/h (3 Bft)
04.01.2012 02:35 3,9 C 89 % 0,0 l/m 8,2 km/h (2 Bft) N-NO 29 11,3 km/h (2 Bft)
04.01.2012 02:36 3,8 C 89 % 0,0 l/m 5,2 km/h (1 Bft) N 354 8,0 km/h (2 Bft)
04.01.2012 02:37 3,8 C 89 % 0,0 l/m 7,0 km/h (2 Bft) N-NO 13 9,7 km/h (2 Bft)
04.01.2012 02:38 3,8 C 90 % 0,0 l/m 10,7 km/h (2 Bft) NO 39 12,9 km/h (3 Bft)
04.01.2012 02:39 3,8 C 90 % 0,0 l/m 12,2 km/h (2 Bft) N-NO 25 14,5 km/h (3 Bft)
04.01.2012 02:40 3,8 C 90 % 0,0 l/m 11,7 km/h (2 Bft) N-NO 25 16,1 km/h (3 Bft)
04.01.2012 02:41 3,8 C 90 % 0,0 l/m 8,2 km/h (2 Bft) N-NO 33 14,5 km/h (3 Bft)
04.01.2012 02:42 3,7 C 90 % 0,0 l/m 9,9 km/h (2 Bft) N-NO 25 12,9 km/h (3 Bft)
04.01.2012 02:43 3,7 C 90 % 0,0 l/m 9,7 km/h (2 Bft) N-NO 21 11,3 km/h (2 Bft)
04.01.2012 02:44 3,7 C 90 % 0,0 l/m 11,4 km/h (2 Bft) N-NO 26 14,5 km/h (3 Bft)
04.01.2012 02:45 3,7 C 90 % 0,0 l/m 10,2 km/h (2 Bft) NW 319 12,9 km/h (3 Bft)
04.01.2012 02:46 3,7 C 90 % 0,0 l/m 10,8 km/h (2 Bft) N-NO 22 12,9 km/h (3 Bft)
04.01.2012 02:47 3,7 C 90 % 0,0 l/m 10,1 km/h (2 Bft) N-NO 32 14,5 km/h (3 Bft)
04.01.2012 02:48 3,8 C 90 % 0,0 l/m 12,6 km/h (3 Bft) N 360 16,1 km/h (3 Bft)
04.01.2012 02:49 3,8 C 90 % 0,0 l/m 13,4 km/h (3 Bft) N-NW 334 16,1 km/h (3 Bft)
04.01.2012 02:50 3,8 C 90 % 0,0 l/m 13,4 km/h (3 Bft) N 4 16,1 km/h (3 Bft)
04.01.2012 02:51 3,8 C 90 % 0,0 l/m 11,3 km/h (2 Bft) N 5 14,5 km/h (3 Bft)
04.01.2012 02:52 3,8 C 90 % 0,0 l/m 12,6 km/h (3 Bft) N-NO 15 14,5 km/h (3 Bft)
04.01.2012 02:53 3,8 C 90 % 0,0 l/m 13,6 km/h (3 Bft) N-NO 13 14,5 km/h (3 Bft)
04.01.2012 02:54 3,8 C 90 % 0,0 l/m 12,3 km/h (3 Bft) NO 43 16,1 km/h (3 Bft)
04.01.2012 02:55 3,8 C 90 % 0,0 l/m 11,3 km/h (2 Bft) N-NO 18 14,5 km/h (3 Bft)
04.01.2012 02:56 3,7 C 90 % 0,0 l/m 11,0 km/h (2 Bft) NO 37 12,9 km/h (3 Bft)
04.01.2012 02:57 3,7 C 90 % 0,0 l/m 9,5 km/h (2 Bft) NO 44 12,9 km/h (3 Bft)
04.01.2012 02:58 3,7 C 90 % 0,0 l/m 9,0 km/h (2 Bft) NO 36 12,9 km/h (3 Bft)
04.01.2012 02:59 3,7 C 91 % 0,0 l/m 10,2 km/h (2 Bft) NO 41 12,9 km/h (3 Bft)
04.01.2012 03:00 3,6 C 91 % 0,0 l/m 10,2 km/h (2 Bft) NO 46 12,9 km/h (3 Bft)
04.01.2012 03:01 3,6 C 91 % 0,0 l/m 10,3 km/h (2 Bft) N-NO 33 12,9 km/h (3 Bft)
04.01.2012 03:02 3,6 C 91 % 0,0 l/m 8,9 km/h (2 Bft) N-NO 30 11,3 km/h (2 Bft)
04.01.2012 03:03 3,6 C 91 % 0,0 l/m 8,8 km/h (2 Bft) NO 46 9,7 km/h (2 Bft)
04.01.2012 03:04 3,5 C 91 % 0,0 l/m 8,4 km/h (2 Bft) O-NO 65 11,3 km/h (2 Bft)
04.01.2012 03:05 3,5 C 91 % 0,0 l/m 7,2 km/h (2 Bft) NO 42 9,7 km/h (2 Bft)
04.01.2012 03:06 3,4 C 91 % 0,0 l/m 5,4 km/h (1 Bft) N-NO 23 6,4 km/h (2 Bft)
04.01.2012 03:07 3,4 C 91 % 0,0 l/m 7,7 km/h (2 Bft) O-NO 57 9,7 km/h (2 Bft)
04.01.2012 03:08 3,3 C 91 % 0,0 l/m 8,9 km/h (2 Bft) NO 42 11,3 km/h (2 Bft)
04.01.2012 03:09 3,3 C 91 % 0,0 l/m 7,5 km/h (2 Bft) NO 51 9,7 km/h (2 Bft)
04.01.2012 03:10 3,3 C 91 % 0,0 l/m 7,1 km/h (2 Bft) O-NO 70 9,7 km/h (2 Bft)
04.01.2012 03:11 3,2 C 91 % 0,0 l/m 9,4 km/h (2 Bft) O-NO 63 11,3 km/h (2 Bft)
04.01.2012 03:12 3,2 C 91 % 0,0 l/m 8,3 km/h (2 Bft) O-NO 64 9,7 km/h (2 Bft)
04.01.2012 03:13 3,1 C 92 % 0,0 l/m 6,0 km/h (2 Bft) O-NO 57 8,0 km/h (2 Bft)
04.01.2012 03:14 3,0 C 92 % 0,0 l/m 7,1 km/h (2 Bft) O-NO 61 9,7 km/h (2 Bft)
04.01.2012 03:15 2,9 C 92 % 0,0 l/m 5,4 km/h (1 Bft) NO 43 6,4 km/h (2 Bft)
04.01.2012 03:16 2,9 C 92 % 0,0 l/m 5,7 km/h (1 Bft) O-NO 58 8,0 km/h (2 Bft)
04.01.2012 03:17 2,8 C 92 % 0,0 l/m 6,3 km/h (2 Bft) O-NO 65 8,0 km/h (2 Bft)
04.01.2012 03:18 2,8 C 92 % 0,0 l/m 6,8 km/h (2 Bft) O-NO 63 8,0 km/h (2 Bft)
04.01.2012 03:19 2,7 C 92 % 0,0 l/m 5,0 km/h (1 Bft) O-NO 58 8,0 km/h (2 Bft)
04.01.2012 03:20 2,7 C 93 % 0,0 l/m 6,8 km/h (2 Bft) NO 53 9,7 km/h (2 Bft)
04.01.2012 03:21 2,7 C 93 % 0,0 l/m 7,2 km/h (2 Bft) NO 51 8,0 km/h (2 Bft)
04.01.2012 03:22 2,6 C 93 % 0,0 l/m 7,8 km/h (2 Bft) NO 49 8,0 km/h (2 Bft)
04.01.2012 03:23 2,6 C 93 % 0,0 l/m 8,0 km/h (2 Bft) NO 50 9,7 km/h (2 Bft)
04.01.2012 03:24 2,6 C 93 % 0,0 l/m 8,7 km/h (2 Bft) NO 50 9,7 km/h (2 Bft)
04.01.2012 03:25 2,5 C 93 % 0,0 l/m 8,1 km/h (2 Bft) NO 53 9,7 km/h (2 Bft)
04.01.2012 03:26 2,5 C 93 % 0,0 l/m 7,0 km/h (2 Bft) NO 51 8,0 km/h (2 Bft)
04.01.2012 03:27 2,5 C 94 % 0,0 l/m 8,2 km/h (2 Bft) NO 51 9,7 km/h (2 Bft)
04.01.2012 03:28 2,5 C 94 % 0,0 l/m 7,7 km/h (2 Bft) O-NO 61 8,0 km/h (2 Bft)
04.01.2012 03:29 2,5 C 94 % 0,0 l/m 8,0 km/h (2 Bft) O-NO 57 9,7 km/h (2 Bft)
04.01.2012 03:30 2,4 C 94 % 0,0 l/m 8,8 km/h (2 Bft) O-NO 58 9,7 km/h (2 Bft)
04.01.2012 03:31 2,4 C 94 % 0,0 l/m 8,2 km/h (2 Bft) O-NO 59 11,3 km/h (2 Bft)
04.01.2012 03:32 2,4 C 94 % 0,0 l/m 9,5 km/h (2 Bft) O-NO 57 9,7 km/h (2 Bft)
04.01.2012 03:33 2,5 C 94 % 0,0 l/m 9,5 km/h (2 Bft) O-NO 58 9,7 km/h (2 Bft)
04.01.2012 03:34 2,6 C 95 % 0,0 l/m 8,0 km/h (2 Bft) O-NO 61 9,7 km/h (2 Bft)
04.01.2012 03:35 2,6 C 95 % 0,0 l/m 7,4 km/h (2 Bft) O-NO 62 8,0 km/h (2 Bft)
04.01.2012 03:36 2,6 C 95 % 0,0 l/m 5,0 km/h (1 Bft) NO 51 6,4 km/h (2 Bft)
04.01.2012 03:37 2,6 C 94 % 0,0 l/m 5,1 km/h (1 Bft) O-NO 62 6,4 km/h (2 Bft)
04.01.2012 03:38 2,6 C 94 % 0,0 l/m 5,3 km/h (1 Bft) O-NO 62 6,4 km/h (2 Bft)
04.01.2012 03:39 2,6 C 94 % 0,0 l/m 3,4 km/h (1 Bft) NO 49 4,8 km/h (1 Bft)
04.01.2012 03:40 2,5 C 94 % 0,0 l/m 3,4 km/h (1 Bft) O-NO 57 4,8 km/h (1 Bft)
04.01.2012 03:41 2,5 C 94 % 0,0 l/m 4,8 km/h (1 Bft) O-NO 64 4,8 km/h (1 Bft)
04.01.2012 03:42 2,5 C 94 % 0,0 l/m 4,8 km/h (1 Bft) O-NO 64 4,8 km/h (1 Bft)
04.01.2012 03:43 2,6 C 94 % 0,0 l/m 4,4 km/h (1 Bft) O-NO 65 4,8 km/h (1 Bft)
04.01.2012 03:44 2,6 C 94 % 0,0 l/m 4,6 km/h (1 Bft) O-NO 70 4,8 km/h (1 Bft)
04.01.2012 03:45 2,6 C 94 % 0,0 l/m 4,7 km/h (1 Bft) O-NO 74 4,8 km/h (1 Bft)
04.01.2012 03:46 2,6 C 95 % 0,0 l/m 3,2 km/h (1 Bft) O 86 3,2 km/h (1 Bft)
04.01.2012 03:47 2,6 C 95 % 0,0 l/m 3,2 km/h (1 Bft) O 86 3,2 km/h (1 Bft)
04.01.2012 03:48 2,7 C 95 % 0,0 l/m 2,3 km/h (1 Bft) O 94 3,2 km/h (1 Bft)
04.01.2012 03:49 2,7 C 95 % 0,0 l/m 2,3 km/h (1 Bft) O 96 3,2 km/h (1 Bft)
04.01.2012 03:50 2,7 C 95 % 0,0 l/m 1,3 km/h (1 Bft) O 96 1,6 km/h (1 Bft)
04.01.2012 03:51 2,7 C 94 % 0,0 l/m 0,1 km/h (0 Bft) O 96 1,6 km/h (1 Bft)
04.01.2012 03:52 2,7 C 94 % 0,0 l/m 1,6 km/h (1 Bft) S-SW 205 3,2 km/h (1 Bft)
04.01.2012 03:53 2,7 C 94 % 0,0 l/m 2,6 km/h (1 Bft) S-SW 210 3,2 km/h (1 Bft)
04.01.2012 03:54 2,8 C 95 % 0,0 l/m 1,7 km/h (1 Bft) SW 214 3,2 km/h (1 Bft)
04.01.2012 03:55 2,8 C 95 % 0,0 l/m 2,7 km/h (1 Bft) S-SW 207 4,8 km/h (1 Bft)
04.01.2012 03:56 2,8 C 95 % 0,0 l/m 0,3 km/h (0 Bft) S-SW 212 1,6 km/h (1 Bft)
04.01.2012 03:57 2,8 C 94 % 0,0 l/m 0,3 km/h (0 Bft) S-SW 211 1,6 km/h (1 Bft)
04.01.2012 03:58 2,8 C 94 % 0,0 l/m 0,5 km/h (0 Bft) O 96 1,6 km/h (1 Bft)
04.01.2012 03:59 2,9 C 94 % 0,0 l/m 0,6 km/h (0 Bft) W 260 1,6 km/h (1 Bft)
04.01.2012 04:00 2,8 C 94 % 0,0 l/m 3,1 km/h (1 Bft) SW 231 6,4 km/h (2 Bft)
04.01.2012 04:01 2,8 C 94 % 0,0 l/m 1,7 km/h (1 Bft) NO 44 4,8 km/h (1 Bft)
04.01.2012 04:02 2,9 C 94 % 0,0 l/m 0,3 km/h (0 Bft) NO 53 1,6 km/h (1 Bft)
04.01.2012 04:03 2,9 C 94 % 0,0 l/m 1,6 km/h (1 Bft) SW 231 3,2 km/h (1 Bft)
04.01.2012 04:04 2,9 C 94 % 0,0 l/m 3,9 km/h (1 Bft) W-SW 248 4,8 km/h (1 Bft)
04.01.2012 04:05 2,9 C 94 % 0,0 l/m 5,9 km/h (2 Bft) W 263 6,4 km/h (2 Bft)
04.01.2012 04:06 2,9 C 94 % 0,0 l/m 2,4 km/h (1 Bft) NO 51 3,2 km/h (1 Bft)
04.01.2012 04:07 2,9 C 94 % 0,0 l/m 1,1 km/h (1 Bft) W-NW 286 1,6 km/h (1 Bft)
04.01.2012 04:08 2,9 C 94 % 0,0 l/m 2,3 km/h (1 Bft) W-SW 244 3,2 km/h (1 Bft)
04.01.2012 04:09 2,9 C 94 % 0,0 l/m 5,6 km/h (1 Bft) W-SW 243 9,7 km/h (2 Bft)
04.01.2012 04:10 2,9 C 93 % 0,0 l/m 2,5 km/h (1 Bft) N 1 8,0 km/h (2 Bft)
04.01.2012 04:11 2,9 C 93 % 0,0 l/m 1,5 km/h (1 Bft) W-SW 238 6,4 km/h (2 Bft)
04.01.2012 04:12 2,9 C 93 % 0,0 l/m 4,6 km/h (1 Bft) W-SW 238 4,8 km/h (1 Bft)
04.01.2012 04:13 2,9 C 93 % 0,0 l/m 5,7 km/h (1 Bft) W-SW 248 6,4 km/h (2 Bft)
04.01.2012 04:14 2,8 C 94 % 0,0 l/m 5,1 km/h (1 Bft) W 270 8,0 km/h (2 Bft)
04.01.2012 04:15 2,8 C 94 % 0,0 l/m 0,8 km/h (0 Bft) N 353 3,2 km/h (1 Bft)
04.01.2012 04:16 2,8 C 94 % 0,0 l/m 1,2 km/h (1 Bft) S-SW 210 3,2 km/h (1 Bft)
04.01.2012 04:17 2,8 C 94 % 0,0 l/m 3,0 km/h (1 Bft) W 264 4,8 km/h (1 Bft)
04.01.2012 04:18 2,8 C 94 % 0,0 l/m 3,2 km/h (1 Bft) W 264 6,4 km/h (2 Bft)
04.01.2012 04:19 2,8 C 94 % 0,0 l/m 3,0 km/h (1 Bft) W-SW 255 4,8 km/h (1 Bft)
04.01.2012 04:20 2,8 C 94 % 0,0 l/m 4,2 km/h (1 Bft) W-SW 245 4,8 km/h (1 Bft)
04.01.2012 04:21 2,9 C 94 % 0,0 l/m 3,5 km/h (1 Bft) SW 228 4,8 km/h (1 Bft)
04.01.2012 04:22 2,9 C 94 % 0,0 l/m 3,3 km/h (1 Bft) W-SW 243 4,8 km/h (1 Bft)
04.01.2012 04:23 2,9 C 94 % 0,0 l/m 2,6 km/h (1 Bft) W 276 4,8 km/h (1 Bft)
04.01.2012 04:24 2,9 C 94 % 0,0 l/m 0,1 km/h (0 Bft) W-NW 290 1,6 km/h (1 Bft)
04.01.2012 04:25 2,9 C 94 % 0,0 l/m 0,0 km/h (0 Bft) W-NW 290 0,0 km/h (0 Bft)
04.01.2012 04:26 2,9 C 94 % 0,0 l/m 0,8 km/h (0 Bft) W-SW 240 1,6 km/h (1 Bft)
04.01.2012 04:27 2,9 C 94 % 0,0 l/m 1,6 km/h (1 Bft) W 263 3,2 km/h (1 Bft)
04.01.2012 04:28 3,0 C 94 % 0,0 l/m 0,4 km/h (0 Bft) W 263 1,6 km/h (1 Bft)
04.01.2012 04:29 3,0 C 94 % 0,0 l/m 0,0 km/h (0 Bft) W 263 0,0 km/h (0 Bft)
04.01.2012 04:30 3,0 C 94 % 0,0 l/m 0,0 km/h (0 Bft) SW 226 0,0 km/h (0 Bft)
04.01.2012 04:31 3,1 C 94 % 0,0 l/m 1,0 km/h (0 Bft) W-SW 255 3,2 km/h (1 Bft)
04.01.2012 04:32 3,1 C 94 % 0,0 l/m 0,6 km/h (0 Bft) W-SW 255 1,6 km/h (1 Bft)
04.01.2012 04:33 3,1 C 94 % 0,0 l/m 0,0 km/h (0 Bft) W-SW 255 0,0 km/h (0 Bft)
04.01.2012 04:34 3,1 C 93 % 0,0 l/m 1,1 km/h (1 Bft) W-SW 245 3,2 km/h (1 Bft)
04.01.2012 04:35 3,1 C 93 % 0,0 l/m 2,1 km/h (1 Bft) W-SW 257 3,2 km/h (1 Bft)
04.01.2012 04:36 3,1 C 93 % 0,0 l/m 1,8 km/h (1 Bft) W-SW 248 3,2 km/h (1 Bft)
04.01.2012 04:37 3,1 C 93 % 0,0 l/m 3,3 km/h (1 Bft) W-SW 239 4,8 km/h (1 Bft)
04.01.2012 04:38 3,1 C 93 % 0,0 l/m 3,8 km/h (1 Bft) W-SW 253 4,8 km/h (1 Bft)
04.01.2012 04:39 3,2 C 93 % 0,0 l/m 0,7 km/h (0 Bft) W-SW 256 1,6 km/h (1 Bft)
04.01.2012 04:40 3,2 C 93 % 0,0 l/m 0,1 km/h (0 Bft) W 259 1,6 km/h (1 Bft)
04.01.2012 04:41 3,2 C 93 % 0,0 l/m 0,1 km/h (0 Bft) W-SW 244 1,6 km/h (1 Bft)
04.01.2012 04:42 3,2 C 93 % 0,0 l/m 0,6 km/h (0 Bft) W-SW 245 1,6 km/h (1 Bft)
04.01.2012 04:43 3,2 C 93 % 0,0 l/m 1,3 km/h (1 Bft) W-SW 245 3,2 km/h (1 Bft)
04.01.2012 04:44 3,2 C 93 % 0,0 l/m 1,7 km/h (1 Bft) W 264 3,2 km/h (1 Bft)
04.01.2012 04:45 3,3 C 93 % 0,0 l/m 0,9 km/h (0 Bft) W 266 3,2 km/h (1 Bft)
04.01.2012 04:46 3,3 C 93 % 0,0 l/m 1,9 km/h (1 Bft) W-NW 288 3,2 km/h (1 Bft)
04.01.2012 04:47 3,3 C 93 % 0,0 l/m 0,3 km/h (0 Bft) W-NW 288 1,6 km/h (1 Bft)
04.01.2012 04:48 3,3 C 93 % 0,0 l/m 0,8 km/h (0 Bft) W-SW 242 1,6 km/h (1 Bft)
04.01.2012 04:49 3,4 C 93 % 0,0 l/m 1,9 km/h (1 Bft) W 274 3,2 km/h (1 Bft)
04.01.2012 04:50 3,4 C 93 % 0,0 l/m 1,6 km/h (1 Bft) W 274 1,6 km/h (1 Bft)
04.01.2012 04:51 3,4 C 92 % 0,0 l/m 1,1 km/h (1 Bft) W 274 1,6 km/h (1 Bft)
04.01.2012 04:52 3,4 C 92 % 0,0 l/m 3,6 km/h (1 Bft) W-NW 302 4,8 km/h (1 Bft)
04.01.2012 04:53 3,5 C 92 % 0,0 l/m 2,5 km/h (1 Bft) NW 308 4,8 km/h (1 Bft)
04.01.2012 04:54 3,6 C 92 % 0,0 l/m 0,0 km/h (0 Bft) NW 307 0,0 km/h (0 Bft)
04.01.2012 04:55 3,6 C 92 % 0,0 l/m 0,0 km/h (0 Bft) NW 308 0,0 km/h (0 Bft)
04.01.2012 04:56 3,6 C 92 % 0,0 l/m 0,0 km/h (0 Bft) NW 308 0,0 km/h (0 Bft)
04.01.2012 04:57 3,7 C 91 % 0,0 l/m 0,0 km/h (0 Bft) NW 308 0,0 km/h (0 Bft)
04.01.2012 04:58 3,7 C 91 % 0,0 l/m 0,4 km/h (0 Bft) NW 308 1,6 km/h (1 Bft)
04.01.2012 04:59 3,7 C 91 % 0,0 l/m 1,5 km/h (1 Bft) NW 308 1,6 km/h (1 Bft)
04.01.2012 05:00 3,7 C 91 % 0,0 l/m 1,4 km/h (1 Bft) NW 308 3,2 km/h (1 Bft)
04.01.2012 05:01 3,7 C 91 % 0,0 l/m 0,0 km/h (0 Bft) NW 308 0,0 km/h (0 Bft)
04.01.2012 05:02 3,8 C 91 % 0,0 l/m 0,0 km/h (0 Bft) NW 308 0,0 km/h (0 Bft)
04.01.2012 05:03 3,8 C 91 % 0,0 l/m 0,0 km/h (0 Bft) NW 308 0,0 km/h (0 Bft)
04.01.2012 05:04 3,8 C 91 % 0,0 l/m 0,0 km/h (0 Bft) NW 308 0,0 km/h (0 Bft)
04.01.2012 05:05 3,8 C 90 % 0,0 l/m 0,0 km/h (0 Bft) NW 308 0,0 km/h (0 Bft)
04.01.2012 05:06 3,8 C 90 % 0,0 l/m 0,0 km/h (0 Bft) NW 308 0,0 km/h (0 Bft)
04.01.2012 05:07 3,8 C 90 % 0,0 l/m 0,0 km/h (0 Bft) NW 308 0,0 km/h (0 Bft)
04.01.2012 05:08 3,8 C 90 % 0,0 l/m 1,0 km/h (0 Bft) O-NO 74 3,2 km/h (1 Bft)
04.01.2012 05:09 3,8 C 90 % 0,0 l/m 5,8 km/h (2 Bft) O-NO 74 6,4 km/h (2 Bft)
04.01.2012 05:10 3,8 C 90 % 0,0 l/m 5,8 km/h (2 Bft) O-NO 77 6,4 km/h (2 Bft)
04.01.2012 05:11 3,8 C 90 % 0,0 l/m 5,8 km/h (2 Bft) O 88 6,4 km/h (2 Bft)
04.01.2012 05:12 3,7 C 90 % 0,0 l/m 4,8 km/h (1 Bft) O-SO 115 4,8 km/h (1 Bft)
04.01.2012 05:13 3,7 C 90 % 0,0 l/m 3,2 km/h (1 Bft) O-SO 120 3,2 km/h (1 Bft)
04.01.2012 05:14 3,6 C 90 % 0,0 l/m 2,3 km/h (1 Bft) O-SO 118 3,2 km/h (1 Bft)
04.01.2012 05:15 3,6 C 90 % 0,0 l/m 3,5 km/h (1 Bft) O-SO 109 4,8 km/h (1 Bft)
04.01.2012 05:16 3,5 C 91 % 0,0 l/m 5,6 km/h (1 Bft) O 100 6,4 km/h (2 Bft)
04.01.2012 05:17 3,4 C 91 % 0,0 l/m 4,5 km/h (1 Bft) O-SO 115 6,4 km/h (2 Bft)
04.01.2012 05:18 3,4 C 91 % 0,0 l/m 1,2 km/h (1 Bft) O-SO 115 3,2 km/h (1 Bft)
04.01.2012 05:19 3,4 C 91 % 0,0 l/m 0,8 km/h (0 Bft) N 356 1,6 km/h (1 Bft)
04.01.2012 05:20 3,3 C 91 % 0,0 l/m 0,2 km/h (0 Bft) S-SW 204 1,6 km/h (1 Bft)
04.01.2012 05:21 3,3 C 91 % 0,0 l/m 0,1 km/h (0 Bft) O-NO 62 1,6 km/h (1 Bft)
04.01.2012 05:22 3,3 C 92 % 0,0 l/m 5,6 km/h (1 Bft) O-NO 77 6,4 km/h (2 Bft)
04.01.2012 05:23 3,3 C 92 % 0,0 l/m 7,7 km/h (2 Bft) O 90 8,0 km/h (2 Bft)
04.01.2012 05:24 3,3 C 92 % 0,0 l/m 6,9 km/h (2 Bft) O-SO 115 8,0 km/h (2 Bft)
04.01.2012 05:25 3,2 C 92 % 0,0 l/m 2,5 km/h (1 Bft) S-SO 166 3,2 km/h (1 Bft)
04.01.2012 05:26 3,2 C 92 % 0,0 l/m 1,0 km/h (0 Bft) SO 141 3,2 km/h (1 Bft)
04.01.2012 05:27 3,2 C 92 % 0,0 l/m 0,3 km/h (0 Bft) SO 139 1,6 km/h (1 Bft)
04.01.2012 05:28 3,1 C 92 % 0,0 l/m 3,3 km/h (1 Bft) O-SO 117 6,4 km/h (2 Bft)
04.01.2012 05:29 3,1 C 92 % 0,0 l/m 6,4 km/h (2 Bft) O-SO 113 6,4 km/h (2 Bft)
04.01.2012 05:30 3,1 C 92 % 0,0 l/m 4,3 km/h (1 Bft) O-SO 105 6,4 km/h (2 Bft)
04.01.2012 05:31 3,1 C 92 % 0,0 l/m 1,0 km/h (0 Bft) O-SO 103 3,2 km/h (1 Bft)
04.01.2012 05:32 3,1 C 93 % 0,0 l/m 0,6 km/h (0 Bft) NW 305 3,2 km/h (1 Bft)
04.01.2012 05:33 3,0 C 93 % 0,0 l/m 1,7 km/h (1 Bft) N 359 3,2 km/h (1 Bft)
04.01.2012 05:34 3,0 C 93 % 0,0 l/m 2,8 km/h (1 Bft) O-NO 58 4,8 km/h (1 Bft)
04.01.2012 05:35 3,0 C 93 % 0,0 l/m 6,7 km/h (2 Bft) O-NO 62 8,0 km/h (2 Bft)
04.01.2012 05:36 2,9 C 93 % 0,0 l/m 8,0 km/h (2 Bft) O-NO 65 8,0 km/h (2 Bft)
04.01.2012 05:37 2,9 C 93 % 0,0 l/m 5,0 km/h (1 Bft) O-NO 57 8,0 km/h (2 Bft)
04.01.2012 05:38 2,9 C 93 % 0,0 l/m 0,9 km/h (0 Bft) O-NO 70 3,2 km/h (1 Bft)
04.01.2012 05:39 2,9 C 93 % 0,0 l/m 0,1 km/h (0 Bft) O-NO 70 1,6 km/h (1 Bft)
04.01.2012 05:40 2,9 C 93 % 0,0 l/m 0,8 km/h (0 Bft) O 79 3,2 km/h (1 Bft)
04.01.2012 05:41 2,8 C 93 % 0,0 l/m 3,4 km/h (1 Bft) O-NO 77 4,8 km/h (1 Bft)
04.01.2012 05:42 2,9 C 93 % 0,0 l/m 4,5 km/h (1 Bft) O-NO 60 4,8 km/h (1 Bft)
04.01.2012 05:43 2,8 C 94 % 0,0 l/m 3,6 km/h (1 Bft) NO 39 4,8 km/h (1 Bft)
04.01.2012 05:44 2,8 C 94 % 0,0 l/m 3,2 km/h (1 Bft) N-NO 30 4,8 km/h (1 Bft)
04.01.2012 05:45 2,8 C 94 % 0,0 l/m 4,3 km/h (1 Bft) NO 37 6,4 km/h (2 Bft)
04.01.2012 05:46 2,8 C 94 % 0,0 l/m 4,8 km/h (1 Bft) N-NO 32 6,4 km/h (2 Bft)
04.01.2012 05:47 2,8 C 94 % 0,0 l/m 7,2 km/h (2 Bft) NO 46 8,0 km/h (2 Bft)
04.01.2012 05:48 2,8 C 94 % 0,0 l/m 8,8 km/h (2 Bft) NO 55 9,7 km/h (2 Bft)
04.01.2012 05:49 2,8 C 94 % 0,0 l/m 6,6 km/h (2 Bft) NO 50 8,0 km/h (2 Bft)
04.01.2012 05:50 2,8 C 94 % 0,0 l/m 5,7 km/h (1 Bft) NO 51 6,4 km/h (2 Bft)
04.01.2012 05:51 2,7 C 94 % 0,0 l/m 4,5 km/h (1 Bft) NO 42 6,4 km/h (2 Bft)
04.01.2012 05:52 2,7 C 94 % 0,0 l/m 4,7 km/h (1 Bft) NO 46 6,4 km/h (2 Bft)
04.01.2012 05:53 2,7 C 94 % 0,0 l/m 4,7 km/h (1 Bft) NO 40 6,4 km/h (2 Bft)
04.01.2012 05:54 2,7 C 94 % 0,0 l/m 6,8 km/h (2 Bft) NO 39 8,0 km/h (2 Bft)
04.01.2012 05:55 2,7 C 94 % 0,0 l/m 7,4 km/h (2 Bft) NO 46 9,7 km/h (2 Bft)
04.01.2012 05:56 2,7 C 94 % 0,0 l/m 8,5 km/h (2 Bft) NO 49 9,7 km/h (2 Bft)
04.01.2012 05:57 2,7 C 95 % 0,0 l/m 8,1 km/h (2 Bft) N-NO 29 9,7 km/h (2 Bft)
04.01.2012 05:58 2,7 C 95 % 0,0 l/m 6,2 km/h (2 Bft) N-NO 30 8,0 km/h (2 Bft)
04.01.2012 05:59 2,7 C 95 % 0,0 l/m 6,9 km/h (2 Bft) NO 44 8,0 km/h (2 Bft)
04.01.2012 06:00 2,7 C 95 % 0,0 l/m 7,0 km/h (2 Bft) NO 37 8,0 km/h (2 Bft)
04.01.2012 06:01 2,7 C 95 % 0,0 l/m 7,0 km/h (2 Bft) NO 44 8,0 km/h (2 Bft)
04.01.2012 06:02 2,7 C 95 % 0,0 l/m 6,6 km/h (2 Bft) NO 37 8,0 km/h (2 Bft)
04.01.2012 06:03 2,7 C 95 % 0,0 l/m 6,0 km/h (2 Bft) NO 34 9,7 km/h (2 Bft)
04.01.2012 06:04 2,7 C 95 % 0,0 l/m 5,6 km/h (1 Bft) O-NO 64 8,0 km/h (2 Bft)
04.01.2012 06:05 2,7 C 95 % 0,0 l/m 5,2 km/h (1 Bft) NO 50 6,4 km/h (2 Bft)
04.01.2012 06:06 2,7 C 95 % 0,0 l/m 7,2 km/h (2 Bft) NO 41 8,0 km/h (2 Bft)
04.01.2012 06:07 2,7 C 95 % 0,0 l/m 5,8 km/h (2 Bft) NO 42 6,4 km/h (2 Bft)
04.01.2012 06:08 2,7 C 95 % 0,0 l/m 5,7 km/h (1 Bft) NO 44 6,4 km/h (2 Bft)
04.01.2012 06:09 2,7 C 95 % 0,0 l/m 6,4 km/h (2 Bft) NO 49 6,4 km/h (2 Bft)
04.01.2012 06:10 2,7 C 95 % 0,0 l/m 6,7 km/h (2 Bft) O-NO 61 8,0 km/h (2 Bft)
04.01.2012 06:11 2,6 C 94 % 0,0 l/m 6,9 km/h (2 Bft) O-NO 57 8,0 km/h (2 Bft)
04.01.2012 06:12 2,6 C 94 % 0,0 l/m 7,1 km/h (2 Bft) NO 50 8,0 km/h (2 Bft)
04.01.2012 06:13 2,6 C 95 % 0,0 l/m 6,5 km/h (2 Bft) O-NO 61 8,0 km/h (2 Bft)
04.01.2012 06:14 2,6 C 95 % 0,0 l/m 5,9 km/h (2 Bft) O-NO 62 6,4 km/h (2 Bft)
04.01.2012 06:15 2,6 C 95 % 0,0 l/m 6,2 km/h (2 Bft) NO 53 8,0 km/h (2 Bft)
04.01.2012 06:16 2,6 C 95 % 0,0 l/m 6,9 km/h (2 Bft) O-NO 61 8,0 km/h (2 Bft)
04.01.2012 06:17 2,6 C 95 % 0,0 l/m 6,7 km/h (2 Bft) O-NO 64 8,0 km/h (2 Bft)
04.01.2012 06:18 2,6 C 95 % 0,0 l/m 4,7 km/h (1 Bft) O-NO 58 6,4 km/h (2 Bft)
04.01.2012 06:19 2,6 C 95 % 0,0 l/m 5,6 km/h (1 Bft) O-NO 58 8,0 km/h (2 Bft)
04.01.2012 06:20 2,6 C 95 % 0,0 l/m 7,4 km/h (2 Bft) O-NO 64 9,7 km/h (2 Bft)
04.01.2012 06:21 2,6 C 95 % 0,0 l/m 7,6 km/h (2 Bft) NO 56 9,7 km/h (2 Bft)
04.01.2012 06:22 2,6 C 95 % 0,0 l/m 9,4 km/h (2 Bft) NO 46 9,7 km/h (2 Bft)
04.01.2012 06:23 2,6 C 95 % 0,0 l/m 8,8 km/h (2 Bft) NO 44 9,7 km/h (2 Bft)
04.01.2012 06:24 2,6 C 95 % 0,0 l/m 6,5 km/h (2 Bft) N-NO 33 8,0 km/h (2 Bft)
04.01.2012 06:25 2,6 C 95 % 0,0 l/m 5,4 km/h (1 Bft) NO 36 6,4 km/h (2 Bft)
04.01.2012 06:26 2,6 C 95 % 0,0 l/m 6,1 km/h (2 Bft) N-NO 25 8,0 km/h (2 Bft)
04.01.2012 06:27 2,6 C 95 % 0,0 l/m 8,8 km/h (2 Bft) N-NO 29 11,3 km/h (2 Bft)
04.01.2012 06:28 2,6 C 96 % 0,0 l/m 8,6 km/h (2 Bft) NO 49 11,3 km/h (2 Bft)
04.01.2012 06:29 2,7 C 96 % 0,0 l/m 8,7 km/h (2 Bft) O-NO 62 11,3 km/h (2 Bft)
04.01.2012 06:30 2,7 C 96 % 0,0 l/m 7,7 km/h (2 Bft) NO 53 9,7 km/h (2 Bft)
04.01.2012 06:31 2,7 C 96 % 0,0 l/m 5,9 km/h (2 Bft) N-NO 30 8,0 km/h (2 Bft)
04.01.2012 06:32 2,7 C 96 % 0,0 l/m 6,0 km/h (2 Bft) O-NO 57 8,0 km/h (2 Bft)
04.01.2012 06:33 2,7 C 96 % 0,0 l/m 8,2 km/h (2 Bft) O-NO 62 9,7 km/h (2 Bft)
04.01.2012 06:34 2,7 C 96 % 0,0 l/m 7,5 km/h (2 Bft) O-NO 66 8,0 km/h (2 Bft)
04.01.2012 06:35 2,7 C 96 % 0,0 l/m 5,3 km/h (1 Bft) NO 51 8,0 km/h (2 Bft)
04.01.2012 06:36 2,7 C 95 % 0,0 l/m 4,9 km/h (1 Bft) O-NO 70 6,4 km/h (2 Bft)
04.01.2012 06:37 2,7 C 95 % 0,0 l/m 3,6 km/h (1 Bft) NO 46 4,8 km/h (1 Bft)
04.01.2012 06:38 2,7 C 95 % 0,0 l/m 4,3 km/h (1 Bft) NO 49 6,4 km/h (2 Bft)
04.01.2012 06:39 2,7 C 95 % 0,0 l/m 4,5 km/h (1 Bft) NO 41 6,4 km/h (2 Bft)
04.01.2012 06:40 2,7 C 95 % 0,0 l/m 4,6 km/h (1 Bft) NO 49 4,8 km/h (1 Bft)
04.01.2012 06:41 2,7 C 95 % 0,0 l/m 5,4 km/h (1 Bft) N-NO 31 6,4 km/h (2 Bft)
04.01.2012 06:42 2,7 C 95 % 0,0 l/m 6,4 km/h (2 Bft) N-NO 32 6,4 km/h (2 Bft)
04.01.2012 06:43 2,6 C 95 % 0,0 l/m 6,3 km/h (2 Bft) NO 44 8,0 km/h (2 Bft)
04.01.2012 06:44 2,6 C 95 % 0,0 l/m 7,6 km/h (2 Bft) NO 49 8,0 km/h (2 Bft)
04.01.2012 06:45 2,6 C 95 % 0,0 l/m 6,6 km/h (2 Bft) O-NO 57 8,0 km/h (2 Bft)
04.01.2012 06:46 2,6 C 95 % 0,0 l/m 6,4 km/h (2 Bft) NO 53 8,0 km/h (2 Bft)
04.01.2012 06:47 2,6 C 95 % 0,0 l/m 3,8 km/h (1 Bft) O-NO 67 4,8 km/h (1 Bft)
04.01.2012 06:48 2,6 C 95 % 0,0 l/m 4,7 km/h (1 Bft) NO 44 6,4 km/h (2 Bft)
04.01.2012 06:49 2,6 C 95 % 0,0 l/m 4,6 km/h (1 Bft) NO 46 6,4 km/h (2 Bft)
04.01.2012 06:50 2,6 C 95 % 0,0 l/m 5,7 km/h (1 Bft) NO 46 6,4 km/h (2 Bft)
04.01.2012 06:51 2,5 C 95 % 0,0 l/m 5,6 km/h (1 Bft) NO 51 6,4 km/h (2 Bft)
04.01.2012 06:52 2,5 C 95 % 0,0 l/m 5,8 km/h (2 Bft) O-NO 65 6,4 km/h (2 Bft)
04.01.2012 06:53 2,5 C 95 % 0,0 l/m 4,8 km/h (1 Bft) NO 46 6,4 km/h (2 Bft)
04.01.2012 06:54 2,5 C 95 % 0,0 l/m 5,8 km/h (2 Bft) O-NO 65 8,0 km/h (2 Bft)
04.01.2012 06:55 2,4 C 95 % 0,0 l/m 3,6 km/h (1 Bft) O-NO 63 4,8 km/h (1 Bft)
04.01.2012 06:56 2,4 C 95 % 0,0 l/m 4,7 km/h (1 Bft) O-NO 61 6,4 km/h (2 Bft)
04.01.2012 06:57 2,4 C 95 % 0,0 l/m 4,7 km/h (1 Bft) NO 44 6,4 km/h (2 Bft)
04.01.2012 06:58 2,4 C 95 % 0,0 l/m 4,2 km/h (1 Bft) NO 44 6,4 km/h (2 Bft)
04.01.2012 06:59 2,4 C 95 % 0,0 l/m 4,9 km/h (1 Bft) NO 38 6,4 km/h (2 Bft)
04.01.2012 07:00 2,4 C 95 % 0,0 l/m 6,9 km/h (2 Bft) NO 39 9,7 km/h (2 Bft)
04.01.2012 07:01 2,3 C 95 % 0,0 l/m 7,8 km/h (2 Bft) NO 46 9,7 km/h (2 Bft)
04.01.2012 07:02 2,3 C 95 % 0,0 l/m 8,4 km/h (2 Bft) NO 50 9,7 km/h (2 Bft)
04.01.2012 07:03 2,3 C 96 % 0,0 l/m 7,2 km/h (2 Bft) NO 55 9,7 km/h (2 Bft)
04.01.2012 07:04 2,3 C 96 % 0,0 l/m 7,1 km/h (2 Bft) NO 46 8,0 km/h (2 Bft)
04.01.2012 07:05 2,3 C 96 % 0,0 l/m 4,8 km/h (1 Bft) NO 50 6,4 km/h (2 Bft)
04.01.2012 07:06 2,3 C 96 % 0,0 l/m 2,8 km/h (1 Bft) NO 50 3,2 km/h (1 Bft)
04.01.2012 07:07 2,3 C 96 % 0,0 l/m 4,7 km/h (1 Bft) N-NO 25 8,0 km/h (2 Bft)
04.01.2012 07:08 2,2 C 96 % 0,0 l/m 6,1 km/h (2 Bft) N 1 8,0 km/h (2 Bft)
04.01.2012 07:09 2,2 C 96 % 0,0 l/m 7,0 km/h (2 Bft) N-NO 25 8,0 km/h (2 Bft)
04.01.2012 07:10 2,2 C 96 % 0,0 l/m 7,3 km/h (2 Bft) NO 39 9,7 km/h (2 Bft)
04.01.2012 07:11 2,2 C 96 % 0,0 l/m 6,7 km/h (2 Bft) N-NO 25 8,0 km/h (2 Bft)
04.01.2012 07:12 2,2 C 96 % 0,0 l/m 5,8 km/h (2 Bft) NO 44 6,4 km/h (2 Bft)
04.01.2012 07:13 2,2 C 96 % 0,0 l/m 4,2 km/h (1 Bft) NO 56 6,4 km/h (2 Bft)
04.01.2012 07:14 2,2 C 96 % 0,0 l/m 4,9 km/h (1 Bft) NO 42 6,4 km/h (2 Bft)
04.01.2012 07:15 2,2 C 96 % 0,0 l/m 5,9 km/h (2 Bft) NO 50 6,4 km/h (2 Bft)
04.01.2012 07:16 2,2 C 96 % 0,0 l/m 5,4 km/h (1 Bft) NO 44 6,4 km/h (2 Bft)
04.01.2012 07:17 2,2 C 96 % 0,0 l/m 4,0 km/h (1 Bft) N-NO 33 4,8 km/h (1 Bft)
04.01.2012 07:18 2,3 C 96 % 0,0 l/m 4,3 km/h (1 Bft) NO 43 4,8 km/h (1 Bft)
04.01.2012 07:19 2,2 C 96 % 0,0 l/m 3,7 km/h (1 Bft) NO 37 4,8 km/h (1 Bft)
04.01.2012 07:20 2,2 C 96 % 0,0 l/m 4,4 km/h (1 Bft) NO 38 6,4 km/h (2 Bft)
04.01.2012 07:21 2,3 C 96 % 0,0 l/m 4,7 km/h (1 Bft) NO 37 6,4 km/h (2 Bft)
04.01.2012 07:22 2,3 C 96 % 0,0 l/m 4,9 km/h (1 Bft) NO 44 6,4 km/h (2 Bft)
04.01.2012 07:23 2,3 C 96 % 0,0 l/m 6,1 km/h (2 Bft) NO 41 8,0 km/h (2 Bft)
04.01.2012 07:24 2,3 C 96 % 0,0 l/m 6,4 km/h (2 Bft) NO 44 6,4 km/h (2 Bft)
04.01.2012 07:25 2,3 C 96 % 0,0 l/m 7,5 km/h (2 Bft) NO 46 8,0 km/h (2 Bft)
04.01.2012 07:26 2,3 C 96 % 0,0 l/m 5,8 km/h (2 Bft) NO 46 6,4 km/h (2 Bft)
04.01.2012 07:27 2,3 C 96 % 0,0 l/m 4,9 km/h (1 Bft) NO 46 6,4 km/h (2 Bft)
04.01.2012 07:28 2,4 C 96 % 0,0 l/m 3,4 km/h (1 Bft) NO 54 4,8 km/h (1 Bft)
04.01.2012 07:29 2,4 C 96 % 0,0 l/m 4,5 km/h (1 Bft) NO 44 4,8 km/h (1 Bft)
04.01.2012 07:30 2,4 C 96 % 0,0 l/m 5,5 km/h (1 Bft) NO 51 6,4 km/h (2 Bft)
04.01.2012 07:31 2,4 C 96 % 0,0 l/m 6,3 km/h (2 Bft) NO 46 6,4 km/h (2 Bft)
04.01.2012 07:32 2,4 C 96 % 0,0 l/m 6,3 km/h (2 Bft) NO 44 8,0 km/h (2 Bft)
04.01.2012 07:33 2,4 C 96 % 0,0 l/m 6,2 km/h (2 Bft) NO 49 8,0 km/h (2 Bft)
04.01.2012 07:34 2,4 C 96 % 0,0 l/m 6,8 km/h (2 Bft) NO 46 8,0 km/h (2 Bft)
04.01.2012 07:35 2,4 C 96 % 0,0 l/m 6,2 km/h (2 Bft) NO 50 8,0 km/h (2 Bft)
04.01.2012 07:36 2,4 C 96 % 0,0 l/m 5,8 km/h (2 Bft) NO 43 6,4 km/h (2 Bft)
04.01.2012 07:37 2,4 C 96 % 0,0 l/m 4,7 km/h (1 Bft) NO 44 6,4 km/h (2 Bft)
04.01.2012 07:38 2,3 C 96 % 0,0 l/m 4,7 km/h (1 Bft) NO 40 6,4 km/h (2 Bft)
04.01.2012 07:39 2,3 C 96 % 0,0 l/m 6,2 km/h (2 Bft) NO 44 6,4 km/h (2 Bft)
04.01.2012 07:40 2,4 C 96 % 0,0 l/m 6,8 km/h (2 Bft) NO 42 8,0 km/h (2 Bft)
04.01.2012 07:41 2,4 C 96 % 0,0 l/m 6,3 km/h (2 Bft) NO 45 8,0 km/h (2 Bft)
04.01.2012 07:42 2,4 C 96 % 0,0 l/m 5,0 km/h (1 Bft) N-NO 32 6,4 km/h (2 Bft)
04.01.2012 07:43 2,4 C 96 % 0,0 l/m 5,0 km/h (1 Bft) NO 39 6,4 km/h (2 Bft)
04.01.2012 07:44 2,4 C 96 % 0,0 l/m 5,4 km/h (1 Bft) N-NO 31 6,4 km/h (2 Bft)
04.01.2012 07:45 2,4 C 96 % 0,0 l/m 6,0 km/h (2 Bft) NO 37 6,4 km/h (2 Bft)
04.01.2012 07:46 2,4 C 96 % 0,0 l/m 6,4 km/h (2 Bft) NO 47 8,0 km/h (2 Bft)
04.01.2012 07:47 2,4 C 96 % 0,0 l/m 7,5 km/h (2 Bft) NO 37 9,7 km/h (2 Bft)
04.01.2012 07:48 2,5 C 96 % 0,0 l/m 7,5 km/h (2 Bft) NO 46 9,7 km/h (2 Bft)
04.01.2012 07:49 2,5 C 96 % 0,0 l/m 5,4 km/h (1 Bft) NO 51 8,0 km/h (2 Bft)
04.01.2012 07:50 2,5 C 96 % 0,0 l/m 5,1 km/h (1 Bft) NO 39 6,4 km/h (2 Bft)
04.01.2012 07:51 2,6 C 96 % 0,0 l/m 6,1 km/h (2 Bft) O-NO 59 6,4 km/h (2 Bft)
04.01.2012 07:52 2,5 C 96 % 0,0 l/m 7,0 km/h (2 Bft) NO 49 8,0 km/h (2 Bft)
04.01.2012 07:53 2,5 C 96 % 0,0 l/m 7,4 km/h (2 Bft) O-NO 61 8,0 km/h (2 Bft)
04.01.2012 07:54 2,5 C 96 % 0,0 l/m 5,5 km/h (1 Bft) O-NO 61 8,0 km/h (2 Bft)
04.01.2012 07:55 2,4 C 96 % 0,0 l/m 2,9 km/h (1 Bft) O-NO 60 3,2 km/h (1 Bft)
04.01.2012 07:56 2,4 C 95 % 0,0 l/m 2,3 km/h (1 Bft) N-NO 30 3,2 km/h (1 Bft)
04.01.2012 07:57 2,4 C 95 % 0,0 l/m 4,9 km/h (1 Bft) NO 42 6,4 km/h (2 Bft)
04.01.2012 07:58 2,4 C 95 % 0,0 l/m 6,6 km/h (2 Bft) NO 47 8,0 km/h (2 Bft)
04.01.2012 07:59 2,3 C 95 % 0,0 l/m 7,3 km/h (2 Bft) NO 56 8,0 km/h (2 Bft)
04.01.2012 08:00 2,3 C 95 % 0,0 l/m 7,5 km/h (2 Bft) O-NO 61 8,0 km/h (2 Bft)
04.01.2012 08:01 2,3 C 95 % 0,0 l/m 7,3 km/h (2 Bft) O-NO 63 8,0 km/h (2 Bft)
04.01.2012 08:02 2,3 C 96 % 0,0 l/m 7,1 km/h (2 Bft) O-NO 65 8,0 km/h (2 Bft)
04.01.2012 08:03 2,3 C 96 % 0,0 l/m 6,3 km/h (2 Bft) O-NO 60 8,0 km/h (2 Bft)
04.01.2012 08:04 2,3 C 96 % 0,0 l/m 6,3 km/h (2 Bft) NO 51 6,4 km/h (2 Bft)
04.01.2012 08:05 2,2 C 96 % 0,0 l/m 5,6 km/h (1 Bft) O-NO 66 6,4 km/h (2 Bft)
04.01.2012 08:06 2,2 C 96 % 0,0 l/m 4,6 km/h (1 Bft) O-NO 70 6,4 km/h (2 Bft)
04.01.2012 08:07 2,2 C 96 % 0,0 l/m 4,1 km/h (1 Bft) O-NO 60 4,8 km/h (1 Bft)
04.01.2012 08:08 2,2 C 96 % 0,0 l/m 2,4 km/h (1 Bft) NO 46 4,8 km/h (1 Bft)
04.01.2012 08:09 2,2 C 96 % 0,0 l/m 4,2 km/h (1 Bft) NO 49 4,8 km/h (1 Bft)
04.01.2012 08:10 2,1 C 96 % 0,0 l/m 5,6 km/h (1 Bft) NO 56 6,4 km/h (2 Bft)
04.01.2012 08:11 2,1 C 96 % 0,0 l/m 5,8 km/h (2 Bft) NO 53 6,4 km/h (2 Bft)
04.01.2012 08:12 2,1 C 96 % 0,0 l/m 5,8 km/h (2 Bft) NO 51 6,4 km/h (2 Bft)
04.01.2012 08:13 2,1 C 96 % 0,0 l/m 6,3 km/h (2 Bft) NO 40 6,4 km/h (2 Bft)
04.01.2012 08:14 2,1 C 96 % 0,0 l/m 5,4 km/h (1 Bft) N-NO 27 6,4 km/h (2 Bft)
04.01.2012 08:15 2,1 C 96 % 0,0 l/m 4,8 km/h (1 Bft) N-NO 12 6,4 km/h (2 Bft)
04.01.2012 08:16 2,0 C 96 % 0,0 l/m 2,7 km/h (1 Bft) NO 37 4,8 km/h (1 Bft)
04.01.2012 08:17 2,0 C 96 % 0,0 l/m 5,6 km/h (1 Bft) N-NO 27 8,0 km/h (2 Bft)
04.01.2012 08:18 2,0 C 96 % 0,0 l/m 5,1 km/h (1 Bft) NO 36 8,0 km/h (2 Bft)
04.01.2012 08:19 2,1 C 96 % 0,0 l/m 6,2 km/h (2 Bft) NO 51 8,0 km/h (2 Bft)
04.01.2012 08:20 2,1 C 96 % 0,0 l/m 5,8 km/h (2 Bft) O-NO 65 6,4 km/h (2 Bft)
04.01.2012 08:21 2,1 C 96 % 0,0 l/m 6,3 km/h (2 Bft) NO 51 6,4 km/h (2 Bft)
04.01.2012 08:22 2,1 C 96 % 0,0 l/m 4,7 km/h (1 Bft) O-NO 65 6,4 km/h (2 Bft)
04.01.2012 08:23 2,1 C 96 % 0,0 l/m 4,2 km/h (1 Bft) NO 50 6,4 km/h (2 Bft)
04.01.2012 08:24 2,1 C 96 % 0,0 l/m 4,4 km/h (1 Bft) NO 44 6,4 km/h (2 Bft)
04.01.2012 08:25 2,1 C 96 % 0,0 l/m 4,5 km/h (1 Bft) NO 45 6,4 km/h (2 Bft)
04.01.2012 08:26 2,1 C 96 % 0,0 l/m 5,1 km/h (1 Bft) NO 43 6,4 km/h (2 Bft)
04.01.2012 08:27 2,1 C 96 % 0,0 l/m 5,8 km/h (2 Bft) NO 42 6,4 km/h (2 Bft)
04.01.2012 08:28 2,1 C 96 % 0,0 l/m 5,6 km/h (1 Bft) NO 50 6,4 km/h (2 Bft)
04.01.2012 08:29 2,1 C 96 % 0,0 l/m 5,3 km/h (1 Bft) NO 51 6,4 km/h (2 Bft)
04.01.2012 08:30 2,1 C 96 % 0,0 l/m 6,3 km/h (2 Bft) NO 56 8,0 km/h (2 Bft)
04.01.2012 08:31 2,1 C 96 % 0,0 l/m 5,9 km/h (2 Bft) O-NO 72 6,4 km/h (2 Bft)
04.01.2012 08:32 2,1 C 96 % 0,0 l/m 4,7 km/h (1 Bft) NO 56 6,4 km/h (2 Bft)
04.01.2012 08:33 2,1 C 96 % 0,0 l/m 4,6 km/h (1 Bft) NO 51 6,4 km/h (2 Bft)
04.01.2012 08:34 2,1 C 96 % 0,0 l/m 5,2 km/h (1 Bft) O-NO 61 6,4 km/h (2 Bft)
04.01.2012 08:35 2,1 C 96 % 0,0 l/m 5,1 km/h (1 Bft) NO 46 6,4 km/h (2 Bft)
04.01.2012 08:36 2,1 C 96 % 0,0 l/m 3,9 km/h (1 Bft) O-NO 58 4,8 km/h (1 Bft)
04.01.2012 08:37 2,1 C 96 % 0,0 l/m 3,0 km/h (1 Bft) NO 41 4,8 km/h (1 Bft)
04.01.2012 08:38 2,2 C 96 % 0,0 l/m 4,4 km/h (1 Bft) NO 44 4,8 km/h (1 Bft)
04.01.2012 08:39 2,2 C 96 % 0,0 l/m 4,7 km/h (1 Bft) NO 38 4,8 km/h (1 Bft)
04.01.2012 08:40 2,2 C 96 % 0,0 l/m 5,4 km/h (1 Bft) NO 44 6,4 km/h (2 Bft)
04.01.2012 08:41 2,2 C 96 % 0,0 l/m 4,2 km/h (1 Bft) O-NO 58 4,8 km/h (1 Bft)
04.01.2012 08:42 2,2 C 96 % 0,0 l/m 4,5 km/h (1 Bft) NO 46 4,8 km/h (1 Bft)
04.01.2012 08:43 2,2 C 96 % 0,0 l/m 3,9 km/h (1 Bft) NO 51 6,4 km/h (2 Bft)
04.01.2012 08:44 2,2 C 96 % 0,0 l/m 2,5 km/h (1 Bft) NO 50 3,2 km/h (1 Bft)
04.01.2012 08:45 2,2 C 96 % 0,0 l/m 2,9 km/h (1 Bft) N-NO 29 3,2 km/h (1 Bft)
04.01.2012 08:46 2,2 C 96 % 0,0 l/m 3,4 km/h (1 Bft) N-NO 29 4,8 km/h (1 Bft)
04.01.2012 08:47 2,3 C 97 % 0,0 l/m 3,9 km/h (1 Bft) N-NO 26 6,4 km/h (2 Bft)
04.01.2012 08:48 2,3 C 97 % 0,0 l/m 3,9 km/h (1 Bft) NO 40 6,4 km/h (2 Bft)
04.01.2012 08:49 2,3 C 97 % 0,0 l/m 5,5 km/h (1 Bft) N 11 8,0 km/h (2 Bft)
04.01.2012 08:50 2,3 C 97 % 0,0 l/m 6,9 km/h (2 Bft) N-NO 22 8,0 km/h (2 Bft)
04.01.2012 08:51 2,3 C 97 % 0,0 l/m 4,7 km/h (1 Bft) N-NO 23 6,4 km/h (2 Bft)
04.01.2012 08:52 2,3 C 97 % 0,0 l/m 4,8 km/h (1 Bft) NO 36 6,4 km/h (2 Bft)
04.01.2012 08:53 2,3 C 97 % 0,0 l/m 6,3 km/h (2 Bft) NO 36 9,7 km/h (2 Bft)
04.01.2012 08:54 2,4 C 97 % 0,0 l/m 5,1 km/h (1 Bft) NO 56 6,4 km/h (2 Bft)
04.01.2012 08:55 2,4 C 97 % 0,0 l/m 5,2 km/h (1 Bft) NO 47 8,0 km/h (2 Bft)
04.01.2012 08:56 2,4 C 97 % 0,0 l/m 5,1 km/h (1 Bft) NO 36 6,4 km/h (2 Bft)
04.01.2012 08:57 2,4 C 97 % 0,0 l/m 4,5 km/h (1 Bft) NO 51 6,4 km/h (2 Bft)
04.01.2012 08:58 2,5 C 97 % 0,0 l/m 5,2 km/h (1 Bft) O-NO 60 8,0 km/h (2 Bft)
04.01.2012 08:59 2,5 C 97 % 0,0 l/m 3,9 km/h (1 Bft) N-NO 32 4,8 km/h (1 Bft)
04.01.2012 09:00 2,6 C 97 % 0,0 l/m 6,0 km/h (2 Bft) NO 43 8,0 km/h (2 Bft)
04.01.2012 09:01 2,6 C 97 % 0,0 l/m 5,1 km/h (1 Bft) NO 37 6,4 km/h (2 Bft)
04.01.2012 09:02 2,6 C 97 % 0,0 l/m 4,8 km/h (1 Bft) NO 37 8,0 km/h (2 Bft)
04.01.2012 09:03 2,6 C 97 % 0,0 l/m 7,2 km/h (2 Bft) NO 46 9,7 km/h (2 Bft)
04.01.2012 09:04 2,6 C 97 % 0,0 l/m 7,0 km/h (2 Bft) NO 51 9,7 km/h (2 Bft)
04.01.2012 09:05 2,6 C 97 % 0,0 l/m 6,0 km/h (2 Bft) NO 50 9,7 km/h (2 Bft)
04.01.2012 09:06 2,7 C 97 % 0,0 l/m 7,0 km/h (2 Bft) N-NO 12 8,0 km/h (2 Bft)
04.01.2012 09:07 2,7 C 97 % 0,0 l/m 4,4 km/h (1 Bft) NO 50 6,4 km/h (2 Bft)
04.01.2012 09:08 2,7 C 97 % 0,0 l/m 2,8 km/h (1 Bft) NO 46 4,8 km/h (1 Bft)
04.01.2012 09:09 2,7 C 97 % 0,0 l/m 2,4 km/h (1 Bft) NO 46 3,2 km/h (1 Bft)
04.01.2012 09:10 2,7 C 97 % 0,0 l/m 3,1 km/h (1 Bft) N-NO 19 4,8 km/h (1 Bft)
04.01.2012 09:11 2,7 C 97 % 0,0 l/m 4,6 km/h (1 Bft) O-NO 57 6,4 km/h (2 Bft)
04.01.2012 09:12 2,7 C 97 % 0,0 l/m 6,1 km/h (2 Bft) NO 47 8,0 km/h (2 Bft)
04.01.2012 09:13 2,7 C 96 % 0,0 l/m 4,0 km/h (1 Bft) NO 34 6,4 km/h (2 Bft)
04.01.2012 09:14 2,7 C 96 % 0,0 l/m 2,5 km/h (1 Bft) NO 39 4,8 km/h (1 Bft)
04.01.2012 09:15 2,7 C 96 % 0,0 l/m 1,7 km/h (1 Bft) N-NO 15 3,2 km/h (1 Bft)
04.01.2012 09:16 2,7 C 96 % 0,0 l/m 2,7 km/h (1 Bft) NO 51 4,8 km/h (1 Bft)
04.01.2012 09:17 2,7 C 96 % 0,0 l/m 5,5 km/h (1 Bft) NO 53 6,4 km/h (2 Bft)
04.01.2012 09:18 2,7 C 96 % 0,0 l/m 5,3 km/h (1 Bft) NO 46 6,4 km/h (2 Bft)
04.01.2012 09:19 2,7 C 96 % 0,0 l/m 3,0 km/h (1 Bft) O-NO 65 4,8 km/h (1 Bft)
04.01.2012 09:20 2,7 C 96 % 0,0 l/m 1,4 km/h (1 Bft) O-NO 63 3,2 km/h (1 Bft)
04.01.2012 09:21 2,8 C 96 % 0,0 l/m 0,1 km/h (0 Bft) O-NO 64 1,6 km/h (1 Bft)
04.01.2012 09:22 2,8 C 96 % 0,0 l/m 2,8 km/h (1 Bft) NO 47 4,8 km/h (1 Bft)
04.01.2012 09:23 2,8 C 96 % 0,0 l/m 2,7 km/h (1 Bft) NO 46 3,2 km/h (1 Bft)
04.01.2012 09:24 2,8 C 96 % 0,0 l/m 4,7 km/h (1 Bft) NO 51 6,4 km/h (2 Bft)
04.01.2012 09:25 2,8 C 96 % 0,0 l/m 4,5 km/h (1 Bft) O-NO 57 6,4 km/h (2 Bft)
04.01.2012 09:26 2,8 C 96 % 0,0 l/m 3,9 km/h (1 Bft) NO 36 4,8 km/h (1 Bft)
04.01.2012 09:27 2,8 C 96 % 0,0 l/m 2,6 km/h (1 Bft) N-NO 20 3,2 km/h (1 Bft)
04.01.2012 09:28 2,8 C 96 % 0,0 l/m 1,9 km/h (1 Bft) N 357 3,2 km/h (1 Bft)
04.01.2012 09:29 2,8 C 96 % 0,0 l/m 0,6 km/h (0 Bft) N 357 1,6 km/h (1 Bft)
04.01.2012 09:30 2,8 C 96 % 0,0 l/m 0,4 km/h (0 Bft) N 357 1,6 km/h (1 Bft)
04.01.2012 09:31 2,8 C 96 % 0,0 l/m 3,2 km/h (1 Bft) NO 49 4,8 km/h (1 Bft)
04.01.2012 09:32 2,9 C 96 % 0,0 l/m 4,4 km/h (1 Bft) NO 46 4,8 km/h (1 Bft)
04.01.2012 09:33 2,9 C 96 % 0,0 l/m 3,4 km/h (1 Bft) O-NO 57 4,8 km/h (1 Bft)
04.01.2012 09:34 2,9 C 96 % 0,0 l/m 3,2 km/h (1 Bft) O-NO 57 4,8 km/h (1 Bft)
04.01.2012 09:35 2,9 C 96 % 0,0 l/m 1,5 km/h (1 Bft) N 9 3,2 km/h (1 Bft)
04.01.2012 09:36 2,9 C 96 % 0,0 l/m 1,6 km/h (1 Bft) N 9 1,6 km/h (1 Bft)
04.01.2012 09:37 2,9 C 96 % 0,0 l/m 1,0 km/h (0 Bft) N-NO 15 1,6 km/h (1 Bft)
04.01.2012 09:38 2,9 C 96 % 0,0 l/m 3,3 km/h (1 Bft) N-NO 18 4,8 km/h (1 Bft)
04.01.2012 09:39 2,9 C 96 % 0,0 l/m 4,2 km/h (1 Bft) O-NO 61 4,8 km/h (1 Bft)
04.01.2012 09:40 3,0 C 96 % 0,0 l/m 5,3 km/h (1 Bft) NO 46 6,4 km/h (2 Bft)
04.01.2012 09:41 3,0 C 95 % 0,0 l/m 3,1 km/h (1 Bft) O-NO 68 6,4 km/h (2 Bft)
04.01.2012 09:42 3,0 C 95 % 0,0 l/m 3,0 km/h (1 Bft) O-NO 67 4,8 km/h (1 Bft)
04.01.2012 09:43 3,0 C 95 % 0,0 l/m 2,3 km/h (1 Bft) NO 36 3,2 km/h (1 Bft)
04.01.2012 09:44 3,1 C 95 % 0,0 l/m 2,1 km/h (1 Bft) N-NO 25 3,2 km/h (1 Bft)
04.01.2012 09:45 3,1 C 95 % 0,0 l/m 3,0 km/h (1 Bft) N-NO 27 3,2 km/h (1 Bft)
04.01.2012 09:46 3,1 C 95 % 0,0 l/m 3,5 km/h (1 Bft) NO 44 4,8 km/h (1 Bft)
04.01.2012 09:47 3,1 C 95 % 0,0 l/m 5,1 km/h (1 Bft) NO 46 6,4 km/h (2 Bft)
04.01.2012 09:48 3,1 C 95 % 0,0 l/m 4,0 km/h (1 Bft) O-NO 77 6,4 km/h (2 Bft)
04.01.2012 09:49 3,1 C 95 % 0,0 l/m 3,8 km/h (1 Bft) O-NO 72 4,8 km/h (1 Bft)
04.01.2012 09:50 3,1 C 95 % 0,0 l/m 4,2 km/h (1 Bft) N-NO 27 6,4 km/h (2 Bft)
04.01.2012 09:51 3,1 C 95 % 0,0 l/m 3,8 km/h (1 Bft) NO 49 4,8 km/h (1 Bft)
04.01.2012 09:52 3,1 C 95 % 0,0 l/m 4,3 km/h (1 Bft) N-NO 30 6,4 km/h (2 Bft)
04.01.2012 09:53 3,1 C 95 % 0,0 l/m 3,3 km/h (1 Bft) O-NO 61 4,8 km/h (1 Bft)
04.01.2012 09:54 3,2 C 95 % 0,0 l/m 3,4 km/h (1 Bft) NO 53 4,8 km/h (1 Bft)
04.01.2012 09:55 3,2 C 95 % 0,0 l/m 3,9 km/h (1 Bft) NO 49 4,8 km/h (1 Bft)
04.01.2012 09:56 3,2 C 95 % 0,0 l/m 3,0 km/h (1 Bft) N-NO 15 3,2 km/h (1 Bft)
04.01.2012 09:57 3,2 C 95 % 0,0 l/m 3,3 km/h (1 Bft) N 10 4,8 km/h (1 Bft)
04.01.2012 09:58 3,2 C 95 % 0,0 l/m 2,7 km/h (1 Bft) O-NO 57 3,2 km/h (1 Bft)
04.01.2012 09:59 3,2 C 95 % 0,0 l/m 1,4 km/h (1 Bft) O-NO 64 1,6 km/h (1 Bft)
04.01.2012 10:00 3,2 C 94 % 0,0 l/m 2,3 km/h (1 Bft) O 94 3,2 km/h (1 Bft)
04.01.2012 10:01 3,2 C 94 % 0,0 l/m 1,2 km/h (1 Bft) O 91 3,2 km/h (1 Bft)
04.01.2012 10:02 3,2 C 94 % 0,0 l/m 0,9 km/h (0 Bft) O 92 1,6 km/h (1 Bft)
04.01.2012 10:03 3,3 C 94 % 0,0 l/m 0,1 km/h (0 Bft) O 91 1,6 km/h (1 Bft)
04.01.2012 10:04 3,3 C 94 % 0,0 l/m 0,0 km/h (0 Bft) O 85 0,0 km/h (0 Bft)
04.01.2012 10:05 3,3 C 94 % 0,0 l/m 0,5 km/h (0 Bft) O-NO 75 3,2 km/h (1 Bft)
04.01.2012 10:06 3,3 C 94 % 0,0 l/m 1,4 km/h (1 Bft) O-NO 77 3,2 km/h (1 Bft)
04.01.2012 10:07 3,3 C 94 % 0,0 l/m 0,0 km/h (0 Bft) O-NO 75 0,0 km/h (0 Bft)
04.01.2012 10:08 3,3 C 94 % 0,0 l/m 0,5 km/h (0 Bft) O-NO 75 1,6 km/h (1 Bft)
04.01.2012 10:09 3,3 C 94 % 0,0 l/m 1,4 km/h (1 Bft) O-NO 75 3,2 km/h (1 Bft)
04.01.2012 10:10 3,3 C 94 % 0,0 l/m 4,3 km/h (1 Bft) O-NO 78 6,4 km/h (2 Bft)
04.01.2012 10:11 3,3 C 94 % 0,0 l/m 4,3 km/h (1 Bft) O-NO 77 6,4 km/h (2 Bft)
04.01.2012 10:12 3,3 C 93 % 0,0 l/m 0,7 km/h (0 Bft) S-SO 158 3,2 km/h (1 Bft)
04.01.2012 10:13 3,3 C 93 % 0,0 l/m 0,6 km/h (0 Bft) W 272 1,6 km/h (1 Bft)
04.01.2012 10:14 3,4 C 93 % 0,0 l/m 2,6 km/h (1 Bft) SW 226 4,8 km/h (1 Bft)
04.01.2012 10:15 3,4 C 93 % 0,0 l/m 2,0 km/h (1 Bft) O-NO 58 3,2 km/h (1 Bft)
04.01.2012 10:16 3,4 C 93 % 0,0 l/m 5,1 km/h (1 Bft) O-NO 61 6,4 km/h (2 Bft)
04.01.2012 10:17 3,4 C 93 % 0,0 l/m 2,7 km/h (1 Bft) NO 37 4,8 km/h (1 Bft)
04.01.2012 10:18 3,4 C 93 % 0,0 l/m 2,1 km/h (1 Bft) N-NO 27 3,2 km/h (1 Bft)
04.01.2012 10:19 3,4 C 93 % 0,0 l/m 0,9 km/h (0 Bft) NW 321 1,6 km/h (1 Bft)
04.01.2012 10:20 3,5 C 93 % 0,0 l/m 0,7 km/h (0 Bft) W-NW 289 3,2 km/h (1 Bft)
04.01.2012 10:21 3,5 C 93 % 0,0 l/m 5,1 km/h (1 Bft) NO 46 6,4 km/h (2 Bft)
04.01.2012 10:22 3,6 C 93 % 0,0 l/m 7,0 km/h (2 Bft) N-NO 25 9,7 km/h (2 Bft)
04.01.2012 10:23 3,6 C 92 % 0,0 l/m 3,2 km/h (1 Bft) NO 36 6,4 km/h (2 Bft)
04.01.2012 10:24 3,6 C 92 % 0,0 l/m 1,3 km/h (1 Bft) W 268 3,2 km/h (1 Bft)
04.01.2012 10:25 3,6 C 93 % 0,0 l/m 2,5 km/h (1 Bft) W-NW 293 6,4 km/h (2 Bft)
04.01.2012 10:26 3,6 C 93 % 0,0 l/m 2,2 km/h (1 Bft) N-NW 345 4,8 km/h (1 Bft)
04.01.2012 10:27 3,6 C 93 % 0,0 l/m 3,0 km/h (1 Bft) N-NW 345 3,2 km/h (1 Bft)
04.01.2012 10:28 3,7 C 93 % 0,0 l/m 2,3 km/h (1 Bft) N 9 4,8 km/h (1 Bft)
04.01.2012 10:29 3,7 C 93 % 0,0 l/m 1,3 km/h (1 Bft) N-NW 347 3,2 km/h (1 Bft)
04.01.2012 10:30 3,7 C 93 % 0,0 l/m 1,5 km/h (1 Bft) N 358 3,2 km/h (1 Bft)
04.01.2012 10:31 3,7 C 93 % 0,0 l/m 1,7 km/h (1 Bft) N-NW 341 3,2 km/h (1 Bft)
04.01.2012 10:32 3,7 C 93 % 0,0 l/m 1,2 km/h (1 Bft) N-NW 341 1,6 km/h (1 Bft)
04.01.2012 10:33 3,8 C 93 % 0,0 l/m 1,1 km/h (1 Bft) NO 53 1,6 km/h (1 Bft)
04.01.2012 10:34 3,8 C 93 % 0,0 l/m 0,7 km/h (0 Bft) W-SW 253 3,2 km/h (1 Bft)
04.01.2012 10:35 3,8 C 93 % 0,0 l/m 2,6 km/h (1 Bft) W-NW 298 6,4 km/h (2 Bft)
04.01.2012 10:36 3,8 C 93 % 0,0 l/m 2,5 km/h (1 Bft) NW 305 4,8 km/h (1 Bft)
04.01.2012 10:37 3,8 C 93 % 0,0 l/m 3,9 km/h (1 Bft) N 11 8,0 km/h (2 Bft)
04.01.2012 10:38 3,8 C 93 % 0,0 l/m 9,0 km/h (2 Bft) NW 313 11,3 km/h (2 Bft)
04.01.2012 10:39 3,8 C 93 % 0,0 l/m 10,9 km/h (2 Bft) NW 304 12,9 km/h (3 Bft)
04.01.2012 10:40 3,8 C 93 % 0,0 l/m 6,8 km/h (2 Bft) N-NW 330 8,0 km/h (2 Bft)
04.01.2012 10:41 3,8 C 93 % 0,0 l/m 4,0 km/h (1 Bft) N 360 6,4 km/h (2 Bft)
04.01.2012 10:42 3,8 C 93 % 0,0 l/m 6,1 km/h (2 Bft) N-NO 25 9,7 km/h (2 Bft)
04.01.2012 10:43 3,8 C 93 % 0,0 l/m 3,4 km/h (1 Bft) NW 305 4,8 km/h (1 Bft)
04.01.2012 10:44 3,8 C 93 % 0,0 l/m 3,6 km/h (1 Bft) NO 53 9,7 km/h (2 Bft)
04.01.2012 10:45 3,8 C 93 % 0,0 l/m 8,6 km/h (2 Bft) NO 38 12,9 km/h (3 Bft)
04.01.2012 10:46 3,8 C 93 % 0,0 l/m 8,0 km/h (2 Bft) O-NO 62 11,3 km/h (2 Bft)
04.01.2012 10:47 3,8 C 93 % 0,0 l/m 6,0 km/h (2 Bft) O-NO 58 8,0 km/h (2 Bft)
04.01.2012 10:48 3,8 C 93 % 0,0 l/m 7,3 km/h (2 Bft) O-NO 70 8,0 km/h (2 Bft)
04.01.2012 10:49 3,8 C 93 % 0,0 l/m 7,4 km/h (2 Bft) O-NO 65 8,0 km/h (2 Bft)
04.01.2012 10:50 3,8 C 93 % 0,0 l/m 6,9 km/h (2 Bft) O-NO 65 9,7 km/h (2 Bft)
04.01.2012 10:51 3,8 C 93 % 0,0 l/m 6,4 km/h (2 Bft) O-NO 70 8,0 km/h (2 Bft)
04.01.2012 10:52 3,8 C 93 % 0,0 l/m 8,7 km/h (2 Bft) NO 50 11,3 km/h (2 Bft)
04.01.2012 10:53 3,9 C 93 % 0,0 l/m 7,4 km/h (2 Bft) O-NO 73 11,3 km/h (2 Bft)
04.01.2012 10:54 3,9 C 93 % 0,0 l/m 7,4 km/h (2 Bft) O-NO 63 9,7 km/h (2 Bft)
04.01.2012 10:55 3,9 C 93 % 0,0 l/m 8,7 km/h (2 Bft) O-NO 57 12,9 km/h (3 Bft)
04.01.2012 10:56 3,9 C 93 % 0,0 l/m 7,6 km/h (2 Bft) O-NO 71 11,3 km/h (2 Bft)
04.01.2012 10:57 3,9 C 93 % 0,0 l/m 6,9 km/h (2 Bft) NO 49 9,7 km/h (2 Bft)
04.01.2012 10:58 3,9 C 93 % 0,0 l/m 10,2 km/h (2 Bft) O-NO 58 11,3 km/h (2 Bft)
04.01.2012 10:59 3,9 C 92 % 0,0 l/m 11,3 km/h (2 Bft) O-NO 64 12,9 km/h (3 Bft)
04.01.2012 11:00 3,9 C 92 % 0,0 l/m 10,4 km/h (2 Bft) O-NO 61 14,5 km/h (3 Bft)
04.01.2012 11:01 3,9 C 93 % 0,0 l/m 10,1 km/h (2 Bft) NO 51 11,3 km/h (2 Bft)
04.01.2012 11:02 3,9 C 93 % 0,0 l/m 10,5 km/h (2 Bft) NO 50 14,5 km/h (3 Bft)
04.01.2012 11:03 3,9 C 93 % 0,0 l/m 12,5 km/h (3 Bft) NO 53 14,5 km/h (3 Bft)
04.01.2012 11:04 3,9 C 93 % 0,0 l/m 10,1 km/h (2 Bft) NO 53 12,9 km/h (3 Bft)
04.01.2012 11:05 3,9 C 93 % 0,0 l/m 10,5 km/h (2 Bft) O-NO 65 12,9 km/h (3 Bft)
04.01.2012 11:06 3,9 C 93 % 0,0 l/m 9,6 km/h (2 Bft) NO 46 12,9 km/h (3 Bft)
04.01.2012 11:07 3,9 C 93 % 0,0 l/m 12,3 km/h (3 Bft) NO 53 14,5 km/h (3 Bft)
04.01.2012 11:08 3,8 C 93 % 0,0 l/m 10,9 km/h (2 Bft) O-NO 67 14,5 km/h (3 Bft)
04.01.2012 11:09 3,9 C 93 % 0,0 l/m 10,7 km/h (2 Bft) O-NO 58 12,9 km/h (3 Bft)
04.01.2012 11:10 3,9 C 93 % 0,0 l/m 9,1 km/h (2 Bft) O-NO 64 9,7 km/h (2 Bft)
04.01.2012 11:11 3,9 C 93 % 0,0 l/m 10,3 km/h (2 Bft) NO 56 12,9 km/h (3 Bft)
04.01.2012 11:12 3,9 C 93 % 0,0 l/m 6,5 km/h (2 Bft) NO 56 9,7 km/h (2 Bft)
04.01.2012 11:13 3,9 C 93 % 0,0 l/m 11,0 km/h (2 Bft) O-NO 68 11,3 km/h (2 Bft)
04.01.2012 11:14 3,8 C 93 % 0,0 l/m 8,7 km/h (2 Bft) NO 35 11,3 km/h (2 Bft)
04.01.2012 11:15 3,9 C 93 % 0,0 l/m 10,3 km/h (2 Bft) O-NO 58 11,3 km/h (2 Bft)
04.01.2012 11:16 3,9 C 93 % 0,0 l/m 10,8 km/h (2 Bft) O-NO 60 12,9 km/h (3 Bft)
04.01.2012 11:17 3,9 C 93 % 0,0 l/m 7,1 km/h (2 Bft) NO 40 11,3 km/h (2 Bft)
04.01.2012 11:18 3,9 C 93 % 0,0 l/m 6,9 km/h (2 Bft) NO 51 8,0 km/h (2 Bft)
04.01.2012 11:19 3,9 C 93 % 0,0 l/m 4,5 km/h (1 Bft) O-NO 60 8,0 km/h (2 Bft)
04.01.2012 11:20 3,9 C 93 % 0,0 l/m 6,7 km/h (2 Bft) NO 43 8,0 km/h (2 Bft)
04.01.2012 11:21 3,9 C 93 % 0,0 l/m 4,9 km/h (1 Bft) NO 37 6,4 km/h (2 Bft)
04.01.2012 11:22 3,9 C 93 % 0,0 l/m 3,4 km/h (1 Bft) NO 53 4,8 km/h (1 Bft)
04.01.2012 11:23 4,0 C 93 % 0,0 l/m 0,2 km/h (0 Bft) W-SW 238 1,6 km/h (1 Bft)
04.01.2012 11:24 4,1 C 93 % 0,0 l/m 1,3 km/h (1 Bft) SW 232 1,6 km/h (1 Bft)
04.01.2012 11:25 4,1 C 93 % 0,0 l/m 0,4 km/h (0 Bft) O 81 1,6 km/h (1 Bft)
04.01.2012 11:26 4,1 C 93 % 0,0 l/m 2,8 km/h (1 Bft) NO 44 4,8 km/h (1 Bft)
04.01.2012 11:27 4,1 C 93 % 0,0 l/m 3,8 km/h (1 Bft) NO 54 4,8 km/h (1 Bft)
04.01.2012 11:28 4,1 C 93 % 0,0 l/m 2,0 km/h (1 Bft) O-NO 65 3,2 km/h (1 Bft)
04.01.2012 11:29 4,2 C 93 % 0,0 l/m 0,7 km/h (0 Bft) O-NO 69 1,6 km/h (1 Bft)
04.01.2012 11:30 4,2 C 93 % 0,0 l/m 0,0 km/h (0 Bft) O-NO 70 0,0 km/h (0 Bft)
04.01.2012 11:31 4,2 C 93 % 0,0 l/m 2,5 km/h (1 Bft) N-NO 25 6,4 km/h (2 Bft)
04.01.2012 11:32 4,4 C 94 % 0,0 l/m 5,9 km/h (2 Bft) W-NW 297 12,9 km/h (3 Bft)
04.01.2012 11:33 4,6 C 93 % 0,0 l/m 5,1 km/h (1 Bft) W-NW 300 9,7 km/h (2 Bft)
04.01.2012 11:34 4,9 C 92 % 0,0 l/m 7,4 km/h (2 Bft) W-NW 297 12,9 km/h (3 Bft)
04.01.2012 11:35 5,2 C 91 % 0,0 l/m 10,4 km/h (2 Bft) N-NW 332 16,1 km/h (3 Bft)
04.01.2012 11:36 5,5 C 90 % 0,0 l/m 8,9 km/h (2 Bft) W-NW 295 12,9 km/h (3 Bft)
04.01.2012 11:37 5,8 C 89 % 0,0 l/m 13,7 km/h (3 Bft) W-NW 295 27,4 km/h (4 Bft)
04.01.2012 11:38 6,1 C 88 % 0,0 l/m 13,5 km/h (3 Bft) NW 309 20,9 km/h (4 Bft)
04.01.2012 11:39 6,3 C 87 % 0,0 l/m 10,1 km/h (2 Bft) W 267 20,9 km/h (4 Bft)
04.01.2012 11:40 6,6 C 85 % 0,0 l/m 10,1 km/h (2 Bft) W-NW 297 17,7 km/h (3 Bft)
04.01.2012 11:41 6,8 C 84 % 0,0 l/m 10,2 km/h (2 Bft) W-NW 283 20,9 km/h (4 Bft)
04.01.2012 11:42 6,9 C 83 % 0,0 l/m 19,6 km/h (3 Bft) W-NW 297 40,2 km/h (6 Bft)
04.01.2012 11:43 7,3 C 82 % 0,0 l/m 17,0 km/h (3 Bft) NW 308 38,6 km/h (5 Bft)
04.01.2012 11:44 7,6 C 81 % 0,0 l/m 12,4 km/h (3 Bft) NW 309 22,5 km/h (4 Bft)
04.01.2012 11:45 7,8 C 80 % 0,0 l/m 15,5 km/h (3 Bft) W-NW 282 25,7 km/h (4 Bft)
04.01.2012 11:46 7,9 C 80 % 0,0 l/m 12,5 km/h (3 Bft) W-NW 298 24,1 km/h (4 Bft)
04.01.2012 11:47 8,1 C 79 % 0,0 l/m 15,9 km/h (3 Bft) SW 214 24,1 km/h (4 Bft)
04.01.2012 11:48 8,2 C 79 % 0,0 l/m 13,4 km/h (3 Bft) W 274 22,5 km/h (4 Bft)
04.01.2012 11:49 8,4 C 78 % 0,0 l/m 13,0 km/h (3 Bft) W-NW 298 24,1 km/h (4 Bft)
04.01.2012 11:50 8,5 C 77 % 0,0 l/m 11,7 km/h (2 Bft) W 260 20,9 km/h (4 Bft)
04.01.2012 11:51 8,6 C 77 % 0,0 l/m 14,2 km/h (3 Bft) W-SW 250 20,9 km/h (4 Bft)
04.01.2012 11:52 8,7 C 76 % 0,0 l/m 11,2 km/h (2 Bft) N-NO 25 22,5 km/h (4 Bft)
04.01.2012 11:53 8,8 C 76 % 0,0 l/m 12,9 km/h (3 Bft) S-SO 150 25,7 km/h (4 Bft)
04.01.2012 11:54 8,8 C 76 % 0,0 l/m 17,6 km/h (3 Bft) W-NW 297 33,8 km/h (5 Bft)
04.01.2012 11:55 8,9 C 74 % 0,0 l/m 21,3 km/h (4 Bft) NW 305 29,0 km/h (5 Bft)
04.01.2012 11:56 9,0 C 73 % 0,0 l/m 24,0 km/h (4 Bft) NW 312 40,2 km/h (6 Bft)
04.01.2012 11:57 9,1 C 72 % 0,0 l/m 25,9 km/h (4 Bft) N-NW 328 35,4 km/h (5 Bft)
04.01.2012 11:58 9,2 C 72 % 0,0 l/m 21,1 km/h (4 Bft) NW 309 29,0 km/h (5 Bft)
04.01.2012 11:59 9,2 C 72 % 0,0 l/m 31,5 km/h (5 Bft) W-NW 302 45,1 km/h (6 Bft)
04.01.2012 12:00 9,2 C 72 % 0,0 l/m 20,2 km/h (4 Bft) W-NW 297 37,0 km/h (5 Bft)
04.01.2012 12:01 9,2 C 72 % 0,0 l/m 20,2 km/h (4 Bft) W 276 29,0 km/h (5 Bft)
04.01.2012 12:02 9,2 C 72 % 0,0 l/m 31,9 km/h (5 Bft) S 184 41,8 km/h (6 Bft)
04.01.2012 12:03 9,2 C 71 % 0,0 l/m 30,2 km/h (5 Bft) W-NW 301 48,3 km/h (6 Bft)
04.01.2012 12:04 9,2 C 70 % 0,0 l/m 30,1 km/h (5 Bft) NW 312 46,7 km/h (6 Bft)
04.01.2012 12:05 9,2 C 70 % 0,0 l/m 29,8 km/h (5 Bft) W-SW 253 57,9 km/h (7 Bft)
04.01.2012 12:06 9,2 C 70 % 0,0 l/m 25,4 km/h (4 Bft) W 270 45,1 km/h (6 Bft)
04.01.2012 12:07 9,2 C 69 % 0,0 l/m 41,5 km/h (6 Bft) W 273 56,3 km/h (7 Bft)
04.01.2012 12:08 9,2 C 70 % 0,0 l/m 37,7 km/h (5 Bft) W-NW 296 49,9 km/h (6 Bft)
04.01.2012 12:09 9,2 C 70 % 0,0 l/m 24,3 km/h (4 Bft) W-SW 237 43,5 km/h (6 Bft)
04.01.2012 12:10 9,2 C 70 % 0,0 l/m 20,7 km/h (4 Bft) W 259 45,1 km/h (6 Bft)
04.01.2012 12:11 9,2 C 70 % 0,0 l/m 24,7 km/h (4 Bft) NW 309 35,4 km/h (5 Bft)
04.01.2012 12:12 9,2 C 69 % 0,0 l/m 33,7 km/h (5 Bft) W-NW 298 48,3 km/h (6 Bft)
04.01.2012 12:13 9,2 C 69 % 0,0 l/m 28,5 km/h (4 Bft) W-NW 300 37,0 km/h (5 Bft)
04.01.2012 12:14 9,2 C 69 % 0,0 l/m 26,5 km/h (4 Bft) W-NW 293 37,0 km/h (5 Bft)
04.01.2012 12:15 9,2 C 69 % 0,0 l/m 29,8 km/h (5 Bft) N-NW 341 48,3 km/h (6 Bft)
04.01.2012 12:16 9,2 C 69 % 0,0 l/m 18,0 km/h (3 Bft) W-SW 248 25,7 km/h (4 Bft)
04.01.2012 12:17 9,2 C 70 % 0,0 l/m 20,6 km/h (4 Bft) W-NW 289 33,8 km/h (5 Bft)
04.01.2012 12:18 9,1 C 69 % 0,0 l/m 22,4 km/h (4 Bft) W-NW 295 48,3 km/h (6 Bft)
04.01.2012 12:19 9,1 C 69 % 0,0 l/m 19,5 km/h (3 Bft) NW 305 45,1 km/h (6 Bft)
04.01.2012 12:20 9,1 C 69 % 0,0 l/m 25,0 km/h (4 Bft) W-NW 284 48,3 km/h (6 Bft)
04.01.2012 12:21 9,1 C 69 % 0,0 l/m 21,5 km/h (4 Bft) NW 308 33,8 km/h (5 Bft)
04.01.2012 12:22 9,1 C 70 % 0,0 l/m 15,4 km/h (3 Bft) W-NW 300 33,8 km/h (5 Bft)
04.01.2012 12:23 9,1 C 69 % 0,0 l/m 21,3 km/h (4 Bft) W-NW 284 32,2 km/h (5 Bft)
04.01.2012 12:24 9,1 C 69 % 0,0 l/m 16,0 km/h (3 Bft) W-SW 252 30,6 km/h (5 Bft)
04.01.2012 12:25 9,0 C 69 % 0,0 l/m 20,6 km/h (4 Bft) NW 304 32,2 km/h (5 Bft)
04.01.2012 12:26 9,0 C 69 % 0,0 l/m 23,5 km/h (4 Bft) NW 321 30,6 km/h (5 Bft)
04.01.2012 12:27 9,0 C 69 % 0,0 l/m 21,8 km/h (4 Bft) W-NW 302 29,0 km/h (5 Bft)
04.01.2012 12:28 8,9 C 69 % 0,0 l/m 20,0 km/h (4 Bft) W-NW 290 29,0 km/h (5 Bft)
04.01.2012 12:29 8,9 C 70 % 0,0 l/m 14,1 km/h (3 Bft) W-NW 297 24,1 km/h (4 Bft)
04.01.2012 12:30 8,9 C 70 % 0,0 l/m 14,5 km/h (3 Bft) W-NW 300 29,0 km/h (5 Bft)
04.01.2012 12:31 8,9 C 69 % 0,0 l/m 19,2 km/h (3 Bft) W-NW 296 37,0 km/h (5 Bft)
04.01.2012 12:32 8,9 C 69 % 0,0 l/m 19,2 km/h (3 Bft) SO 136 37,0 km/h (5 Bft)
04.01.2012 12:33 8,9 C 69 % 0,0 l/m 15,5 km/h (3 Bft) W-NW 293 25,7 km/h (4 Bft)
04.01.2012 12:34 8,8 C 69 % 0,0 l/m 10,9 km/h (2 Bft) SW 222 22,5 km/h (4 Bft)
04.01.2012 12:35 8,8 C 69 % 0,0 l/m 13,3 km/h (3 Bft) W 260 25,7 km/h (4 Bft)
04.01.2012 12:36 8,8 C 69 % 0,0 l/m 20,7 km/h (4 Bft) W-NW 283 33,8 km/h (5 Bft)
04.01.2012 12:37 8,8 C 69 % 0,0 l/m 21,5 km/h (4 Bft) W 278 43,5 km/h (6 Bft)
04.01.2012 12:38 8,8 C 69 % 0,0 l/m 21,7 km/h (4 Bft) W 264 40,2 km/h (6 Bft)
04.01.2012 12:39 8,8 C 69 % 0,0 l/m 15,2 km/h (3 Bft) W 260 29,0 km/h (5 Bft)
04.01.2012 12:40 8,8 C 69 % 0,0 l/m 21,3 km/h (4 Bft) SW 232 30,6 km/h (5 Bft)
04.01.2012 12:41 8,8 C 69 % 0,0 l/m 17,3 km/h (3 Bft) W-NW 283 30,6 km/h (5 Bft)
04.01.2012 12:42 8,8 C 69 % 0,0 l/m 15,7 km/h (3 Bft) W 262 22,5 km/h (4 Bft)
04.01.2012 12:43 8,8 C 69 % 0,0 l/m 23,9 km/h (4 Bft) NW 321 35,4 km/h (5 Bft)
04.01.2012 12:44 8,7 C 69 % 0,0 l/m 10,6 km/h (2 Bft) W-NW 285 19,3 km/h (3 Bft)
04.01.2012 12:45 8,7 C 69 % 0,0 l/m 20,2 km/h (4 Bft) W-NW 300 25,7 km/h (4 Bft)
04.01.2012 12:46 8,7 C 69 % 0,0 l/m 15,1 km/h (3 Bft) W 274 24,1 km/h (4 Bft)
04.01.2012 12:47 8,7 C 69 % 0,0 l/m 18,4 km/h (3 Bft) NW 304 27,4 km/h (4 Bft)
04.01.2012 12:48 8,7 C 69 % 0,0 l/m 17,8 km/h (3 Bft) W 276 25,7 km/h (4 Bft)
04.01.2012 12:49 8,7 C 69 % 0,0 l/m 14,4 km/h (3 Bft) N-NW 328 27,4 km/h (4 Bft)
04.01.2012 12:50 8,8 C 69 % 0,0 l/m 20,9 km/h (4 Bft) W-NW 293 35,4 km/h (5 Bft)
04.01.2012 12:51 8,7 C 69 % 0,0 l/m 16,8 km/h (3 Bft) W-NW 301 29,0 km/h (5 Bft)
04.01.2012 12:52 8,7 C 70 % 0,0 l/m 12,1 km/h (2 Bft) N-NW 333 19,3 km/h (3 Bft)
04.01.2012 12:53 8,7 C 70 % 0,0 l/m 12,8 km/h (3 Bft) W-NW 302 29,0 km/h (5 Bft)
04.01.2012 12:54 8,7 C 70 % 0,0 l/m 19,4 km/h (3 Bft) N-NO 12 33,8 km/h (5 Bft)
04.01.2012 12:55 8,7 C 70 % 0,0 l/m 15,1 km/h (3 Bft) NW 315 30,6 km/h (5 Bft)
04.01.2012 12:56 8,7 C 69 % 0,0 l/m 12,8 km/h (3 Bft) N-NO 15 19,3 km/h (3 Bft)
04.01.2012 12:57 8,7 C 70 % 0,0 l/m 15,0 km/h (3 Bft) W-SW 249 22,5 km/h (4 Bft)
04.01.2012 12:58 8,7 C 69 % 0,0 l/m 21,2 km/h (4 Bft) N-NO 13 32,2 km/h (5 Bft)
04.01.2012 12:59 8,7 C 69 % 0,0 l/m 19,7 km/h (3 Bft) W-NW 290 37,0 km/h (5 Bft)
04.01.2012 13:00 8,7 C 69 % 0,0 l/m 20,9 km/h (4 Bft) W 264 29,0 km/h (5 Bft)
04.01.2012 13:01 8,7 C 69 % 0,0 l/m 19,1 km/h (3 Bft) NW 325 25,7 km/h (4 Bft)
04.01.2012 13:02 8,8 C 69 % 0,0 l/m 18,0 km/h (3 Bft) W-NW 301 30,6 km/h (5 Bft)
04.01.2012 13:03 8,8 C 68 % 0,0 l/m 23,7 km/h (4 Bft) W-SW 253 33,8 km/h (5 Bft)
04.01.2012 13:04 8,8 C 68 % 0,0 l/m 17,8 km/h (3 Bft) W-NW 290 35,4 km/h (5 Bft)
04.01.2012 13:05 8,8 C 68 % 0,0 l/m 19,2 km/h (3 Bft) N-NO 21 35,4 km/h (5 Bft)
04.01.2012 13:06 8,8 C 68 % 0,0 l/m 23,5 km/h (4 Bft) W-NW 291 35,4 km/h (5 Bft)
04.01.2012 13:07 8,8 C 68 % 0,0 l/m 17,6 km/h (3 Bft) NW 321 30,6 km/h (5 Bft)
04.01.2012 13:08 8,8 C 68 % 0,0 l/m 18,1 km/h (3 Bft) N-NW 332 38,6 km/h (5 Bft)
04.01.2012 13:09 8,8 C 68 % 0,0 l/m 18,6 km/h (3 Bft) N 353 29,0 km/h (5 Bft)
04.01.2012 13:10 8,8 C 68 % 0,0 l/m 23,5 km/h (4 Bft) W 266 35,4 km/h (5 Bft)
04.01.2012 13:11 8,8 C 68 % 0,0 l/m 28,7 km/h (4 Bft) W 266 46,7 km/h (6 Bft)
04.01.2012 13:12 8,8 C 68 % 0,0 l/m 21,8 km/h (4 Bft) W 280 35,4 km/h (5 Bft)
04.01.2012 13:13 8,8 C 68 % 0,0 l/m 20,1 km/h (4 Bft) W 263 32,2 km/h (5 Bft)
04.01.2012 13:14 8,7 C 68 % 0,0 l/m 28,0 km/h (4 Bft) W-NW 291 45,1 km/h (6 Bft)
04.01.2012 13:15 8,8 C 68 % 0,0 l/m 26,3 km/h (4 Bft) W 278 38,6 km/h (5 Bft)
04.01.2012 13:16 8,8 C 68 % 0,0 l/m 21,4 km/h (4 Bft) W-SW 248 33,8 km/h (5 Bft)
04.01.2012 13:17 8,8 C 68 % 0,0 l/m 17,1 km/h (3 Bft) NW 312 29,0 km/h (5 Bft)
04.01.2012 13:18 8,7 C 68 % 0,0 l/m 24,8 km/h (4 Bft) N-NW 345 37,0 km/h (5 Bft)
04.01.2012 13:19 8,7 C 68 % 0,0 l/m 19,0 km/h (3 Bft) W-NW 293 29,0 km/h (5 Bft)
04.01.2012 13:20 8,7 C 68 % 0,0 l/m 23,7 km/h (4 Bft) W 276 37,0 km/h (5 Bft)
04.01.2012 13:21 8,7 C 68 % 0,0 l/m 21,7 km/h (4 Bft) W 266 32,2 km/h (5 Bft)
04.01.2012 13:22 8,7 C 68 % 0,0 l/m 22,1 km/h (4 Bft) S 191 35,4 km/h (5 Bft)
04.01.2012 13:23 8,7 C 68 % 0,0 l/m 28,4 km/h (4 Bft) W-SW 242 40,2 km/h (6 Bft)
04.01.2012 13:24 8,7 C 67 % 0,0 l/m 21,9 km/h (4 Bft) W-NW 282 33,8 km/h (5 Bft)
04.01.2012 13:25 8,8 C 67 % 0,0 l/m 25,4 km/h (4 Bft) W 276 37,0 km/h (5 Bft)
04.01.2012 13:26 8,8 C 68 % 0,0 l/m 22,8 km/h (4 Bft) W-NW 287 38,6 km/h (5 Bft)
04.01.2012 13:27 8,8 C 68 % 0,0 l/m 23,7 km/h (4 Bft) N-NW 333 32,2 km/h (5 Bft)
04.01.2012 13:28 8,8 C 68 % 0,0 l/m 19,7 km/h (3 Bft) W-NW 300 30,6 km/h (5 Bft)
04.01.2012 13:29 8,8 C 67 % 0,0 l/m 23,7 km/h (4 Bft) W-NW 293 35,4 km/h (5 Bft)
04.01.2012 13:30 8,7 C 68 % 0,0 l/m 15,0 km/h (3 Bft) W-NW 286 27,4 km/h (4 Bft)
04.01.2012 13:31 8,8 C 67 % 0,0 l/m 28,5 km/h (4 Bft) W-NW 293 45,1 km/h (6 Bft)
04.01.2012 13:32 8,8 C 67 % 0,0 l/m 20,9 km/h (4 Bft) W-NW 286 41,8 km/h (6 Bft)
04.01.2012 13:33 8,8 C 67 % 0,0 l/m 32,6 km/h (5 Bft) W-NW 288 41,8 km/h (6 Bft)
04.01.2012 13:34 8,8 C 67 % 0,0 l/m 17,3 km/h (3 Bft) W 274 32,2 km/h (5 Bft)
04.01.2012 13:35 8,8 C 68 % 0,0 l/m 17,0 km/h (3 Bft) W-NW 297 30,6 km/h (5 Bft)
04.01.2012 13:36 8,8 C 68 % 0,0 l/m 20,0 km/h (4 Bft) W-NW 300 38,6 km/h (5 Bft)
04.01.2012 13:37 8,7 C 68 % 0,0 l/m 21,7 km/h (4 Bft) W-NW 288 29,0 km/h (5 Bft)
04.01.2012 13:38 8,7 C 68 % 0,0 l/m 20,6 km/h (4 Bft) NW 310 35,4 km/h (5 Bft)
04.01.2012 13:39 8,7 C 67 % 0,0 l/m 23,9 km/h (4 Bft) W-NW 285 38,6 km/h (5 Bft)
04.01.2012 13:40 8,7 C 67 % 0,0 l/m 16,4 km/h (3 Bft) W-NW 302 24,1 km/h (4 Bft)
04.01.2012 13:41 8,7 C 67 % 0,0 l/m 22,5 km/h (4 Bft) W-NW 290 35,4 km/h (5 Bft)
04.01.2012 13:42 8,7 C 67 % 0,0 l/m 22,3 km/h (4 Bft) NW 319 30,6 km/h (5 Bft)
04.01.2012 13:43 8,8 C 67 % 0,0 l/m 19,9 km/h (4 Bft) W-NW 293 30,6 km/h (5 Bft)
04.01.2012 13:44 8,8 C 67 % 0,0 l/m 15,4 km/h (3 Bft) W 262 29,0 km/h (5 Bft)
04.01.2012 13:45 8,8 C 67 % 0,0 l/m 13,4 km/h (3 Bft) W 264 24,1 km/h (4 Bft)
04.01.2012 13:46 8,7 C 67 % 0,0 l/m 15,9 km/h (3 Bft) SO 145 25,7 km/h (4 Bft)
04.01.2012 13:47 8,8 C 67 % 0,0 l/m 13,6 km/h (3 Bft) SO 124 29,0 km/h (5 Bft)
04.01.2012 13:48 8,7 C 67 % 0,0 l/m 22,3 km/h (4 Bft) W-NW 300 35,4 km/h (5 Bft)
04.01.2012 13:49 8,8 C 67 % 0,0 l/m 19,6 km/h (3 Bft) W 276 29,0 km/h (5 Bft)
04.01.2012 13:50 8,8 C 67 % 0,0 l/m 13,7 km/h (3 Bft) W-NW 302 27,4 km/h (4 Bft)
04.01.2012 13:51 8,7 C 67 % 0,0 l/m 16,1 km/h (3 Bft) NW 305 35,4 km/h (5 Bft)
04.01.2012 13:52 8,7 C 67 % 0,0 l/m 16,0 km/h (3 Bft) N-NW 329 27,4 km/h (4 Bft)
04.01.2012 13:53 8,7 C 67 % 0,0 l/m 20,2 km/h (4 Bft) SW 224 27,4 km/h (4 Bft)
04.01.2012 13:54 8,7 C 67 % 0,0 l/m 22,7 km/h (4 Bft) W-NW 287 45,1 km/h (6 Bft)
04.01.2012 13:55 8,8 C 66 % 0,0 l/m 30,5 km/h (5 Bft) W-SW 250 43,5 km/h (6 Bft)
04.01.2012 13:56 8,8 C 66 % 0,0 l/m 27,2 km/h (4 Bft) W 280 45,1 km/h (6 Bft)
04.01.2012 13:57 8,8 C 66 % 0,0 l/m 23,3 km/h (4 Bft) W-NW 297 37,0 km/h (5 Bft)
04.01.2012 13:58 8,8 C 65 % 0,0 l/m 18,1 km/h (3 Bft) W-SW 249 27,4 km/h (4 Bft)
04.01.2012 13:59 8,8 C 66 % 0,0 l/m 17,6 km/h (3 Bft) NW 325 30,6 km/h (5 Bft)
04.01.2012 14:00 8,8 C 66 % 0,0 l/m 14,9 km/h (3 Bft) SO 134 24,1 km/h (4 Bft)
04.01.2012 14:01 8,8 C 66 % 0,0 l/m 16,1 km/h (3 Bft) W-SW 255 25,7 km/h (4 Bft)
04.01.2012 14:02 8,8 C 66 % 0,0 l/m 21,6 km/h (4 Bft) W 278 35,4 km/h (5 Bft)
04.01.2012 14:03 8,8 C 66 % 0,0 l/m 23,6 km/h (4 Bft) O-NO 63 32,2 km/h (5 Bft)
04.01.2012 14:04 8,8 C 66 % 0,0 l/m 20,6 km/h (4 Bft) W-SW 250 40,2 km/h (6 Bft)
04.01.2012 14:05 8,8 C 65 % 0,0 l/m 17,3 km/h (3 Bft) N-NO 18 33,8 km/h (5 Bft)
04.01.2012 14:06 8,8 C 65 % 0,0 l/m 17,4 km/h (3 Bft) W 263 24,1 km/h (4 Bft)
04.01.2012 14:07 8,8 C 66 % 0,0 l/m 16,9 km/h (3 Bft) N 349 25,7 km/h (4 Bft)
04.01.2012 14:08 8,7 C 66 % 0,0 l/m 17,0 km/h (3 Bft) W 259 27,4 km/h (4 Bft)
04.01.2012 14:09 8,7 C 66 % 0,0 l/m 14,4 km/h (3 Bft) W-NW 285 32,2 km/h (5 Bft)
04.01.2012 14:10 8,7 C 65 % 0,0 l/m 20,8 km/h (4 Bft) W-NW 285 38,6 km/h (5 Bft)
04.01.2012 14:11 8,7 C 65 % 0,0 l/m 15,5 km/h (3 Bft) SW 229 35,4 km/h (5 Bft)
04.01.2012 14:12 8,7 C 65 % 0,0 l/m 8,6 km/h (2 Bft) S 191 16,1 km/h (3 Bft)
04.01.2012 14:13 8,7 C 65 % 0,0 l/m 24,7 km/h (4 Bft) W-SW 249 40,2 km/h (6 Bft)
04.01.2012 14:14 8,7 C 65 % 0,0 l/m 21,5 km/h (4 Bft) NW 312 33,8 km/h (5 Bft)
04.01.2012 14:15 8,7 C 65 % 0,0 l/m 14,9 km/h (3 Bft) N-NO 16 20,9 km/h (4 Bft)
04.01.2012 14:16 8,7 C 65 % 0,0 l/m 17,1 km/h (3 Bft) W-NW 299 27,4 km/h (4 Bft)
04.01.2012 14:17 8,7 C 65 % 0,0 l/m 23,8 km/h (4 Bft) W-NW 300 41,8 km/h (6 Bft)
04.01.2012 14:18 8,8 C 65 % 0,0 l/m 24,4 km/h (4 Bft) W-SW 245 38,6 km/h (5 Bft)
04.01.2012 14:19 8,7 C 65 % 0,0 l/m 19,5 km/h (3 Bft) W 274 29,0 km/h (5 Bft)
04.01.2012 14:20 8,7 C 64 % 0,0 l/m 19,0 km/h (3 Bft) W-NW 286 32,2 km/h (5 Bft)
04.01.2012 14:21 8,7 C 64 % 0,0 l/m 21,0 km/h (4 Bft) N-NW 330 30,6 km/h (5 Bft)
04.01.2012 14:22 8,7 C 64 % 0,0 l/m 24,7 km/h (4 Bft) W-NW 293 37,0 km/h (5 Bft)
04.01.2012 14:23 8,8 C 64 % 0,0 l/m 20,4 km/h (4 Bft) W-NW 297 37,0 km/h (5 Bft)
04.01.2012 14:24 8,8 C 64 % 0,0 l/m 16,7 km/h (3 Bft) W-NW 290 40,2 km/h (6 Bft)
04.01.2012 14:25 8,8 C 64 % 0,0 l/m 25,5 km/h (4 Bft) W-NW 285 43,5 km/h (6 Bft)
04.01.2012 14:26 8,8 C 64 % 0,0 l/m 23,6 km/h (4 Bft) NW 304 40,2 km/h (6 Bft)
04.01.2012 14:27 8,8 C 64 % 0,0 l/m 18,1 km/h (3 Bft) W 269 29,0 km/h (5 Bft)
04.01.2012 14:28 8,8 C 64 % 0,0 l/m 16,1 km/h (3 Bft) W-SW 252 32,2 km/h (5 Bft)
04.01.2012 14:29 8,7 C 64 % 0,0 l/m 18,5 km/h (3 Bft) W 260 29,0 km/h (5 Bft)
04.01.2012 14:30 8,7 C 64 % 0,0 l/m 30,7 km/h (5 Bft) O-SO 108 41,8 km/h (6 Bft)
04.01.2012 14:31 8,7 C 64 % 0,0 l/m 22,8 km/h (4 Bft) NW 313 43,5 km/h (6 Bft)
04.01.2012 14:32 8,7 C 64 % 0,0 l/m 29,2 km/h (5 Bft) SO 134 48,3 km/h (6 Bft)
04.01.2012 14:33 8,7 C 64 % 0,0 l/m 28,1 km/h (4 Bft) NW 305 51,5 km/h (7 Bft)
04.01.2012 14:34 8,7 C 65 % 0,0 l/m 28,8 km/h (4 Bft) W-NW 295 56,3 km/h (7 Bft)
04.01.2012 14:35 8,7 C 65 % 0,0 l/m 30,2 km/h (5 Bft) W-NW 298 59,5 km/h (7 Bft)
04.01.2012 14:36 8,7 C 65 % 0,0 l/m 26,2 km/h (4 Bft) W-NW 293 40,2 km/h (6 Bft)
04.01.2012 14:37 8,6 C 66 % 0,0 l/m 22,8 km/h (4 Bft) NW 326 46,7 km/h (6 Bft)
04.01.2012 14:38 8,6 C 66 % 0,0 l/m 24,2 km/h (4 Bft) W-NW 284 38,6 km/h (5 Bft)
04.01.2012 14:39 8,5 C 65 % 0,0 l/m 21,2 km/h (4 Bft) W-NW 297 33,8 km/h (5 Bft)
04.01.2012 14:40 8,4 C 65 % 0,0 l/m 29,0 km/h (5 Bft) W-NW 287 43,5 km/h (6 Bft)
04.01.2012 14:41 8,3 C 66 % 0,0 l/m 25,7 km/h (4 Bft) W-NW 293 35,4 km/h (5 Bft)
04.01.2012 14:42 8,3 C 67 % 0,0 l/m 27,9 km/h (4 Bft) W-NW 285 48,3 km/h (6 Bft)
04.01.2012 14:43 8,2 C 67 % 0,0 l/m 20,2 km/h (4 Bft) W-NW 286 38,6 km/h (5 Bft)
04.01.2012 14:44 8,1 C 67 % 0,0 l/m 18,6 km/h (3 Bft) W 276 30,6 km/h (5 Bft)
04.01.2012 14:45 8,0 C 68 % 0,0 l/m 29,6 km/h (5 Bft) W-NW 284 43,5 km/h (6 Bft)
04.01.2012 14:46 7,9 C 68 % 0,0 l/m 18,0 km/h (3 Bft) SW 229 33,8 km/h (5 Bft)
04.01.2012 14:47 7,9 C 68 % 0,0 l/m 14,6 km/h (3 Bft) W-SW 245 20,9 km/h (4 Bft)
04.01.2012 14:48 7,8 C 69 % 0,0 l/m 20,5 km/h (4 Bft) W-NW 286 33,8 km/h (5 Bft)
04.01.2012 14:49 7,8 C 69 % 0,0 l/m 17,3 km/h (3 Bft) SO 124 25,7 km/h (4 Bft)
04.01.2012 14:50 7,7 C 70 % 0,0 l/m 12,6 km/h (3 Bft) N-NW 336 20,9 km/h (4 Bft)
04.01.2012 14:51 7,7 C 70 % 0,0 l/m 15,3 km/h (3 Bft) S-SO 157 32,2 km/h (5 Bft)
04.01.2012 14:52 7,7 C 70 % 0,0 l/m 11,5 km/h (2 Bft) W-SW 245 14,5 km/h (3 Bft)
04.01.2012 14:53 7,6 C 70 % 0,0 l/m 23,3 km/h (4 Bft) W-NW 293 40,2 km/h (6 Bft)
04.01.2012 14:54 7,6 C 69 % 0,0 l/m 17,9 km/h (3 Bft) W-NW 284 29,0 km/h (5 Bft)
04.01.2012 14:55 7,6 C 68 % 0,0 l/m 19,8 km/h (3 Bft) W 273 30,6 km/h (5 Bft)
04.01.2012 14:56 7,6 C 68 % 0,0 l/m 27,7 km/h (4 Bft) W-NW 297 40,2 km/h (6 Bft)
04.01.2012 14:57 7,6 C 66 % 0,0 l/m 36,2 km/h (5 Bft) W-NW 301 46,7 km/h (6 Bft)
04.01.2012 14:58 7,5 C 64 % 0,0 l/m 16,9 km/h (3 Bft) N-NW 346 33,8 km/h (5 Bft)
04.01.2012 14:59 7,5 C 64 % 0,0 l/m 23,7 km/h (4 Bft) N-NW 329 35,4 km/h (5 Bft)
04.01.2012 15:00 7,5 C 64 % 0,0 l/m 20,3 km/h (4 Bft) N 360 35,4 km/h (5 Bft)
04.01.2012 15:01 7,5 C 63 % 0,0 l/m 26,1 km/h (4 Bft) N-NW 347 49,9 km/h (6 Bft)
04.01.2012 15:02 7,4 C 63 % 0,0 l/m 24,4 km/h (4 Bft) W-NW 290 41,8 km/h (6 Bft)
04.01.2012 15:03 7,4 C 63 % 0,0 l/m 26,1 km/h (4 Bft) W-NW 284 41,8 km/h (6 Bft)
04.01.2012 15:04 7,4 C 63 % 0,0 l/m 25,1 km/h (4 Bft) W 278 40,2 km/h (6 Bft)
04.01.2012 15:05 7,3 C 62 % 0,0 l/m 18,9 km/h (3 Bft) NW 309 33,8 km/h (5 Bft)
04.01.2012 15:06 7,3 C 62 % 0,0 l/m 26,0 km/h (4 Bft) W-SW 257 45,1 km/h (6 Bft)
04.01.2012 15:07 7,3 C 61 % 0,0 l/m 25,9 km/h (4 Bft) O-SO 118 43,5 km/h (6 Bft)
04.01.2012 15:08 7,3 C 61 % 0,0 l/m 26,4 km/h (4 Bft) W-NW 298 40,2 km/h (6 Bft)
04.01.2012 15:09 7,3 C 61 % 0,0 l/m 30,6 km/h (5 Bft) W 281 43,5 km/h (6 Bft)
04.01.2012 15:10 7,3 C 61 % 0,0 l/m 23,4 km/h (4 Bft) S-SO 159 33,8 km/h (5 Bft)
04.01.2012 15:11 7,3 C 61 % 0,0 l/m 27,2 km/h (4 Bft) W 277 49,9 km/h (6 Bft)
04.01.2012 15:12 7,3 C 60 % 0,0 l/m 25,8 km/h (4 Bft) W-NW 284 40,2 km/h (6 Bft)
04.01.2012 15:13 7,3 C 61 % 0,0 l/m 19,7 km/h (3 Bft) W-SW 248 33,8 km/h (5 Bft)
04.01.2012 15:14 7,3 C 62 % 0,0 l/m 14,8 km/h (3 Bft) SW 236 25,7 km/h (4 Bft)
04.01.2012 15:15 7,3 C 62 % 0,0 l/m 24,3 km/h (4 Bft) W 277 43,5 km/h (6 Bft)
04.01.2012 15:16 7,3 C 60 % 0,0 l/m 16,5 km/h (3 Bft) W-SW 240 29,0 km/h (5 Bft)
04.01.2012 15:17 7,3 C 61 % 0,0 l/m 22,4 km/h (4 Bft) N-NO 26 43,5 km/h (6 Bft)
04.01.2012 15:18 7,3 C 61 % 0,0 l/m 20,5 km/h (4 Bft) W-NW 300 35,4 km/h (5 Bft)
04.01.2012 15:19 7,3 C 60 % 0,0 l/m 20,5 km/h (4 Bft) W-NW 283 40,2 km/h (6 Bft)
04.01.2012 15:20 7,2 C 60 % 0,0 l/m 22,4 km/h (4 Bft) W-SW 246 38,6 km/h (5 Bft)
04.01.2012 15:21 7,3 C 59 % 0,0 l/m 21,2 km/h (4 Bft) SW 232 43,5 km/h (6 Bft)
04.01.2012 15:22 7,3 C 60 % 0,0 l/m 26,5 km/h (4 Bft) W 271 43,5 km/h (6 Bft)
04.01.2012 15:23 7,3 C 60 % 0,0 l/m 23,3 km/h (4 Bft) W 274 41,8 km/h (6 Bft)
04.01.2012 15:24 7,3 C 60 % 0,0 l/m 14,7 km/h (3 Bft) W-NW 291 35,4 km/h (5 Bft)
04.01.2012 15:25 7,3 C 60 % 0,0 l/m 22,5 km/h (4 Bft) W 280 46,7 km/h (6 Bft)
04.01.2012 15:26 7,3 C 60 % 0,0 l/m 13,3 km/h (3 Bft) NW 325 27,4 km/h (4 Bft)
04.01.2012 15:27 7,2 C 60 % 0,0 l/m 12,4 km/h (3 Bft) W-SW 250 22,5 km/h (4 Bft)
04.01.2012 15:28 7,2 C 60 % 0,0 l/m 16,9 km/h (3 Bft) W 273 29,0 km/h (5 Bft)
04.01.2012 15:29 7,2 C 59 % 0,0 l/m 17,2 km/h (3 Bft) W-NW 283 30,6 km/h (5 Bft)
04.01.2012 15:30 7,2 C 59 % 0,0 l/m 22,9 km/h (4 Bft) W-NW 291 33,8 km/h (5 Bft)
04.01.2012 15:31 7,2 C 59 % 0,0 l/m 20,3 km/h (4 Bft) W 270 29,0 km/h (5 Bft)
04.01.2012 15:32 7,2 C 59 % 0,0 l/m 21,9 km/h (4 Bft) NW 309 35,4 km/h (5 Bft)
04.01.2012 15:33 7,3 C 58 % 0,0 l/m 15,7 km/h (3 Bft) N 9 24,1 km/h (4 Bft)
04.01.2012 15:34 7,3 C 58 % 0,0 l/m 19,2 km/h (3 Bft) NW 314 27,4 km/h (4 Bft)
04.01.2012 15:35 7,3 C 58 % 0,0 l/m 18,5 km/h (3 Bft) W-NW 297 35,4 km/h (5 Bft)
04.01.2012 15:36 7,3 C 58 % 0,0 l/m 12,9 km/h (3 Bft) W 276 22,5 km/h (4 Bft)
04.01.2012 15:37 7,3 C 59 % 0,0 l/m 15,7 km/h (3 Bft) W 273 24,1 km/h (4 Bft)
04.01.2012 15:38 7,3 C 59 % 0,0 l/m 13,8 km/h (3 Bft) NO 51 29,0 km/h (5 Bft)
04.01.2012 15:39 7,3 C 58 % 0,0 l/m 15,3 km/h (3 Bft) N-NO 23 32,2 km/h (5 Bft)
04.01.2012 15:40 7,3 C 59 % 0,0 l/m 12,7 km/h (3 Bft) W-NW 296 22,5 km/h (4 Bft)
04.01.2012 15:41 7,3 C 59 % 0,0 l/m 15,0 km/h (3 Bft) N-NW 328 29,0 km/h (5 Bft)
04.01.2012 15:42 7,3 C 58 % 0,0 l/m 21,6 km/h (4 Bft) W-NW 291 35,4 km/h (5 Bft)
04.01.2012 15:43 7,3 C 58 % 0,0 l/m 15,5 km/h (3 Bft) W 262 27,4 km/h (4 Bft)
04.01.2012 15:44 7,3 C 59 % 0,0 l/m 17,1 km/h (3 Bft) W-NW 296 27,4 km/h (4 Bft)
04.01.2012 15:45 7,3 C 59 % 0,0 l/m 9,7 km/h (2 Bft) W-SW 240 19,3 km/h (3 Bft)
04.01.2012 15:46 7,3 C 58 % 0,0 l/m 17,5 km/h (3 Bft) SW 235 33,8 km/h (5 Bft)
04.01.2012 15:47 7,3 C 59 % 0,0 l/m 30,2 km/h (5 Bft) W 267 46,7 km/h (6 Bft)
04.01.2012 15:48 7,3 C 58 % 0,0 l/m 25,3 km/h (4 Bft) W 263 40,2 km/h (6 Bft)
04.01.2012 15:49 7,3 C 59 % 0,0 l/m 22,9 km/h (4 Bft) SO 136 43,5 km/h (6 Bft)
04.01.2012 15:50 7,3 C 59 % 0,0 l/m 19,0 km/h (3 Bft) W-NW 301 32,2 km/h (5 Bft)
04.01.2012 15:51 7,2 C 60 % 0,0 l/m 20,5 km/h (4 Bft) W-SW 256 30,6 km/h (5 Bft)
04.01.2012 15:52 7,2 C 60 % 0,0 l/m 18,0 km/h (3 Bft) W-NW 283 33,8 km/h (5 Bft)
04.01.2012 15:53 7,2 C 60 % 0,0 l/m 17,2 km/h (3 Bft) W-SW 238 29,0 km/h (5 Bft)
04.01.2012 15:54 7,2 C 60 % 0,0 l/m 23,8 km/h (4 Bft) S-SW 198 37,0 km/h (5 Bft)
04.01.2012 15:55 7,2 C 60 % 0,0 l/m 12,2 km/h (2 Bft) W-SW 245 25,7 km/h (4 Bft)
04.01.2012 15:56 7,2 C 60 % 0,0 l/m 26,5 km/h (4 Bft) O-SO 110 37,0 km/h (5 Bft)
04.01.2012 15:57 7,2 C 60 % 0,0 l/m 27,4 km/h (4 Bft) NW 312 53,1 km/h (7 Bft)
04.01.2012 15:58 7,2 C 60 % 0,0 l/m 28,0 km/h (4 Bft) W-SW 239 41,8 km/h (6 Bft)
04.01.2012 15:59 7,2 C 61 % 0,0 l/m 28,9 km/h (5 Bft) W-SW 249 37,0 km/h (5 Bft)
04.01.2012 16:00 7,1 C 61 % 0,0 l/m 23,9 km/h (4 Bft) W-NW 287 40,2 km/h (6 Bft)
04.01.2012 16:01 7,1 C 62 % 0,0 l/m 17,4 km/h (3 Bft) W 273 29,0 km/h (5 Bft)
04.01.2012 16:02 7,1 C 62 % 0,0 l/m 18,7 km/h (3 Bft) NW 304 30,6 km/h (5 Bft)
04.01.2012 16:03 7,1 C 62 % 0,0 l/m 15,0 km/h (3 Bft) O-NO 64 33,8 km/h (5 Bft)
04.01.2012 16:04 7,0 C 62 % 0,0 l/m 20,4 km/h (4 Bft) W-NW 293 38,6 km/h (5 Bft)
04.01.2012 16:05 6,9 C 62 % 0,0 l/m 21,3 km/h (4 Bft) W 280 32,2 km/h (5 Bft)
04.01.2012 16:06 6,9 C 62 % 0,0 l/m 19,4 km/h (3 Bft) W-NW 295 40,2 km/h (6 Bft)
04.01.2012 16:07 6,9 C 62 % 0,0 l/m 23,2 km/h (4 Bft) W-NW 283 46,7 km/h (6 Bft)
04.01.2012 16:08 7,0 C 62 % 0,0 l/m 27,5 km/h (4 Bft) NW 305 48,3 km/h (6 Bft)
04.01.2012 16:09 7,0 C 62 % 0,0 l/m 29,2 km/h (5 Bft) W-NW 287 49,9 km/h (6 Bft)
04.01.2012 16:10 7,1 C 62 % 0,0 l/m 17,4 km/h (3 Bft) NW 315 25,7 km/h (4 Bft)
04.01.2012 16:11 7,0 C 63 % 0,0 l/m 22,1 km/h (4 Bft) W 269 37,0 km/h (5 Bft)
04.01.2012 16:12 7,0 C 63 % 0,0 l/m 19,9 km/h (4 Bft) S-SW 200 41,8 km/h (6 Bft)
04.01.2012 16:13 7,0 C 62 % 0,0 l/m 22,9 km/h (4 Bft) NW 307 35,4 km/h (5 Bft)
04.01.2012 16:14 7,1 C 62 % 0,0 l/m 32,1 km/h (5 Bft) N-NO 18 45,1 km/h (6 Bft)
04.01.2012 16:15 7,1 C 62 % 0,0 l/m 22,9 km/h (4 Bft) SW 225 38,6 km/h (5 Bft)
04.01.2012 16:16 7,1 C 62 % 0,0 l/m 17,5 km/h (3 Bft) S-SW 201 35,4 km/h (5 Bft)
04.01.2012 16:17 7,1 C 62 % 0,0 l/m 24,1 km/h (4 Bft) NW 308 35,4 km/h (5 Bft)
04.01.2012 16:18 7,1 C 63 % 0,0 l/m 20,9 km/h (4 Bft) N 356 35,4 km/h (5 Bft)
04.01.2012 16:19 7,0 C 63 % 0,0 l/m 14,6 km/h (3 Bft) N-NW 338 27,4 km/h (4 Bft)
04.01.2012 16:20 6,9 C 63 % 0,0 l/m 26,5 km/h (4 Bft) W 266 37,0 km/h (5 Bft)
04.01.2012 16:21 6,9 C 63 % 0,0 l/m 28,8 km/h (4 Bft) W-NW 286 40,2 km/h (6 Bft)
04.01.2012 16:22 6,9 C 63 % 0,0 l/m 25,3 km/h (4 Bft) W 281 51,5 km/h (7 Bft)
04.01.2012 16:23 6,9 C 62 % 0,0 l/m 27,7 km/h (4 Bft) W-SW 257 41,8 km/h (6 Bft)
04.01.2012 16:24 7,0 C 62 % 0,0 l/m 27,9 km/h (4 Bft) O-NO 65 45,1 km/h (6 Bft)
04.01.2012 16:25 7,0 C 62 % 0,0 l/m 28,9 km/h (5 Bft) W-NW 293 48,3 km/h (6 Bft)
04.01.2012 16:26 7,0 C 62 % 0,0 l/m 12,3 km/h (3 Bft) W 267 20,9 km/h (4 Bft)
04.01.2012 16:27 7,0 C 62 % 0,0 l/m 19,6 km/h (3 Bft) NW 305 41,8 km/h (6 Bft)
04.01.2012 16:28 7,0 C 62 % 0,0 l/m 25,5 km/h (4 Bft) W 269 37,0 km/h (5 Bft)
04.01.2012 16:29 7,0 C 62 % 0,0 l/m 20,2 km/h (4 Bft) S 183 38,6 km/h (5 Bft)
04.01.2012 16:30 7,0 C 62 % 0,0 l/m 27,6 km/h (4 Bft) W-NW 300 56,3 km/h (7 Bft)
04.01.2012 16:31 7,0 C 62 % 0,0 l/m 21,5 km/h (4 Bft) NW 307 32,2 km/h (5 Bft)
04.01.2012 16:32 7,0 C 62 % 0,0 l/m 23,7 km/h (4 Bft) SW 218 53,1 km/h (7 Bft)
04.01.2012 16:33 7,0 C 62 % 0,0 l/m 24,7 km/h (4 Bft) NW 309 37,0 km/h (5 Bft)
04.01.2012 16:34 6,9 C 63 % 0,0 l/m 22,1 km/h (4 Bft) W-NW 297 33,8 km/h (5 Bft)
04.01.2012 16:35 6,9 C 63 % 0,0 l/m 13,7 km/h (3 Bft) W-NW 288 25,7 km/h (4 Bft)
04.01.2012 16:36 6,9 C 63 % 0,0 l/m 19,0 km/h (3 Bft) W-SW 252 30,6 km/h (5 Bft)
04.01.2012 16:37 6,9 C 63 % 0,0 l/m 18,9 km/h (3 Bft) N-NW 333 32,2 km/h (5 Bft)
04.01.2012 16:38 6,9 C 63 % 0,0 l/m 24,6 km/h (4 Bft) W-SW 257 40,2 km/h (6 Bft)
04.01.2012 16:39 6,8 C 63 % 0,0 l/m 23,8 km/h (4 Bft) W-NW 290 38,6 km/h (5 Bft)
04.01.2012 16:40 6,8 C 63 % 0,0 l/m 17,1 km/h (3 Bft) N-NO 12 29,0 km/h (5 Bft)
04.01.2012 16:41 6,8 C 63 % 0,0 l/m 20,8 km/h (4 Bft) SW 218 38,6 km/h (5 Bft)
04.01.2012 16:42 6,8 C 63 % 0,0 l/m 15,0 km/h (3 Bft) W 269 32,2 km/h (5 Bft)
04.01.2012 16:43 6,8 C 63 % 0,0 l/m 22,8 km/h (4 Bft) W-SW 250 37,0 km/h (5 Bft)
04.01.2012 16:44 6,8 C 63 % 0,0 l/m 17,8 km/h (3 Bft) W-NW 294 27,4 km/h (4 Bft)
04.01.2012 16:45 6,8 C 64 % 0,0 l/m 21,6 km/h (4 Bft) W-NW 293 32,2 km/h (5 Bft)
04.01.2012 16:46 6,8 C 63 % 0,0 l/m 19,6 km/h (3 Bft) W-NW 295 40,2 km/h (6 Bft)
04.01.2012 16:47 6,8 C 63 % 0,0 l/m 25,2 km/h (4 Bft) W-NW 297 37,0 km/h (5 Bft)
04.01.2012 16:48 6,8 C 63 % 0,0 l/m 21,9 km/h (4 Bft) W-NW 293 33,8 km/h (5 Bft)
04.01.2012 16:49 6,8 C 63 % 0,0 l/m 20,0 km/h (4 Bft) W-SW 248 35,4 km/h (5 Bft)
04.01.2012 16:50 6,8 C 63 % 0,0 l/m 29,9 km/h (5 Bft) NW 305 45,1 km/h (6 Bft)
04.01.2012 16:51 6,8 C 62 % 0,0 l/m 27,5 km/h (4 Bft) N 1 43,5 km/h (6 Bft)
04.01.2012 16:52 6,8 C 63 % 0,0 l/m 18,8 km/h (3 Bft) W-SW 257 35,4 km/h (5 Bft)
04.01.2012 16:53 6,8 C 62 % 0,0 l/m 19,0 km/h (3 Bft) SO 132 33,8 km/h (5 Bft)
04.01.2012 16:54 6,9 C 62 % 0,0 l/m 29,7 km/h (5 Bft) W 261 49,9 km/h (6 Bft)
04.01.2012 16:55 6,9 C 62 % 0,0 l/m 31,0 km/h (5 Bft) W-NW 289 45,1 km/h (6 Bft)
04.01.2012 16:56 6,9 C 62 % 0,0 l/m 21,3 km/h (4 Bft) W-NW 288 33,8 km/h (5 Bft)
04.01.2012 16:57 6,9 C 62 % 0,0 l/m 19,2 km/h (3 Bft) W-SW 249 37,0 km/h (5 Bft)
04.01.2012 16:58 6,9 C 62 % 0,0 l/m 20,0 km/h (4 Bft) W-SW 256 32,2 km/h (5 Bft)
04.01.2012 16:59 6,9 C 62 % 0,0 l/m 15,8 km/h (3 Bft) N-NO 29 27,4 km/h (4 Bft)
04.01.2012 17:00 6,9 C 63 % 0,0 l/m 17,8 km/h (3 Bft) W-NW 297 37,0 km/h (5 Bft)
04.01.2012 17:01 6,9 C 63 % 0,0 l/m 17,4 km/h (3 Bft) W-SW 242 32,2 km/h (5 Bft)
04.01.2012 17:02 6,8 C 63 % 0,0 l/m 12,7 km/h (3 Bft) N-NW 345 29,0 km/h (5 Bft)
04.01.2012 17:03 6,8 C 63 % 0,0 l/m 13,3 km/h (3 Bft) N-NW 330 30,6 km/h (5 Bft)
04.01.2012 17:04 6,8 C 63 % 0,0 l/m 11,6 km/h (2 Bft) NW 310 29,0 km/h (5 Bft)
04.01.2012 17:05 6,7 C 64 % 0,0 l/m 15,2 km/h (3 Bft) W-NW 302 32,2 km/h (5 Bft)
04.01.2012 17:06 6,7 C 63 % 0,0 l/m 16,2 km/h (3 Bft) W-SW 237 27,4 km/h (4 Bft)
04.01.2012 17:07 6,7 C 63 % 0,0 l/m 12,7 km/h (3 Bft) NW 308 22,5 km/h (4 Bft)
04.01.2012 17:08 6,7 C 64 % 0,0 l/m 14,2 km/h (3 Bft) SW 236 27,4 km/h (4 Bft)
04.01.2012 17:09 6,7 C 63 % 0,0 l/m 21,9 km/h (4 Bft) N-NO 30 40,2 km/h (6 Bft)
04.01.2012 17:10 6,7 C 63 % 0,0 l/m 15,4 km/h (3 Bft) N-NW 345 22,5 km/h (4 Bft)
04.01.2012 17:11 6,7 C 64 % 0,0 l/m 20,8 km/h (4 Bft) W 267 29,0 km/h (5 Bft)
04.01.2012 17:12 6,7 C 64 % 0,0 l/m 19,1 km/h (3 Bft) W-NW 284 35,4 km/h (5 Bft)
04.01.2012 17:13 6,7 C 63 % 0,0 l/m 14,2 km/h (3 Bft) NO 53 24,1 km/h (4 Bft)
04.01.2012 17:14 6,7 C 63 % 0,0 l/m 17,9 km/h (3 Bft) NW 308 29,0 km/h (5 Bft)
04.01.2012 17:15 6,7 C 63 % 0,0 l/m 18,2 km/h (3 Bft) W 266 27,4 km/h (4 Bft)
04.01.2012 17:16 6,7 C 63 % 0,0 l/m 15,0 km/h (3 Bft) NW 307 29,0 km/h (5 Bft)
04.01.2012 17:17 6,7 C 64 % 0,0 l/m 12,7 km/h (3 Bft) W 281 27,4 km/h (4 Bft)
04.01.2012 17:18 6,7 C 63 % 0,0 l/m 22,7 km/h (4 Bft) W-NW 296 35,4 km/h (5 Bft)
04.01.2012 17:19 6,7 C 63 % 0,0 l/m 17,0 km/h (3 Bft) W 264 29,0 km/h (5 Bft)
04.01.2012 17:20 6,7 C 63 % 0,0 l/m 12,9 km/h (3 Bft) N 357 24,1 km/h (4 Bft)
04.01.2012 17:21 6,7 C 63 % 0,0 l/m 12,1 km/h (2 Bft) W-SW 256 22,5 km/h (4 Bft)
04.01.2012 17:22 6,7 C 63 % 0,0 l/m 17,5 km/h (3 Bft) W-SW 242 29,0 km/h (5 Bft)
04.01.2012 17:23 6,7 C 63 % 0,0 l/m 15,7 km/h (3 Bft) W-NW 288 32,2 km/h (5 Bft)
04.01.2012 17:24 6,7 C 63 % 0,0 l/m 15,4 km/h (3 Bft) NW 304 25,7 km/h (4 Bft)
04.01.2012 17:25 6,7 C 63 % 0,0 l/m 18,3 km/h (3 Bft) W 265 30,6 km/h (5 Bft)
04.01.2012 17:26 6,7 C 64 % 0,0 l/m 13,0 km/h (3 Bft) W-SW 257 27,4 km/h (4 Bft)
04.01.2012 17:27 6,7 C 63 % 0,0 l/m 19,0 km/h (3 Bft) NW 316 27,4 km/h (4 Bft)
04.01.2012 17:28 6,7 C 63 % 0,0 l/m 13,4 km/h (3 Bft) W 280 20,9 km/h (4 Bft)
04.01.2012 17:29 6,7 C 64 % 0,0 l/m 16,6 km/h (3 Bft) N-NO 29 27,4 km/h (4 Bft)
04.01.2012 17:30 6,7 C 63 % 0,0 l/m 16,2 km/h (3 Bft) NW 309 27,4 km/h (4 Bft)
04.01.2012 17:31 6,7 C 63 % 0,0 l/m 19,0 km/h (3 Bft) W-NW 287 32,2 km/h (5 Bft)
04.01.2012 17:32 6,7 C 63 % 0,0 l/m 15,8 km/h (3 Bft) NW 316 25,7 km/h (4 Bft)
04.01.2012 17:33 6,7 C 63 % 0,0 l/m 15,1 km/h (3 Bft) N-NW 337 33,8 km/h (5 Bft)
04.01.2012 17:34 6,7 C 64 % 0,0 l/m 14,0 km/h (3 Bft) W 274 27,4 km/h (4 Bft)
04.01.2012 17:35 6,6 C 64 % 0,0 l/m 16,6 km/h (3 Bft) W-NW 287 24,1 km/h (4 Bft)
04.01.2012 17:36 6,6 C 64 % 0,0 l/m 13,5 km/h (3 Bft) N 352 17,7 km/h (3 Bft)
04.01.2012 17:37 6,6 C 64 % 0,0 l/m 8,0 km/h (2 Bft) NW 304 12,9 km/h (3 Bft)
04.01.2012 17:38 6,6 C 64 % 0,0 l/m 13,9 km/h (3 Bft) W-NW 295 24,1 km/h (4 Bft)
04.01.2012 17:39 6,6 C 65 % 0,0 l/m 11,2 km/h (2 Bft) W-SW 238 20,9 km/h (4 Bft)
04.01.2012 17:40 6,5 C 65 % 0,0 l/m 12,1 km/h (2 Bft) W-NW 291 20,9 km/h (4 Bft)
04.01.2012 17:41 6,5 C 65 % 0,0 l/m 17,4 km/h (3 Bft) W-SW 239 24,1 km/h (4 Bft)
04.01.2012 17:42 6,5 C 65 % 0,0 l/m 13,6 km/h (3 Bft) W 276 20,9 km/h (4 Bft)
04.01.2012 17:43 6,5 C 65 % 0,0 l/m 17,5 km/h (3 Bft) W-NW 288 30,6 km/h (5 Bft)
04.01.2012 17:44 6,5 C 65 % 0,0 l/m 20,3 km/h (4 Bft) W 268 29,0 km/h (5 Bft)
04.01.2012 17:45 6,5 C 65 % 0,0 l/m 11,3 km/h (2 Bft) W 263 20,9 km/h (4 Bft)
04.01.2012 17:46 6,5 C 65 % 0,0 l/m 9,7 km/h (2 Bft) W-SW 250 24,1 km/h (4 Bft)
04.01.2012 17:47 6,5 C 65 % 0,0 l/m 19,6 km/h (3 Bft) SW 233 35,4 km/h (5 Bft)
04.01.2012 17:48 6,5 C 65 % 0,0 l/m 11,0 km/h (2 Bft) W 268 24,1 km/h (4 Bft)
04.01.2012 17:49 6,5 C 65 % 0,0 l/m 12,2 km/h (2 Bft) W-NW 293 20,9 km/h (4 Bft)
04.01.2012 17:50 6,5 C 65 % 0,0 l/m 10,1 km/h (2 Bft) W-NW 283 22,5 km/h (4 Bft)
04.01.2012 17:51 6,4 C 65 % 0,0 l/m 10,2 km/h (2 Bft) W-NW 285 17,7 km/h (3 Bft)
04.01.2012 17:52 6,4 C 65 % 0,0 l/m 16,4 km/h (3 Bft) W-NW 301 32,2 km/h (5 Bft)
04.01.2012 17:53 6,5 C 65 % 0,0 l/m 20,0 km/h (4 Bft) W-NW 288 37,0 km/h (5 Bft)
04.01.2012 17:54 6,5 C 65 % 0,0 l/m 13,6 km/h (3 Bft) W-SW 255 24,1 km/h (4 Bft)
04.01.2012 17:55 6,5 C 65 % 0,0 l/m 15,4 km/h (3 Bft) W 276 24,1 km/h (4 Bft)
04.01.2012 17:56 6,5 C 65 % 0,0 l/m 20,8 km/h (4 Bft) SO 131 32,2 km/h (5 Bft)
04.01.2012 17:57 6,5 C 65 % 0,0 l/m 16,7 km/h (3 Bft) NW 321 35,4 km/h (5 Bft)
04.01.2012 17:58 6,5 C 65 % 0,0 l/m 16,5 km/h (3 Bft) W-NW 295 32,2 km/h (5 Bft)
04.01.2012 17:59 6,5 C 65 % 0,0 l/m 19,0 km/h (3 Bft) W-SW 248 25,7 km/h (4 Bft)
04.01.2012 18:00 6,5 C 65 % 0,0 l/m 16,9 km/h (3 Bft) W-NW 287 27,4 km/h (4 Bft)
04.01.2012 18:01 6,5 C 65 % 0,0 l/m 24,4 km/h (4 Bft) W 278 33,8 km/h (5 Bft)
04.01.2012 18:02 6,5 C 65 % 0,0 l/m 17,6 km/h (3 Bft) O-SO 105 27,4 km/h (4 Bft)
04.01.2012 18:03 6,6 C 65 % 0,0 l/m 23,4 km/h (4 Bft) W-SW 245 35,4 km/h (5 Bft)
04.01.2012 18:04 6,6 C 65 % 0,0 l/m 18,1 km/h (3 Bft) W 260 29,0 km/h (5 Bft)
04.01.2012 18:05 6,6 C 65 % 0,0 l/m 22,9 km/h (4 Bft) W-SW 253 35,4 km/h (5 Bft)
04.01.2012 18:06 6,6 C 65 % 0,0 l/m 23,7 km/h (4 Bft) W 266 41,8 km/h (6 Bft)
04.01.2012 18:07 6,6 C 65 % 0,0 l/m 22,1 km/h (4 Bft) NW 323 41,8 km/h (6 Bft)
04.01.2012 18:08 6,6 C 65 % 0,0 l/m 17,6 km/h (3 Bft) W 281 30,6 km/h (5 Bft)
04.01.2012 18:09 6,6 C 65 % 0,0 l/m 16,6 km/h (3 Bft) S 186 29,0 km/h (5 Bft)
04.01.2012 18:10 6,6 C 65 % 0,0 l/m 19,2 km/h (3 Bft) W 280 33,8 km/h (5 Bft)
04.01.2012 18:11 6,6 C 65 % 0,0 l/m 22,7 km/h (4 Bft) W 276 37,0 km/h (5 Bft)
04.01.2012 18:12 6,6 C 65 % 0,0 l/m 21,4 km/h (4 Bft) W-NW 295 33,8 km/h (5 Bft)
04.01.2012 18:13 6,6 C 65 % 0,0 l/m 15,2 km/h (3 Bft) SW 228 30,6 km/h (5 Bft)
04.01.2012 18:14 6,6 C 65 % 0,0 l/m 24,5 km/h (4 Bft) W 276 41,8 km/h (6 Bft)
04.01.2012 18:15 6,6 C 66 % 0,0 l/m 15,7 km/h (3 Bft) W 263 29,0 km/h (5 Bft)
04.01.2012 18:16 6,6 C 66 % 0,0 l/m 21,7 km/h (4 Bft) W-NW 290 35,4 km/h (5 Bft)
04.01.2012 18:17 6,6 C 66 % 0,0 l/m 21,3 km/h (4 Bft) S-SO 166 33,8 km/h (5 Bft)
04.01.2012 18:18 6,6 C 66 % 0,0 l/m 18,9 km/h (3 Bft) W-SW 255 35,4 km/h (5 Bft)
04.01.2012 18:19 6,6 C 66 % 0,0 l/m 19,5 km/h (3 Bft) W-SW 243 29,0 km/h (5 Bft)
04.01.2012 18:20 6,6 C 66 % 0,0 l/m 22,8 km/h (4 Bft) SO 127 38,6 km/h (5 Bft)
04.01.2012 18:21 6,6 C 66 % 0,0 l/m 18,5 km/h (3 Bft) W-NW 284 30,6 km/h (5 Bft)
04.01.2012 18:22 6,6 C 66 % 0,0 l/m 22,0 km/h (4 Bft) W 264 33,8 km/h (5 Bft)
04.01.2012 18:23 6,6 C 66 % 0,0 l/m 20,6 km/h (4 Bft) S-SW 210 29,0 km/h (5 Bft)
04.01.2012 18:24 6,6 C 66 % 0,0 l/m 24,4 km/h (4 Bft) W-NW 294 37,0 km/h (5 Bft)
04.01.2012 18:25 6,6 C 66 % 0,0 l/m 24,1 km/h (4 Bft) W-NW 284 38,6 km/h (5 Bft)
04.01.2012 18:26 6,6 C 66 % 0,0 l/m 17,2 km/h (3 Bft) W-SW 255 30,6 km/h (5 Bft)
04.01.2012 18:27 6,6 C 66 % 0,0 l/m 20,1 km/h (4 Bft) W-NW 297 32,2 km/h (5 Bft)
04.01.2012 18:28 6,5 C 66 % 0,0 l/m 12,6 km/h (3 Bft) W-SW 252 30,6 km/h (5 Bft)
04.01.2012 18:29 6,5 C 67 % 0,0 l/m 17,1 km/h (3 Bft) W 277 29,0 km/h (5 Bft)
04.01.2012 18:30 6,5 C 67 % 0,0 l/m 18,5 km/h (3 Bft) SW 217 27,4 km/h (4 Bft)
04.01.2012 18:31 6,5 C 67 % 0,0 l/m 16,6 km/h (3 Bft) W 265 30,6 km/h (5 Bft)
04.01.2012 18:32 6,5 C 67 % 0,0 l/m 14,6 km/h (3 Bft) W-SW 242 22,5 km/h (4 Bft)
04.01.2012 18:33 6,4 C 67 % 0,0 l/m 18,3 km/h (3 Bft) W-NW 302 29,0 km/h (5 Bft)
04.01.2012 18:34 6,4 C 67 % 0,0 l/m 16,7 km/h (3 Bft) NW 307 33,8 km/h (5 Bft)
04.01.2012 18:35 6,4 C 67 % 0,0 l/m 15,1 km/h (3 Bft) NW 304 32,2 km/h (5 Bft)
04.01.2012 18:36 6,4 C 67 % 0,0 l/m 22,1 km/h (4 Bft) N-NW 335 33,8 km/h (5 Bft)
04.01.2012 18:37 6,4 C 67 % 0,0 l/m 19,4 km/h (3 Bft) W-NW 300 32,2 km/h (5 Bft)
04.01.2012 18:38 6,4 C 67 % 0,0 l/m 14,0 km/h (3 Bft) W-SW 242 25,7 km/h (4 Bft)
04.01.2012 18:39 6,4 C 67 % 0,0 l/m 13,4 km/h (3 Bft) W-NW 300 20,9 km/h (4 Bft)
04.01.2012 18:40 6,4 C 67 % 0,0 l/m 21,2 km/h (4 Bft) SW 226 41,8 km/h (6 Bft)
04.01.2012 18:41 6,4 C 67 % 0,0 l/m 16,3 km/h (3 Bft) W-SW 253 27,4 km/h (4 Bft)
04.01.2012 18:42 6,4 C 67 % 0,0 l/m 13,8 km/h (3 Bft) W 276 22,5 km/h (4 Bft)
04.01.2012 18:43 6,4 C 67 % 0,0 l/m 12,9 km/h (3 Bft) W-NW 297 22,5 km/h (4 Bft)
04.01.2012 18:44 6,4 C 67 % 0,0 l/m 18,5 km/h (3 Bft) W-NW 285 33,8 km/h (5 Bft)
04.01.2012 18:45 6,4 C 67 % 0,0 l/m 17,2 km/h (3 Bft) NW 317 35,4 km/h (5 Bft)
04.01.2012 18:46 6,4 C 67 % 0,0 l/m 18,3 km/h (3 Bft) W-SW 240 37,0 km/h (5 Bft)
04.01.2012 18:47 6,4 C 67 % 0,0 l/m 19,2 km/h (3 Bft) W-NW 287 29,0 km/h (5 Bft)
04.01.2012 18:48 6,4 C 67 % 0,0 l/m 16,6 km/h (3 Bft) W-SW 238 25,7 km/h (4 Bft)
04.01.2012 18:49 6,4 C 67 % 0,0 l/m 20,7 km/h (4 Bft) N-NO 25 37,0 km/h (5 Bft)
04.01.2012 18:50 6,4 C 67 % 0,0 l/m 16,0 km/h (3 Bft) W-NW 295 30,6 km/h (5 Bft)
04.01.2012 18:51 6,4 C 67 % 0,0 l/m 12,4 km/h (3 Bft) W-SW 246 24,1 km/h (4 Bft)
04.01.2012 18:52 6,4 C 67 % 0,0 l/m 14,3 km/h (3 Bft) W-NW 300 22,5 km/h (4 Bft)
04.01.2012 18:53 6,3 C 67 % 0,0 l/m 18,9 km/h (3 Bft) W 269 33,8 km/h (5 Bft)
04.01.2012 18:54 6,4 C 66 % 0,0 l/m 14,3 km/h (3 Bft) W-NW 301 29,0 km/h (5 Bft)
04.01.2012 18:55 6,4 C 66 % 0,0 l/m 21,3 km/h (4 Bft) NW 308 32,2 km/h (5 Bft)
04.01.2012 18:56 6,4 C 66 % 0,0 l/m 13,0 km/h (3 Bft) W-NW 285 20,9 km/h (4 Bft)
04.01.2012 18:57 6,4 C 66 % 0,0 l/m 14,3 km/h (3 Bft) W-NW 290 22,5 km/h (4 Bft)
04.01.2012 18:58 6,4 C 66 % 0,0 l/m 13,0 km/h (3 Bft) NW 312 20,9 km/h (4 Bft)
04.01.2012 18:59 6,3 C 66 % 0,0 l/m 21,3 km/h (4 Bft) W-SW 240 30,6 km/h (5 Bft)
04.01.2012 19:00 6,3 C 66 % 0,0 l/m 23,5 km/h (4 Bft) W-SW 248 35,4 km/h (5 Bft)
04.01.2012 19:01 6,3 C 66 % 0,0 l/m 27,4 km/h (4 Bft) S-SW 208 37,0 km/h (5 Bft)
04.01.2012 19:02 6,3 C 65 % 0,0 l/m 18,4 km/h (3 Bft) W-NW 284 33,8 km/h (5 Bft)
04.01.2012 19:03 6,3 C 65 % 0,0 l/m 17,2 km/h (3 Bft) W-NW 285 33,8 km/h (5 Bft)
04.01.2012 19:04 6,3 C 65 % 0,0 l/m 13,4 km/h (3 Bft) S 175 20,9 km/h (4 Bft)
04.01.2012 19:05 6,3 C 65 % 0,0 l/m 18,4 km/h (3 Bft) SW 214 37,0 km/h (5 Bft)
04.01.2012 19:06 6,3 C 65 % 0,0 l/m 15,6 km/h (3 Bft) W-SW 249 30,6 km/h (5 Bft)
04.01.2012 19:07 6,3 C 65 % 0,0 l/m 16,0 km/h (3 Bft) W-SW 256 24,1 km/h (4 Bft)
04.01.2012 19:08 6,3 C 65 % 0,0 l/m 20,3 km/h (4 Bft) W-SW 248 32,2 km/h (5 Bft)
04.01.2012 19:09 6,3 C 65 % 0,0 l/m 26,2 km/h (4 Bft) SW 233 41,8 km/h (6 Bft)
04.01.2012 19:10 6,3 C 65 % 0,0 l/m 29,4 km/h (5 Bft) W-SW 244 43,5 km/h (6 Bft)
04.01.2012 19:11 6,3 C 65 % 0,0 l/m 26,0 km/h (4 Bft) W-SW 242 33,8 km/h (5 Bft)
04.01.2012 19:12 6,3 C 65 % 0,0 l/m 26,7 km/h (4 Bft) W 276 40,2 km/h (6 Bft)
04.01.2012 19:13 6,3 C 65 % 0,0 l/m 21,1 km/h (4 Bft) SW 226 37,0 km/h (5 Bft)
04.01.2012 19:14 6,3 C 65 % 0,0 l/m 18,9 km/h (3 Bft) W-NW 290 29,0 km/h (5 Bft)
04.01.2012 19:15 6,3 C 65 % 0,0 l/m 19,0 km/h (3 Bft) NO 42 30,6 km/h (5 Bft)
04.01.2012 19:16 6,3 C 65 % 0,0 l/m 20,4 km/h (4 Bft) W 280 37,0 km/h (5 Bft)
04.01.2012 19:17 6,2 C 65 % 0,0 l/m 21,5 km/h (4 Bft) W-SW 240 33,8 km/h (5 Bft)
04.01.2012 19:18 6,2 C 65 % 0,0 l/m 25,2 km/h (4 Bft) SW 236 37,0 km/h (5 Bft)
04.01.2012 19:19 6,2 C 65 % 0,0 l/m 22,4 km/h (4 Bft) NW 313 40,2 km/h (6 Bft)
04.01.2012 19:20 6,2 C 65 % 0,0 l/m 21,3 km/h (4 Bft) W-SW 242 33,8 km/h (5 Bft)
04.01.2012 19:21 6,2 C 65 % 0,0 l/m 23,5 km/h (4 Bft) O 96 32,2 km/h (5 Bft)
04.01.2012 19:22 6,2 C 65 % 0,0 l/m 16,1 km/h (3 Bft) SW 231 29,0 km/h (5 Bft)
04.01.2012 19:23 6,2 C 64 % 0,0 l/m 24,0 km/h (4 Bft) W-SW 256 40,2 km/h (6 Bft)
04.01.2012 19:24 6,2 C 64 % 0,0 l/m 19,4 km/h (3 Bft) SW 219 27,4 km/h (4 Bft)
04.01.2012 19:25 6,2 C 64 % 0,0 l/m 24,9 km/h (4 Bft) W-NW 291 35,4 km/h (5 Bft)
04.01.2012 19:26 6,2 C 64 % 0,0 l/m 22,7 km/h (4 Bft) S-SW 193 37,0 km/h (5 Bft)
04.01.2012 19:27 6,2 C 64 % 0,0 l/m 20,0 km/h (4 Bft) W 278 37,0 km/h (5 Bft)
04.01.2012 19:28 6,2 C 64 % 0,0 l/m 24,2 km/h (4 Bft) W-SW 256 46,7 km/h (6 Bft)
04.01.2012 19:29 6,2 C 64 % 0,0 l/m 27,6 km/h (4 Bft) W 271 46,7 km/h (6 Bft)
04.01.2012 19:30 6,3 C 64 % 0,0 l/m 21,7 km/h (4 Bft) O-NO 58 40,2 km/h (6 Bft)
04.01.2012 19:31 6,3 C 64 % 0,0 l/m 26,4 km/h (4 Bft) W 264 46,7 km/h (6 Bft)
04.01.2012 19:32 6,3 C 64 % 0,0 l/m 23,8 km/h (4 Bft) SW 232 40,2 km/h (6 Bft)
04.01.2012 19:33 6,3 C 64 % 0,0 l/m 18,9 km/h (3 Bft) N-NW 345 33,8 km/h (5 Bft)
04.01.2012 19:34 6,2 C 64 % 0,0 l/m 23,3 km/h (4 Bft) NW 318 38,6 km/h (5 Bft)
04.01.2012 19:35 6,2 C 64 % 0,0 l/m 27,5 km/h (4 Bft) W 274 38,6 km/h (5 Bft)
04.01.2012 19:36 6,2 C 63 % 0,0 l/m 37,1 km/h (5 Bft) W-NW 289 56,3 km/h (7 Bft)
04.01.2012 19:37 6,3 C 63 % 0,0 l/m 19,9 km/h (4 Bft) W-NW 300 48,3 km/h (6 Bft)
04.01.2012 19:38 6,3 C 63 % 0,0 l/m 23,9 km/h (4 Bft) O-SO 118 43,5 km/h (6 Bft)
04.01.2012 19:39 6,3 C 63 % 0,0 l/m 28,2 km/h (4 Bft) O-NO 58 43,5 km/h (6 Bft)
04.01.2012 19:40 6,3 C 63 % 0,0 l/m 21,7 km/h (4 Bft) SW 236 37,0 km/h (5 Bft)
04.01.2012 19:41 6,3 C 64 % 0,0 l/m 24,7 km/h (4 Bft) W-NW 289 33,8 km/h (5 Bft)
04.01.2012 19:42 6,3 C 64 % 0,0 l/m 22,9 km/h (4 Bft) O-NO 58 35,4 km/h (5 Bft)
04.01.2012 19:43 6,3 C 64 % 0,0 l/m 14,3 km/h (3 Bft) N 358 29,0 km/h (5 Bft)
04.01.2012 19:44 6,2 C 64 % 0,0 l/m 14,7 km/h (3 Bft) SW 226 27,4 km/h (4 Bft)
04.01.2012 19:45 6,2 C 64 % 0,0 l/m 14,2 km/h (3 Bft) N-NW 333 29,0 km/h (5 Bft)
04.01.2012 19:46 6,2 C 65 % 0,0 l/m 22,1 km/h (4 Bft) N-NO 21 37,0 km/h (5 Bft)
04.01.2012 19:47 6,2 C 64 % 0,0 l/m 23,0 km/h (4 Bft) SW 221 29,0 km/h (5 Bft)
04.01.2012 19:48 6,2 C 64 % 0,0 l/m 19,8 km/h (3 Bft) N-NW 338 33,8 km/h (5 Bft)
04.01.2012 19:49 6,2 C 64 % 0,0 l/m 14,2 km/h (3 Bft) W 274 24,1 km/h (4 Bft)
04.01.2012 19:50 6,1 C 64 % 0,0 l/m 16,6 km/h (3 Bft) W 267 25,7 km/h (4 Bft)
04.01.2012 19:51 6,1 C 65 % 0,0 l/m 14,3 km/h (3 Bft) SW 222 30,6 km/h (5 Bft)
04.01.2012 19:52 6,1 C 65 % 0,0 l/m 16,8 km/h (3 Bft) SO 138 27,4 km/h (4 Bft)
04.01.2012 19:53 6,1 C 64 % 0,0 l/m 19,2 km/h (3 Bft) S-SW 210 45,1 km/h (6 Bft)
04.01.2012 19:54 6,1 C 64 % 0,0 l/m 19,8 km/h (3 Bft) S-SO 154 38,6 km/h (5 Bft)
04.01.2012 19:55 6,1 C 64 % 0,0 l/m 14,2 km/h (3 Bft) W 264 22,5 km/h (4 Bft)
04.01.2012 19:56 6,1 C 65 % 0,0 l/m 17,0 km/h (3 Bft) W-NW 300 25,7 km/h (4 Bft)
04.01.2012 19:57 6,0 C 65 % 0,0 l/m 21,8 km/h (4 Bft) NW 304 33,8 km/h (5 Bft)
04.01.2012 19:58 6,0 C 65 % 0,0 l/m 22,6 km/h (4 Bft) NW 305 38,6 km/h (5 Bft)
04.01.2012 19:59 6,0 C 65 % 0,0 l/m 20,0 km/h (4 Bft) W-SW 248 40,2 km/h (6 Bft)
04.01.2012 20:00 5,9 C 64 % 0,0 l/m 17,1 km/h (3 Bft) W-NW 284 30,6 km/h (5 Bft)
04.01.2012 20:01 5,9 C 65 % 0,0 l/m 15,6 km/h (3 Bft) W-NW 301 27,4 km/h (4 Bft)
04.01.2012 20:02 5,9 C 64 % 0,0 l/m 15,9 km/h (3 Bft) W-NW 300 33,8 km/h (5 Bft)
04.01.2012 20:03 5,9 C 64 % 0,0 l/m 23,4 km/h (4 Bft) NW 321 35,4 km/h (5 Bft)
04.01.2012 20:04 5,9 C 64 % 0,0 l/m 21,7 km/h (4 Bft) SW 224 43,5 km/h (6 Bft)
04.01.2012 20:05 5,9 C 64 % 0,0 l/m 22,9 km/h (4 Bft) N 1 35,4 km/h (5 Bft)
04.01.2012 20:06 5,9 C 64 % 0,0 l/m 27,1 km/h (4 Bft) SW 233 40,2 km/h (6 Bft)
04.01.2012 20:07 5,9 C 64 % 0,0 l/m 26,7 km/h (4 Bft) W-SW 256 41,8 km/h (6 Bft)
04.01.2012 20:08 5,9 C 64 % 0,0 l/m 26,7 km/h (4 Bft) NW 316 48,3 km/h (6 Bft)
04.01.2012 20:09 5,9 C 64 % 0,0 l/m 23,5 km/h (4 Bft) S 183 37,0 km/h (5 Bft)
04.01.2012 20:10 5,9 C 64 % 0,0 l/m 25,7 km/h (4 Bft) O-NO 63 48,3 km/h (6 Bft)
04.01.2012 20:11 5,9 C 64 % 0,0 l/m 25,9 km/h (4 Bft) N 6 45,1 km/h (6 Bft)
04.01.2012 20:12 5,9 C 64 % 0,0 l/m 24,7 km/h (4 Bft) W 271 53,1 km/h (7 Bft)
04.01.2012 20:13 5,9 C 64 % 0,0 l/m 14,4 km/h (3 Bft) W 274 35,4 km/h (5 Bft)
04.01.2012 20:14 5,9 C 64 % 0,0 l/m 24,3 km/h (4 Bft) W-SW 253 38,6 km/h (5 Bft)
04.01.2012 20:15 5,9 C 64 % 0,0 l/m 17,6 km/h (3 Bft) W-NW 295 33,8 km/h (5 Bft)
04.01.2012 20:16 5,9 C 64 % 0,0 l/m 27,5 km/h (4 Bft) W-NW 284 40,2 km/h (6 Bft)
04.01.2012 20:17 5,9 C 64 % 0,0 l/m 26,1 km/h (4 Bft) W-SW 250 35,4 km/h (5 Bft)
04.01.2012 20:18 5,9 C 64 % 0,0 l/m 20,4 km/h (4 Bft) W-NW 301 33,8 km/h (5 Bft)
04.01.2012 20:19 5,8 C 64 % 0,0 l/m 18,5 km/h (3 Bft) NW 326 25,7 km/h (4 Bft)
04.01.2012 20:20 5,8 C 64 % 0,0 l/m 21,4 km/h (4 Bft) W-NW 295 35,4 km/h (5 Bft)
04.01.2012 20:21 5,8 C 64 % 0,0 l/m 23,2 km/h (4 Bft) W 269 43,5 km/h (6 Bft)
04.01.2012 20:22 5,9 C 64 % 0,0 l/m 26,4 km/h (4 Bft) O 85 49,9 km/h (6 Bft)
04.01.2012 20:23 5,9 C 64 % 0,0 l/m 16,2 km/h (3 Bft) W-NW 285 29,0 km/h (5 Bft)
04.01.2012 20:24 5,9 C 64 % 0,0 l/m 19,9 km/h (4 Bft) N-NW 347 41,8 km/h (6 Bft)
04.01.2012 20:25 5,9 C 64 % 0,0 l/m 22,2 km/h (4 Bft) W-SW 246 37,0 km/h (5 Bft)
04.01.2012 20:26 5,9 C 64 % 0,0 l/m 21,6 km/h (4 Bft) W-SW 239 40,2 km/h (6 Bft)
04.01.2012 20:27 5,9 C 64 % 0,0 l/m 20,9 km/h (4 Bft) N 5 38,6 km/h (5 Bft)
04.01.2012 20:28 5,9 C 64 % 0,0 l/m 22,5 km/h (4 Bft) NW 325 38,6 km/h (5 Bft)
04.01.2012 20:29 5,9 C 64 % 0,0 l/m 22,8 km/h (4 Bft) N-NO 12 41,8 km/h (6 Bft)
04.01.2012 20:30 5,9 C 64 % 0,0 l/m 15,2 km/h (3 Bft) N 358 33,8 km/h (5 Bft)
04.01.2012 20:31 5,9 C 64 % 0,0 l/m 20,5 km/h (4 Bft) NW 323 38,6 km/h (5 Bft)
04.01.2012 20:32 5,9 C 64 % 0,0 l/m 19,6 km/h (3 Bft) W-SW 258 32,2 km/h (5 Bft)
04.01.2012 20:33 5,8 C 64 % 0,0 l/m 15,7 km/h (3 Bft) W 281 24,1 km/h (4 Bft)
04.01.2012 20:34 5,8 C 64 % 0,0 l/m 21,2 km/h (4 Bft) W-NW 291 32,2 km/h (5 Bft)
04.01.2012 20:35 5,8 C 64 % 0,0 l/m 20,5 km/h (4 Bft) W-NW 286 43,5 km/h (6 Bft)
04.01.2012 20:36 5,8 C 64 % 0,0 l/m 27,2 km/h (4 Bft) S-SW 193 49,9 km/h (6 Bft)
04.01.2012 20:37 5,8 C 64 % 0,0 l/m 22,7 km/h (4 Bft) W-SW 257 32,2 km/h (5 Bft)
04.01.2012 20:38 5,9 C 64 % 0,0 l/m 27,0 km/h (4 Bft) W 260 45,1 km/h (6 Bft)
04.01.2012 20:39 5,9 C 63 % 0,0 l/m 20,9 km/h (4 Bft) W 274 40,2 km/h (6 Bft)
04.01.2012 20:40 5,9 C 63 % 0,0 l/m 25,9 km/h (4 Bft) W-NW 288 37,0 km/h (5 Bft)
04.01.2012 20:41 5,9 C 64 % 0,0 l/m 22,0 km/h (4 Bft) N 360 40,2 km/h (6 Bft)
04.01.2012 20:42 5,9 C 64 % 0,0 l/m 15,4 km/h (3 Bft) SW 232 32,2 km/h (5 Bft)
04.01.2012 20:43 5,8 C 64 % 0,0 l/m 23,5 km/h (4 Bft) W-SW 240 41,8 km/h (6 Bft)
04.01.2012 20:44 5,8 C 64 % 0,0 l/m 21,0 km/h (4 Bft) NO 37 40,2 km/h (6 Bft)
04.01.2012 20:45 5,8 C 64 % 0,0 l/m 19,0 km/h (3 Bft) W-NW 298 41,8 km/h (6 Bft)
04.01.2012 20:46 5,8 C 63 % 0,0 l/m 19,2 km/h (3 Bft) W 280 30,6 km/h (5 Bft)
04.01.2012 20:47 5,8 C 63 % 0,0 l/m 17,2 km/h (3 Bft) W-SW 250 27,4 km/h (4 Bft)
04.01.2012 20:48 5,8 C 63 % 0,0 l/m 16,6 km/h (3 Bft) W-NW 294 25,7 km/h (4 Bft)
04.01.2012 20:49 5,8 C 63 % 0,0 l/m 18,1 km/h (3 Bft) W-NW 283 35,4 km/h (5 Bft)
04.01.2012 20:50 5,8 C 63 % 0,0 l/m 20,4 km/h (4 Bft) W 269 35,4 km/h (5 Bft)
04.01.2012 20:51 5,8 C 63 % 0,0 l/m 22,4 km/h (4 Bft) W-NW 295 33,8 km/h (5 Bft)
04.01.2012 20:52 5,8 C 63 % 0,0 l/m 28,5 km/h (4 Bft) W-SW 244 46,7 km/h (6 Bft)
04.01.2012 20:53 5,8 C 63 % 0,0 l/m 24,3 km/h (4 Bft) O-NO 65 45,1 km/h (6 Bft)
04.01.2012 20:54 5,8 C 63 % 0,0 l/m 18,6 km/h (3 Bft) W-NW 287 32,2 km/h (5 Bft)
04.01.2012 20:55 5,8 C 63 % 0,0 l/m 21,7 km/h (4 Bft) SW 236 30,6 km/h (5 Bft)
04.01.2012 20:56 5,8 C 63 % 0,0 l/m 17,8 km/h (3 Bft) NW 305 32,2 km/h (5 Bft)
04.01.2012 20:57 5,8 C 63 % 0,0 l/m 15,8 km/h (3 Bft) W-NW 288 35,4 km/h (5 Bft)
04.01.2012 20:58 5,7 C 63 % 0,0 l/m 20,2 km/h (4 Bft) O 91 33,8 km/h (5 Bft)
04.01.2012 20:59 5,7 C 63 % 0,0 l/m 17,4 km/h (3 Bft) W-NW 284 29,0 km/h (5 Bft)
04.01.2012 21:00 5,7 C 63 % 0,0 l/m 14,1 km/h (3 Bft) SW 228 24,1 km/h (4 Bft)
04.01.2012 21:01 5,7 C 62 % 0,0 l/m 20,3 km/h (4 Bft) NW 315 27,4 km/h (4 Bft)
04.01.2012 21:02 5,7 C 62 % 0,0 l/m 21,0 km/h (4 Bft) W-NW 298 33,8 km/h (5 Bft)
04.01.2012 21:03 5,7 C 62 % 0,0 l/m 25,3 km/h (4 Bft) N-NW 337 38,6 km/h (5 Bft)
04.01.2012 21:04 5,8 C 62 % 0,0 l/m 21,5 km/h (4 Bft) NO 35 30,6 km/h (5 Bft)
04.01.2012 21:05 5,8 C 61 % 0,0 l/m 18,6 km/h (3 Bft) O-SO 117 29,0 km/h (5 Bft)
04.01.2012 21:06 5,8 C 61 % 0,0 l/m 19,6 km/h (3 Bft) S-SW 212 32,2 km/h (5 Bft)
04.01.2012 21:07 5,8 C 61 % 0,0 l/m 9,4 km/h (2 Bft) W-NW 297 19,3 km/h (3 Bft)
04.01.2012 21:08 5,8 C 61 % 0,0 l/m 15,5 km/h (3 Bft) W-NW 290 27,4 km/h (4 Bft)
04.01.2012 21:09 5,8 C 61 % 0,0 l/m 19,1 km/h (3 Bft) W-NW 298 32,2 km/h (5 Bft)
04.01.2012 21:10 5,8 C 61 % 0,0 l/m 16,6 km/h (3 Bft) W-NW 293 20,9 km/h (4 Bft)
04.01.2012 21:11 5,8 C 61 % 0,0 l/m 12,6 km/h (3 Bft) W 277 22,5 km/h (4 Bft)
04.01.2012 21:12 5,8 C 61 % 0,0 l/m 14,8 km/h (3 Bft) SW 215 24,1 km/h (4 Bft)
04.01.2012 21:13 5,7 C 61 % 0,0 l/m 15,7 km/h (3 Bft) SW 236 29,0 km/h (5 Bft)
04.01.2012 21:14 5,7 C 61 % 0,0 l/m 17,6 km/h (3 Bft) NO 42 29,0 km/h (5 Bft)
04.01.2012 21:15 5,7 C 61 % 0,0 l/m 16,4 km/h (3 Bft) W 266 30,6 km/h (5 Bft)
04.01.2012 21:16 5,7 C 61 % 0,0 l/m 16,0 km/h (3 Bft) W 269 30,6 km/h (5 Bft)
04.01.2012 21:17 5,7 C 60 % 0,0 l/m 14,5 km/h (3 Bft) W 280 30,6 km/h (5 Bft)
04.01.2012 21:18 5,7 C 60 % 0,0 l/m 10,3 km/h (2 Bft) N-NO 32 24,1 km/h (4 Bft)
04.01.2012 21:19 5,7 C 60 % 0,0 l/m 11,6 km/h (2 Bft) SW 231 27,4 km/h (4 Bft)
04.01.2012 21:20 5,7 C 60 % 0,0 l/m 14,9 km/h (3 Bft) W-SW 238 32,2 km/h (5 Bft)
04.01.2012 21:21 5,7 C 59 % 0,0 l/m 20,2 km/h (4 Bft) W 262 32,2 km/h (5 Bft)
04.01.2012 21:22 5,7 C 60 % 0,0 l/m 20,2 km/h (4 Bft) W-SW 250 30,6 km/h (5 Bft)
04.01.2012 21:23 5,7 C 59 % 0,0 l/m 21,2 km/h (4 Bft) N-NW 347 33,8 km/h (5 Bft)
04.01.2012 21:24 5,7 C 59 % 0,0 l/m 19,2 km/h (3 Bft) W 266 29,0 km/h (5 Bft)
04.01.2012 21:25 5,7 C 59 % 0,0 l/m 21,4 km/h (4 Bft) NW 321 29,0 km/h (5 Bft)
04.01.2012 21:26 5,7 C 59 % 0,0 l/m 15,6 km/h (3 Bft) W-NW 291 29,0 km/h (5 Bft)
04.01.2012 21:27 5,7 C 58 % 0,0 l/m 25,9 km/h (4 Bft) W-SW 245 45,1 km/h (6 Bft)
04.01.2012 21:28 5,7 C 58 % 0,0 l/m 20,8 km/h (4 Bft) W-SW 243 30,6 km/h (5 Bft)
04.01.2012 21:29 5,7 C 58 % 0,0 l/m 22,0 km/h (4 Bft) W-SW 245 38,6 km/h (5 Bft)
04.01.2012 21:30 5,8 C 58 % 0,0 l/m 25,6 km/h (4 Bft) W-NW 294 38,6 km/h (5 Bft)
04.01.2012 21:31 5,8 C 58 % 0,0 l/m 19,3 km/h (3 Bft) W 260 30,6 km/h (5 Bft)
04.01.2012 21:32 5,8 C 57 % 0,0 l/m 25,7 km/h (4 Bft) S-SW 202 41,8 km/h (6 Bft)
04.01.2012 21:33 5,8 C 57 % 0,0 l/m 21,0 km/h (4 Bft) W-SW 242 37,0 km/h (5 Bft)
04.01.2012 21:34 5,8 C 56 % 0,0 l/m 19,0 km/h (3 Bft) S-SW 203 29,0 km/h (5 Bft)
04.01.2012 21:35 5,9 C 56 % 0,0 l/m 21,5 km/h (4 Bft) S-SW 204 32,2 km/h (5 Bft)
04.01.2012 21:36 5,9 C 56 % 0,0 l/m 18,7 km/h (3 Bft) W-SW 237 27,4 km/h (4 Bft)
04.01.2012 21:37 5,9 C 56 % 0,0 l/m 14,1 km/h (3 Bft) O 96 27,4 km/h (4 Bft)
04.01.2012 21:38 5,9 C 56 % 0,0 l/m 18,8 km/h (3 Bft) W 262 30,6 km/h (5 Bft)
04.01.2012 21:39 5,9 C 56 % 0,0 l/m 14,3 km/h (3 Bft) SW 231 24,1 km/h (4 Bft)
04.01.2012 21:40 5,9 C 56 % 0,0 l/m 15,3 km/h (3 Bft) W-NW 285 25,7 km/h (4 Bft)
04.01.2012 21:41 5,9 C 56 % 0,0 l/m 13,6 km/h (3 Bft) S-SW 208 30,6 km/h (5 Bft)
04.01.2012 21:42 5,9 C 56 % 0,0 l/m 18,7 km/h (3 Bft) NW 312 29,0 km/h (5 Bft)
04.01.2012 21:43 5,9 C 56 % 0,0 l/m 16,5 km/h (3 Bft) SW 215 32,2 km/h (5 Bft)
04.01.2012 21:44 5,8 C 56 % 0,0 l/m 16,3 km/h (3 Bft) N-NW 345 33,8 km/h (5 Bft)
04.01.2012 21:45 5,9 C 55 % 0,0 l/m 19,3 km/h (3 Bft) W-SW 252 33,8 km/h (5 Bft)
04.01.2012 21:46 5,9 C 55 % 0,0 l/m 15,1 km/h (3 Bft) SW 229 24,1 km/h (4 Bft)
04.01.2012 21:47 5,9 C 55 % 0,0 l/m 16,7 km/h (3 Bft) SW 224 35,4 km/h (5 Bft)
04.01.2012 21:48 5,9 C 55 % 0,0 l/m 20,8 km/h (4 Bft) O-NO 63 32,2 km/h (5 Bft)
04.01.2012 21:49 5,9 C 55 % 0,0 l/m 10,9 km/h (2 Bft) SO 143 17,7 km/h (3 Bft)
04.01.2012 21:50 5,9 C 55 % 0,0 l/m 15,1 km/h (3 Bft) W-NW 291 24,1 km/h (4 Bft)
04.01.2012 21:51 5,9 C 55 % 0,0 l/m 20,2 km/h (4 Bft) W 278 27,4 km/h (4 Bft)
04.01.2012 21:52 5,9 C 55 % 0,0 l/m 12,6 km/h (3 Bft) W 267 27,4 km/h (4 Bft)
04.01.2012 21:53 5,9 C 55 % 0,0 l/m 16,9 km/h (3 Bft) W-NW 293 25,7 km/h (4 Bft)
04.01.2012 21:54 5,9 C 54 % 0,0 l/m 26,3 km/h (4 Bft) SO 131 38,6 km/h (5 Bft)
04.01.2012 21:55 5,9 C 54 % 0,0 l/m 19,3 km/h (3 Bft) W-NW 293 29,0 km/h (5 Bft)
04.01.2012 21:56 5,9 C 55 % 0,0 l/m 11,0 km/h (2 Bft) W-SW 248 19,3 km/h (3 Bft)
04.01.2012 21:57 5,9 C 55 % 0,0 l/m 17,9 km/h (3 Bft) NW 312 22,5 km/h (4 Bft)
04.01.2012 21:58 5,9 C 55 % 0,0 l/m 15,4 km/h (3 Bft) W-NW 291 22,5 km/h (4 Bft)
04.01.2012 21:59 5,9 C 55 % 0,0 l/m 15,6 km/h (3 Bft) W-SW 246 24,1 km/h (4 Bft)
04.01.2012 22:00 5,9 C 55 % 0,0 l/m 19,3 km/h (3 Bft) NO 34 35,4 km/h (5 Bft)
04.01.2012 22:01 5,9 C 53 % 0,0 l/m 16,6 km/h (3 Bft) N 8 29,0 km/h (5 Bft)
04.01.2012 22:02 6,0 C 53 % 0,0 l/m 21,3 km/h (4 Bft) W 271 35,4 km/h (5 Bft)
04.01.2012 22:03 6,0 C 53 % 0,0 l/m 10,5 km/h (2 Bft) W 270 20,9 km/h (4 Bft)
04.01.2012 22:04 6,0 C 53 % 0,0 l/m 17,1 km/h (3 Bft) N-NW 339 27,4 km/h (4 Bft)
04.01.2012 22:05 6,0 C 53 % 0,0 l/m 19,0 km/h (3 Bft) W 281 38,6 km/h (5 Bft)
04.01.2012 22:06 6,1 C 53 % 0,0 l/m 23,5 km/h (4 Bft) NW 304 38,6 km/h (5 Bft)
04.01.2012 22:07 6,1 C 52 % 0,0 l/m 15,4 km/h (3 Bft) W 278 25,7 km/h (4 Bft)
04.01.2012 22:08 6,1 C 53 % 0,0 l/m 16,5 km/h (3 Bft) NW 305 32,2 km/h (5 Bft)
04.01.2012 22:09 6,1 C 53 % 0,0 l/m 12,6 km/h (3 Bft) W 274 22,5 km/h (4 Bft)
04.01.2012 22:10 6,1 C 54 % 0,0 l/m 14,6 km/h (3 Bft) W 265 24,1 km/h (4 Bft)
04.01.2012 22:11 6,0 C 54 % 0,0 l/m 17,9 km/h (3 Bft) SW 235 32,2 km/h (5 Bft)
04.01.2012 22:12 6,0 C 54 % 0,0 l/m 14,9 km/h (3 Bft) NW 308 19,3 km/h (3 Bft)
04.01.2012 22:13 5,9 C 54 % 0,0 l/m 13,3 km/h (3 Bft) N 352 22,5 km/h (4 Bft)
04.01.2012 22:14 5,9 C 54 % 0,0 l/m 18,1 km/h (3 Bft) W-NW 297 22,5 km/h (4 Bft)
04.01.2012 22:15 5,9 C 54 % 0,0 l/m 19,4 km/h (3 Bft) W 260 32,2 km/h (5 Bft)
04.01.2012 22:16 6,0 C 54 % 0,0 l/m 22,9 km/h (4 Bft) W-SW 250 32,2 km/h (5 Bft)
04.01.2012 22:17 6,0 C 54 % 0,0 l/m 12,1 km/h (2 Bft) O-NO 67 27,4 km/h (4 Bft)
04.01.2012 22:18 6,0 C 54 % 0,0 l/m 15,0 km/h (3 Bft) W 276 33,8 km/h (5 Bft)
04.01.2012 22:19 6,1 C 53 % 0,0 l/m 16,3 km/h (3 Bft) W 269 37,0 km/h (5 Bft)
04.01.2012 22:20 6,1 C 53 % 0,0 l/m 16,1 km/h (3 Bft) W-SW 246 27,4 km/h (4 Bft)
04.01.2012 22:21 6,1 C 53 % 0,0 l/m 11,6 km/h (2 Bft) SW 235 19,3 km/h (3 Bft)
04.01.2012 22:22 6,1 C 54 % 0,0 l/m 14,3 km/h (3 Bft) W-NW 298 20,9 km/h (4 Bft)
04.01.2012 22:23 6,0 C 54 % 0,0 l/m 13,9 km/h (3 Bft) W-NW 290 27,4 km/h (4 Bft)
04.01.2012 22:24 6,0 C 54 % 0,0 l/m 15,4 km/h (3 Bft) W-NW 289 29,0 km/h (5 Bft)
04.01.2012 22:25 6,0 C 54 % 0,0 l/m 14,2 km/h (3 Bft) NW 313 20,9 km/h (4 Bft)
04.01.2012 22:26 6,0 C 54 % 0,0 l/m 14,9 km/h (3 Bft) SW 229 24,1 km/h (4 Bft)
04.01.2012 22:27 5,9 C 54 % 0,0 l/m 7,1 km/h (2 Bft) W-SW 242 16,1 km/h (3 Bft)
04.01.2012 22:28 5,9 C 55 % 0,0 l/m 14,6 km/h (3 Bft) SW 235 25,7 km/h (4 Bft)
04.01.2012 22:29 5,9 C 55 % 0,0 l/m 13,3 km/h (3 Bft) SW 218 25,7 km/h (4 Bft)
04.01.2012 22:30 5,9 C 55 % 0,0 l/m 7,7 km/h (2 Bft) N 8 16,1 km/h (3 Bft)
04.01.2012 22:31 5,9 C 55 % 0,0 l/m 13,2 km/h (3 Bft) W 262 19,3 km/h (3 Bft)
04.01.2012 22:32 5,8 C 55 % 0,0 l/m 11,7 km/h (2 Bft) SW 218 17,7 km/h (3 Bft)
04.01.2012 22:33 5,8 C 55 % 0,0 l/m 9,7 km/h (2 Bft) W 280 16,1 km/h (3 Bft)
04.01.2012 22:34 5,8 C 56 % 0,0 l/m 6,4 km/h (2 Bft) SW 232 14,5 km/h (3 Bft)
04.01.2012 22:35 5,8 C 56 % 0,0 l/m 7,1 km/h (2 Bft) NW 308 11,3 km/h (2 Bft)
04.01.2012 22:36 5,7 C 56 % 0,0 l/m 7,2 km/h (2 Bft) W-SW 240 12,9 km/h (3 Bft)
04.01.2012 22:37 5,7 C 56 % 0,0 l/m 6,9 km/h (2 Bft) W 259 12,9 km/h (3 Bft)
04.01.2012 22:38 5,7 C 56 % 0,0 l/m 6,1 km/h (2 Bft) SW 216 16,1 km/h (3 Bft)
04.01.2012 22:39 5,7 C 56 % 0,0 l/m 7,1 km/h (2 Bft) N 360 12,9 km/h (3 Bft)
04.01.2012 22:40 5,6 C 56 % 0,0 l/m 9,5 km/h (2 Bft) W 269 12,9 km/h (3 Bft)
04.01.2012 22:41 5,6 C 57 % 0,0 l/m 10,5 km/h (2 Bft) SW 236 16,1 km/h (3 Bft)
04.01.2012 22:42 5,5 C 57 % 0,0 l/m 14,0 km/h (3 Bft) W-NW 297 19,3 km/h (3 Bft)
04.01.2012 22:43 5,5 C 57 % 0,0 l/m 13,7 km/h (3 Bft) SW 236 17,7 km/h (3 Bft)
04.01.2012 22:44 5,4 C 58 % 0,0 l/m 11,7 km/h (2 Bft) W-SW 249 19,3 km/h (3 Bft)
04.01.2012 22:45 5,4 C 58 % 0,0 l/m 7,8 km/h (2 Bft) W-SW 256 14,5 km/h (3 Bft)
04.01.2012 22:46 5,3 C 58 % 0,0 l/m 10,3 km/h (2 Bft) SW 235 17,7 km/h (3 Bft)
04.01.2012 22:47 5,3 C 58 % 0,0 l/m 10,3 km/h (2 Bft) W-NW 296 16,1 km/h (3 Bft)
04.01.2012 22:48 5,3 C 58 % 0,0 l/m 9,7 km/h (2 Bft) SW 236 16,1 km/h (3 Bft)
04.01.2012 22:49 5,2 C 58 % 0,0 l/m 10,2 km/h (2 Bft) W 272 14,5 km/h (3 Bft)
04.01.2012 22:50 5,2 C 58 % 0,0 l/m 12,1 km/h (2 Bft) W 260 16,1 km/h (3 Bft)
04.01.2012 22:51 5,2 C 58 % 0,0 l/m 10,1 km/h (2 Bft) W-SW 248 16,1 km/h (3 Bft)
04.01.2012 22:52 5,2 C 58 % 0,0 l/m 12,0 km/h (2 Bft) SW 224 17,7 km/h (3 Bft)
04.01.2012 22:53 5,2 C 58 % 0,0 l/m 11,6 km/h (2 Bft) W 259 17,7 km/h (3 Bft)
04.01.2012 22:54 5,2 C 58 % 0,0 l/m 9,3 km/h (2 Bft) NW 309 16,1 km/h (3 Bft)
04.01.2012 22:55 5,1 C 58 % 0,0 l/m 8,3 km/h (2 Bft) W 264 17,7 km/h (3 Bft)
04.01.2012 22:56 5,1 C 59 % 0,0 l/m 9,2 km/h (2 Bft) N 357 12,9 km/h (3 Bft)
04.01.2012 22:57 5,1 C 59 % 0,0 l/m 8,4 km/h (2 Bft) W 278 14,5 km/h (3 Bft)
04.01.2012 22:58 5,1 C 59 % 0,0 l/m 5,9 km/h (2 Bft) S-SW 207 11,3 km/h (2 Bft)
04.01.2012 22:59 5,1 C 59 % 0,0 l/m 7,3 km/h (2 Bft) W 269 12,9 km/h (3 Bft)
04.01.2012 23:00 5,1 C 59 % 0,0 l/m 5,6 km/h (1 Bft) W-NW 283 12,9 km/h (3 Bft)
04.01.2012 23:01 5,0 C 59 % 0,0 l/m 7,5 km/h (2 Bft) SW 231 14,5 km/h (3 Bft)
04.01.2012 23:02 5,0 C 59 % 0,0 l/m 11,6 km/h (2 Bft) W-SW 238 17,7 km/h (3 Bft)
04.01.2012 23:03 4,9 C 59 % 0,0 l/m 5,1 km/h (1 Bft) W 278 9,7 km/h (2 Bft)
04.01.2012 23:04 4,9 C 60 % 0,0 l/m 6,8 km/h (2 Bft) W 274 12,9 km/h (3 Bft)
04.01.2012 23:05 4,9 C 60 % 0,0 l/m 10,1 km/h (2 Bft) W-SW 255 14,5 km/h (3 Bft)
04.01.2012 23:06 4,9 C 60 % 0,0 l/m 8,2 km/h (2 Bft) W 271 16,1 km/h (3 Bft)
04.01.2012 23:07 4,9 C 60 % 0,0 l/m 5,5 km/h (1 Bft) W-NW 298 11,3 km/h (2 Bft)
04.01.2012 23:08 4,9 C 60 % 0,0 l/m 8,7 km/h (2 Bft) W 269 11,3 km/h (2 Bft)
04.01.2012 23:09 4,8 C 60 % 0,0 l/m 6,4 km/h (2 Bft) W-SW 248 9,7 km/h (2 Bft)
04.01.2012 23:10 4,8 C 60 % 0,0 l/m 5,7 km/h (1 Bft) W-SW 248 11,3 km/h (2 Bft)
04.01.2012 23:11 4,8 C 60 % 0,0 l/m 7,3 km/h (2 Bft) W-SW 242 11,3 km/h (2 Bft)
04.01.2012 23:12 4,8 C 60 % 0,0 l/m 6,2 km/h (2 Bft) W 271 8,0 km/h (2 Bft)
04.01.2012 23:13 4,8 C 60 % 0,0 l/m 7,4 km/h (2 Bft) W 272 9,7 km/h (2 Bft)
04.01.2012 23:14 4,8 C 60 % 0,0 l/m 4,6 km/h (1 Bft) NW 319 8,0 km/h (2 Bft)
04.01.2012 23:15 4,8 C 60 % 0,0 l/m 5,9 km/h (2 Bft) W-NW 287 8,0 km/h (2 Bft)
04.01.2012 23:16 4,7 C 61 % 0,0 l/m 5,1 km/h (1 Bft) W-SW 256 8,0 km/h (2 Bft)
04.01.2012 23:17 4,7 C 61 % 0,0 l/m 4,8 km/h (1 Bft) W-SW 256 6,4 km/h (2 Bft)
04.01.2012 23:18 4,7 C 61 % 0,0 l/m 5,8 km/h (2 Bft) W-SW 252 8,0 km/h (2 Bft)
04.01.2012 23:19 4,7 C 60 % 0,0 l/m 8,1 km/h (2 Bft) W-SW 257 14,5 km/h (3 Bft)
04.01.2012 23:20 4,7 C 60 % 0,0 l/m 5,2 km/h (1 Bft) W-SW 239 6,4 km/h (2 Bft)
04.01.2012 23:21 4,7 C 60 % 0,0 l/m 7,6 km/h (2 Bft) O-NO 75 12,9 km/h (3 Bft)
04.01.2012 23:22 4,7 C 60 % 0,0 l/m 5,2 km/h (1 Bft) W-SW 243 8,0 km/h (2 Bft)
04.01.2012 23:23 4,7 C 60 % 0,0 l/m 4,2 km/h (1 Bft) W-SW 252 6,4 km/h (2 Bft)
04.01.2012 23:24 4,7 C 60 % 0,0 l/m 4,7 km/h (1 Bft) W-SW 250 8,0 km/h (2 Bft)
04.01.2012 23:25 4,7 C 60 % 0,0 l/m 6,3 km/h (2 Bft) W-SW 245 9,7 km/h (2 Bft)
04.01.2012 23:26 4,7 C 60 % 0,0 l/m 6,8 km/h (2 Bft) NW 308 11,3 km/h (2 Bft)
04.01.2012 23:27 4,7 C 60 % 0,0 l/m 8,5 km/h (2 Bft) S 188 14,5 km/h (3 Bft)
04.01.2012 23:28 4,7 C 60 % 0,0 l/m 6,9 km/h (2 Bft) SW 233 12,9 km/h (3 Bft)
04.01.2012 23:29 4,8 C 59 % 0,0 l/m 8,1 km/h (2 Bft) W-NW 291 14,5 km/h (3 Bft)
04.01.2012 23:30 4,8 C 59 % 0,0 l/m 9,1 km/h (2 Bft) SW 224 14,5 km/h (3 Bft)
04.01.2012 23:31 4,8 C 59 % 0,0 l/m 3,8 km/h (1 Bft) W-NW 289 9,7 km/h (2 Bft)
04.01.2012 23:32 4,8 C 59 % 0,0 l/m 3,0 km/h (1 Bft) SW 217 4,8 km/h (1 Bft)
04.01.2012 23:33 4,9 C 59 % 0,0 l/m 3,9 km/h (1 Bft) SW 236 6,4 km/h (2 Bft)
04.01.2012 23:34 4,9 C 58 % 0,0 l/m 7,2 km/h (2 Bft) W-SW 257 11,3 km/h (2 Bft)
04.01.2012 23:35 4,9 C 58 % 0,0 l/m 7,6 km/h (2 Bft) NW 306 12,9 km/h (3 Bft)
04.01.2012 23:36 4,9 C 58 % 0,0 l/m 10,9 km/h (2 Bft) SW 236 17,7 km/h (3 Bft)
04.01.2012 23:37 4,9 C 57 % 0,0 l/m 7,5 km/h (2 Bft) NW 315 12,9 km/h (3 Bft)
04.01.2012 23:38 4,9 C 57 % 0,0 l/m 9,3 km/h (2 Bft) W 271 12,9 km/h (3 Bft)
04.01.2012 23:39 5,0 C 57 % 0,0 l/m 7,8 km/h (2 Bft) W 267 12,9 km/h (3 Bft)
04.01.2012 23:40 5,1 C 57 % 0,0 l/m 6,8 km/h (2 Bft) W-SW 257 11,3 km/h (2 Bft)
04.01.2012 23:41 5,1 C 57 % 0,0 l/m 9,4 km/h (2 Bft) W-SW 239 14,5 km/h (3 Bft)
04.01.2012 23:42 5,1 C 57 % 0,0 l/m 8,7 km/h (2 Bft) W 266 14,5 km/h (3 Bft)
04.01.2012 23:43 5,1 C 57 % 0,0 l/m 10,1 km/h (2 Bft) SW 229 16,1 km/h (3 Bft)
04.01.2012 23:44 5,1 C 57 % 0,0 l/m 9,0 km/h (2 Bft) W-SW 238 12,9 km/h (3 Bft)
04.01.2012 23:45 5,1 C 57 % 0,0 l/m 8,2 km/h (2 Bft) W-NW 295 17,7 km/h (3 Bft)
04.01.2012 23:46 5,1 C 57 % 0,0 l/m 7,8 km/h (2 Bft) W-SW 240 11,3 km/h (2 Bft)
04.01.2012 23:47 5,1 C 57 % 0,0 l/m 8,9 km/h (2 Bft) W 281 11,3 km/h (2 Bft)
04.01.2012 23:48 5,1 C 57 % 0,0 l/m 4,7 km/h (1 Bft) W 259 9,7 km/h (2 Bft)
04.01.2012 23:49 5,0 C 57 % 0,0 l/m 2,1 km/h (1 Bft) W-NW 295 4,8 km/h (1 Bft)
04.01.2012 23:50 5,0 C 58 % 0,0 l/m 2,8 km/h (1 Bft) SW 235 6,4 km/h (2 Bft)
04.01.2012 23:51 4,9 C 58 % 0,0 l/m 5,5 km/h (1 Bft) W-SW 249 8,0 km/h (2 Bft)
04.01.2012 23:52 4,9 C 58 % 0,0 l/m 5,0 km/h (1 Bft) S-SW 210 8,0 km/h (2 Bft)
04.01.2012 23:53 4,9 C 58 % 0,0 l/m 5,7 km/h (1 Bft) W-SW 240 8,0 km/h (2 Bft)
04.01.2012 23:54 4,8 C 58 % 0,0 l/m 6,4 km/h (2 Bft) W-SW 240 8,0 km/h (2 Bft)
04.01.2012 23:55 4,8 C 57 % 0,0 l/m 6,0 km/h (2 Bft) SW 236 8,0 km/h (2 Bft)
04.01.2012 23:56 4,9 C 57 % 0,0 l/m 9,2 km/h (2 Bft) SW 222 11,3 km/h (2 Bft)
04.01.2012 23:57 4,9 C 57 % 0,0 l/m 8,0 km/h (2 Bft) W-NW 285 11,3 km/h (2 Bft)
04.01.2012 23:58 4,9 C 56 % 0,0 l/m 6,2 km/h (2 Bft) W 274 9,7 km/h (2 Bft)
04.01.2012 23:59 4,9 C 56 % 0,0 l/m 6,8 km/h (2 Bft) W-SW 246 9,7 km/h (2 Bft)
_ Min-Zeit 08:15 22:07 - 01:39 - - 01:39
Minimum _ 2,0 C 52 % - 0,0 km/h (0 Bft) - - 0,0 km/h (0 Bft)
_ Max-Zeit 12:04 08:47 00:00 12:07 - - 14:35
Maximum _ 9,3 C 97 % 0,0 l/m 41,5 km/h
W (6 Bft)
- - 59,5 km/h
W-NW (7 Bft)
Durchschnitt _ 5,2 C 77 % #0,0 l/m 12,1 km/h (2 Bft) NO - 19,5 km/h (3 Bft)